Provisional Data: Sterling Run near Sterling Run, PA


Please select a monitoring station.
Please select start date.
Please select start date.

Toggle Unit: C/F Toggle Unit: C/F
Sample Time Temperature (C) Temperature (F) Specific Conductivity (mS/cm) pH   Turbidity (NTU+) DO (mg/L)
5/17/2022 12:00:00 AM 12.53 54.554 0.063 6.68 4.35 10.11
5/17/2022 12:15:00 AM 12.47 54.446 0.063 6.67 4.53 10.13
5/17/2022 12:30:00 AM 12.42 54.356 0.063 6.67 3.66 10.14
5/17/2022 12:45:00 AM 12.36 54.248 0.063 6.67 3.46 10.14
5/17/2022 1:00:00 AM 12.29 54.122 0.063 6.68 3.6 10.17
5/17/2022 1:15:00 AM 12.23 54.014 0.063 6.67 3.23 10.18
5/17/2022 1:30:00 AM 12.18 53.924 0.063 6.67 3.06 10.19
5/17/2022 1:45:00 AM 12.14 53.852 0.063 6.67 3.07 10.2
5/17/2022 2:00:00 AM 12.08 53.744 0.063 6.67 3.25 10.21
5/17/2022 2:15:00 AM 12.02 53.636 0.063 6.67 3.27 10.22
5/17/2022 2:30:00 AM 11.96 53.528 0.063 6.67 3.24 10.24
5/17/2022 2:45:00 AM 11.9 53.42 0.063 6.66 3.37 10.25
5/17/2022 3:00:00 AM 11.83 53.294 0.063 6.67 3.27 10.27
5/17/2022 3:15:00 AM 11.77 53.186 0.063 6.67 3.19 10.29
5/17/2022 3:30:00 AM 11.72 53.096 0.063 6.67 3.14 10.3
5/17/2022 3:45:00 AM 11.67 53.006 0.063 6.66 3.23 10.31
5/17/2022 4:00:00 AM 11.6 52.88 0.063 6.67 3.21 10.32
5/17/2022 4:15:00 AM 11.55 52.79 0.063 6.66 4.71 10.34
5/17/2022 4:30:00 AM 11.5 52.7 0.063 6.67 4.51 10.35
5/17/2022 4:45:00 AM 11.45 52.61 0.063 6.67 4.42 10.36
5/17/2022 5:00:00 AM 11.38 52.484 0.063 6.66 4.15 10.38
5/17/2022 5:15:00 AM 11.31 52.358 0.063 6.67 4.62 10.41
5/17/2022 5:30:00 AM 11.26 52.268 0.063 6.67 4.72 10.41
5/17/2022 5:45:00 AM 11.2 52.16 0.063 6.67 4.41 10.42
5/17/2022 6:00:00 AM 11.15 52.07 0.063 6.66 4.02 10.45
5/17/2022 6:15:00 AM 11.09 51.962 0.063 6.67 3.92 10.48
5/17/2022 6:30:00 AM 11.03 51.854 0.063 6.67 3.86 10.5
5/17/2022 6:45:00 AM 10.99 51.782 0.063 6.67 3.92 10.53
5/17/2022 7:00:00 AM 10.95 51.71 0.063 6.68 4.03 10.57
5/17/2022 7:15:00 AM 10.92 51.656 0.063 6.68 4.01 10.6
5/17/2022 7:30:00 AM 10.88 51.584 0.063 6.69 3.96 10.63
5/17/2022 7:45:00 AM 10.87 51.566 0.063 6.7 3.94 10.66
5/17/2022 8:00:00 AM 10.86 51.548 0.063 6.69 4.09 10.67
5/17/2022 8:15:00 AM 10.92 51.656 0.063 6.71 3.98 10.7
5/17/2022 8:30:00 AM 10.98 51.764 0.063 6.71 4 10.72
5/17/2022 8:45:00 AM 11.02 51.836 0.063 6.71 3.84 10.73
5/17/2022 9:00:00 AM 11.1 51.98 0.063 6.72 3.78 10.73
5/17/2022 9:15:00 AM 11.21 52.178 0.063 6.73 3.75 10.73
5/17/2022 9:30:00 AM 11.34 52.412 0.063 6.73 3.73 10.7
5/17/2022 9:45:00 AM 11.48 52.664 0.063 6.74 3.79 10.68
5/17/2022 10:00:00 AM 11.65 52.97 0.063 6.75 3.76 10.65
5/17/2022 10:15:00 AM 11.87 53.366 0.063 6.75 3.87 10.62
5/17/2022 10:30:00 AM 12.08 53.744 0.063 6.75 3.78 10.58
5/17/2022 10:45:00 AM 12.31 54.158 0.063 6.76 3.84 10.55
5/17/2022 11:00:00 AM 12.47 54.446 0.063 6.76 3.88 10.5
5/17/2022 11:15:00 AM 12.71 54.878 0.063 6.76 4.55 10.45
5/17/2022 11:30:00 AM 12.93 55.274 0.063 6.76 4 10.41
5/17/2022 11:45:00 AM 13.19 55.742 0.063 6.76 3.92 10.36
5/17/2022 12:00:00 PM 13.32 55.976 0.063 6.77 3.78 10.3
5/17/2022 12:15:00 PM 13.63 56.534 0.063 6.77 3.8 10.27
5/17/2022 12:30:00 PM 13.88 56.984 0.063 6.77 3.73 10.21
5/17/2022 12:45:00 PM 14.04 57.272 0.063 6.78 3.94 10.17
5/17/2022 1:00:00 PM 14.29 57.722 0.063 6.78 3.86 10.13
5/17/2022 1:15:00 PM 14.46 58.028 0.063 6.78 3.82 10.1
5/17/2022 1:30:00 PM 14.61 58.298 0.063 6.78 3.76 10.06
5/17/2022 1:45:00 PM 14.77 58.586 0.063 6.78 3.78 10.03
5/17/2022 2:00:00 PM 14.83 58.694 0.063 6.77 3.68 9.99
5/17/2022 2:15:00 PM 14.94 58.892 0.063 6.78 3.75 9.97
5/17/2022 2:30:00 PM 15.04 59.072 0.063 6.78 3.76 9.95
5/17/2022 2:45:00 PM 15.07 59.126 0.063 6.78 3.7 9.93
5/17/2022 3:00:00 PM 15.12 59.216 0.063 6.78 3.74 9.92
5/17/2022 3:15:00 PM 15.17 59.306 0.063 6.78 3.7 9.89
5/17/2022 3:30:00 PM 15.26 59.468 0.063 6.77 3.72 9.88
5/17/2022 3:45:00 PM 15.13 59.234 0.063 6.78 3.72 9.87
5/17/2022 4:00:00 PM 15.03 59.054 0.063 6.77 3.8 9.86
5/17/2022 4:15:00 PM 15.09 59.162 0.063 6.78 3.75 9.88
5/17/2022 4:30:00 PM 15.03 59.054 0.063 6.78 3.63 9.87
5/17/2022 4:45:00 PM 14.95 58.91 0.063 6.77 3.67 9.86
5/17/2022 5:00:00 PM 14.87 58.766 0.063 6.77 3.67 9.84
5/17/2022 5:15:00 PM 14.75 58.55 0.063 6.77 3.65 9.84
5/17/2022 5:30:00 PM 14.65 58.37 0.063 6.76 3.7 9.84
5/17/2022 5:45:00 PM 14.49 58.082 0.063 6.76 3.73 9.85
5/17/2022 6:00:00 PM 14.41 57.938 0.063 6.76 3.67 9.85
5/17/2022 6:15:00 PM 14.31 57.758 0.063 6.75 3.71 9.86
5/17/2022 6:30:00 PM 14.22 57.596 0.063 6.75 3.7 9.86
5/17/2022 6:45:00 PM 14.12 57.416 0.063 6.75 3.68 9.87
5/17/2022 7:00:00 PM 14.01 57.218 0.063 6.75 3.64 9.88
5/17/2022 7:15:00 PM 13.92 57.056 0.063 6.75 3.8 9.9
5/17/2022 7:30:00 PM 13.79 56.822 0.063 6.74 3.72 9.89
5/17/2022 7:45:00 PM 13.67 56.606 0.063 6.73 3.74 9.91
5/17/2022 8:00:00 PM 13.56 56.408 0.063 6.73 3.73 9.92
5/17/2022 8:15:00 PM 13.46 56.228 0.063 6.73 3.76 9.93
5/17/2022 8:30:00 PM 13.35 56.03 0.063 6.72 3.76 9.95
5/17/2022 8:45:00 PM 13.25 55.85 0.063 6.72 3.71 9.96
5/17/2022 9:00:00 PM 13.16 55.688 0.063 6.71 3.75 9.98
5/17/2022 9:15:00 PM 13.05 55.49 0.063 6.72 3.88 10.01
5/17/2022 9:30:00 PM 12.95 55.31 0.063 6.71 3.84 10.02
5/17/2022 9:45:00 PM 12.85 55.13 0.063 6.7 3.8 10.04
5/17/2022 10:00:00 PM 12.76 54.968 0.064 6.7 3.94 10.02
5/17/2022 10:15:00 PM 12.66 54.788 0.064 6.7 5.86 10.08
5/17/2022 10:30:00 PM 12.57 54.626 0.064 6.7 4.68 10.11
5/17/2022 10:45:00 PM 12.46 54.428 0.064 6.7 4.73 10.13
5/17/2022 11:00:00 PM 12.36 54.248 0.064 6.7 4.44 10.16
5/17/2022 11:15:00 PM 12.27 54.086 0.064 6.7 4.47 10.19
5/17/2022 11:30:00 PM 12.18 53.924 0.064 6.7 4.52 10.19
5/17/2022 11:45:00 PM 12.09 53.762 0.064 6.7 4.55 10.18
5/18/2022 12:00:00 AM 11.99 53.582 0.064 6.7 4.52 10.22
5/18/2022 12:15:00 AM 11.9 53.42 0.064 6.69 4.42 10.25
5/18/2022 12:30:00 AM 11.81 53.258 0.064 6.69 4.45 10.27
5/18/2022 12:45:00 AM 11.73 53.114 0.064 6.7 4.35 10.24
5/18/2022 1:00:00 AM 11.64 52.952 0.064 6.69 4.41 10.26
5/18/2022 1:15:00 AM 11.56 52.808 0.064 6.68 65.09 10.27
5/18/2022 1:30:00 AM 11.47 52.646 0.064 6.68 12.23 10.28
5/18/2022 1:45:00 AM 11.38 52.484 0.064 6.69 4.33 10.27
5/18/2022 2:00:00 AM 11.3 52.34 0.064 6.69 3.37 10.33
5/18/2022 2:15:00 AM 11.22 52.196 0.064 6.68 3.41 10.36
5/18/2022 2:30:00 AM 11.14 52.052 0.064 6.69 3.37 10.4
5/18/2022 2:45:00 AM 11.05 51.89 0.064 6.68 3.32 10.39
5/18/2022 3:00:00 AM 10.97 51.746 0.064 6.68 3.22 10.42
5/18/2022 3:15:00 AM 10.89 51.602 0.064 6.68 3.33 10.44
5/18/2022 3:30:00 AM 10.81 51.458 0.064 6.68 4.01 10.43
5/18/2022 3:45:00 AM 10.73 51.314 0.064 6.68 4.06 10.49
5/18/2022 4:00:00 AM 10.66 51.188 0.064 6.68 3.86 10.49
5/18/2022 4:15:00 AM 10.58 51.044 0.064 6.68 3.9 10.55
5/18/2022 4:30:00 AM 10.49 50.882 0.064 6.68 4.12 10.55
5/18/2022 4:45:00 AM 10.42 50.756 0.064 6.67 3.89 10.59
5/18/2022 5:00:00 AM 10.33 50.594 0.064 6.68 4.56 10.61
5/18/2022 5:15:00 AM 10.26 50.468 0.064 6.68 4.13 10.58
5/18/2022 5:30:00 AM 10.2 50.36 0.064 6.68 4.6 10.62
5/18/2022 5:45:00 AM 10.15 50.27 0.064 6.67 4.45 10.61
5/18/2022 6:00:00 AM 10.08 50.144 0.064 6.67 4.16 10.64
5/18/2022 6:15:00 AM 10.02 50.036 0.064 6.68 4.08 10.67
5/18/2022 6:30:00 AM 9.97 49.946 0.064 6.68 4.06 10.72
5/18/2022 6:45:00 AM 9.9 49.82 0.064 6.69 3.97 10.75
5/18/2022 7:00:00 AM 9.84 49.712 0.064 6.69 3.93 10.78
5/18/2022 7:15:00 AM 9.82 49.676 0.064 6.69 3.95 10.84
5/18/2022 7:30:00 AM 9.81 49.658 0.064 6.7 3.93 10.86
5/18/2022 7:45:00 AM 9.81 49.658 0.064 6.7 3.86 10.89
5/18/2022 8:00:00 AM 9.82 49.676 0.064 6.71 3.94 10.92
5/18/2022 8:15:00 AM 9.83 49.694 0.064 6.72 4.13 10.96
5/18/2022 8:30:00 AM 9.85 49.73 0.064 6.72 3.93 10.97
5/18/2022 8:45:00 AM 9.9 49.82 0.064 6.72 3.82 10.96
5/18/2022 9:00:00 AM 9.96 49.928 0.064 6.72 3.83 10.97
5/18/2022 9:15:00 AM 10.05 50.09 0.064 6.73 3.87 10.94
5/18/2022 9:30:00 AM 10.18 50.324 0.064 6.73 3.79 10.93
5/18/2022 9:45:00 AM 10.38 50.684 0.064 6.73 3.82 10.9
5/18/2022 10:00:00 AM 10.59 51.062 0.064 6.74 3.78 10.89
5/18/2022 10:15:00 AM 10.81 51.458 0.064 6.74 3.8 10.85
5/18/2022 10:30:00 AM 11.03 51.854 0.064 6.75 3.75 10.8
5/18/2022 10:45:00 AM 11.25 52.25 0.064 6.75 3.75 10.77
5/18/2022 11:00:00 AM 11.49 52.682 0.064 6.76 3.71 10.74
5/18/2022 11:15:00 AM 11.75 53.15 0.064 6.76 3.73 10.68
5/18/2022 11:30:00 AM 12.01 53.618 0.064 6.76 3.72 10.61
5/18/2022 11:45:00 AM 12.26 54.068 0.064 6.76 3.77 10.56
5/18/2022 12:00:00 PM 12.51 54.518 0.064 6.77 3.79 10.5
5/18/2022 12:15:00 PM 12.78 55.004 0.064 6.77 3.9 10.44
5/18/2022 12:30:00 PM 13.09 55.562 0.064 6.78 3.75 10.39
5/18/2022 12:45:00 PM 13.26 55.868 0.064 6.78 4.85 10.35
5/18/2022 1:00:00 PM 13.26 55.868 0.064 6.78 4.48 10.31
5/18/2022 1:15:00 PM 13.56 56.408 0.064 6.78 4.4 10.27
5/18/2022 1:30:00 PM 13.81 56.858 0.064 6.78 4.51 10.21
5/18/2022 1:45:00 PM 13.93 57.074 0.064 6.78 3.77 10.19
5/18/2022 2:00:00 PM 13.85 56.93 0.064 6.78 3.95 10.17
5/18/2022 2:15:00 PM 13.77 56.786 0.064 6.78 4.91 10.14
5/18/2022 2:30:00 PM 13.84 56.912 0.064 6.79 4.04 10.12
5/18/2022 2:45:00 PM 13.79 56.822 0.064 6.79 5.61 10.1
5/18/2022 3:00:00 PM 13.63 56.534 0.064 6.78 5.59 10.07
5/18/2022 3:15:00 PM 13.48 56.264 0.064 6.78 4.49 10.12
5/18/2022 3:30:00 PM 13.37 56.066 0.064 6.77 3.89 10.09
5/18/2022 3:45:00 PM 13.3 55.94 0.064 6.77 3.05 10.12
5/18/2022 4:00:00 PM 13.19 55.742 0.064 6.76 2.96 10.06
5/18/2022 4:15:00 PM 13.09 55.562 0.064 6.75 3.06 10.06
5/18/2022 4:30:00 PM 12.99 55.382 0.064 6.75 3.13 10.04
5/18/2022 4:45:00 PM 12.9 55.22 0.064 6.74 3.5 10.07
5/18/2022 5:00:00 PM 12.82 55.076 0.065 6.74 3.82 10.07
5/18/2022 5:15:00 PM 12.78 55.004 0.065 6.74 4.02 10.11
5/18/2022 5:30:00 PM 12.74 54.932 0.065 6.74 4.05 10.11
5/18/2022 5:45:00 PM 12.68 54.824 0.065 6.74 3.34 10.1
5/18/2022 6:00:00 PM 12.64 54.752 0.065 6.73 3.5 10.11
5/18/2022 6:15:00 PM 12.59 54.662 0.065 6.73 3.57 10.1
5/18/2022 6:30:00 PM 12.55 54.59 0.065 6.73 4.89 10.11
5/18/2022 6:45:00 PM 12.52 54.536 0.065 6.72 5.32 10.11
5/18/2022 7:00:00 PM 12.48 54.464 0.065 6.72 5.38 10.08
5/18/2022 7:15:00 PM 12.44 54.392 0.065 6.72 6.91 10.09
5/18/2022 7:30:00 PM 12.41 54.338 0.065 6.72 4.25 10.08
5/18/2022 7:45:00 PM 12.37 54.266 0.065 6.71 4.02 10.11
5/18/2022 8:00:00 PM 12.33 54.194 0.065 6.72 3.71 10.08
5/18/2022 8:15:00 PM 12.28 54.104 0.065 6.71 4.57 10.1
5/18/2022 8:30:00 PM 12.23 54.014 0.065 6.72 3.91 10.13
5/18/2022 8:45:00 PM 12.19 53.942 0.065 6.71 4.66 10.13
5/18/2022 9:00:00 PM 12.15 53.87 0.065 6.71 6.39 10.12
5/18/2022 9:15:00 PM 12.1 53.78 0.065 6.71 5.39 10.13
5/18/2022 9:30:00 PM 12.07 53.726 0.065 6.7 4.74 10.15
5/18/2022 9:45:00 PM 12.03 53.654 0.064 6.7 4.48 10.15
5/18/2022 10:00:00 PM 12 53.6 0.064 6.69 4.76 10.14
5/18/2022 10:15:00 PM 11.96 53.528 0.064 6.7 4.69 10.12
5/18/2022 10:30:00 PM 11.92 53.456 0.064 6.69 5 10.16
5/18/2022 10:45:00 PM 11.89 53.402 0.064 6.69 3.63 10.16
5/18/2022 11:00:00 PM 11.86 53.348 0.064 6.69 3.05 10.17
5/18/2022 11:15:00 PM 11.83 53.294 0.064 6.69 3.03 10.16
5/18/2022 11:30:00 PM 11.81 53.258 0.064 6.69 2.99 10.16
5/18/2022 11:45:00 PM 11.78 53.204 0.064 6.68 2.95 10.19
5/19/2022 12:00:00 AM 11.76 53.168 0.064 6.69 2.99 10.15
5/19/2022 12:15:00 AM 11.73 53.114 0.064 6.69 2.97 10.2
5/19/2022 12:30:00 AM 11.71 53.078 0.064 6.69 3.08 10.18
5/19/2022 12:45:00 AM 11.68 53.024 0.064 6.68 3.01 10.16
5/19/2022 1:00:00 AM 11.66 52.988 0.064 6.69 4.3 10.14
5/19/2022 1:15:00 AM 11.64 52.952 0.064 6.69 5.84 10.21
5/19/2022 1:30:00 AM 11.62 52.916 0.064 6.69 4.7 10.23
5/19/2022 1:45:00 AM 11.59 52.862 0.064 6.69 4.56 10.24
5/19/2022 2:00:00 AM 11.57 52.826 0.065 6.69 7.7 10.25
5/19/2022 2:15:00 AM 11.56 52.808 0.065 6.69 4.77 10.28
5/19/2022 2:30:00 AM 11.54 52.772 0.065 6.69 4.33 10.29
5/19/2022 2:45:00 AM 11.52 52.736 0.065 6.69 3.67 10.27
5/19/2022 3:00:00 AM 11.51 52.718 0.065 6.7 3.56 10.28
5/19/2022 3:15:00 AM 11.5 52.7 0.065 6.69 3.39 10.28
5/19/2022 3:30:00 AM 11.48 52.664 0.065 6.69 3.92 10.29
5/19/2022 3:45:00 AM 11.47 52.646 0.066 6.69 4.39 10.29
5/19/2022 4:00:00 AM 11.46 52.628 0.066 6.69 4.11 10.28
5/19/2022 4:15:00 AM 11.45 52.61 0.066 6.69 3.98 10.29
5/19/2022 4:30:00 AM 11.44 52.592 0.066 6.69 3.73 10.28
5/19/2022 4:45:00 AM 11.43 52.574 0.066 6.69 3.85 10.31
5/19/2022 5:00:00 AM 11.42 52.556 0.067 6.69 3.8 10.31
5/19/2022 5:15:00 AM 11.41 52.538 0.067 6.69 3.88 10.29
5/19/2022 5:30:00 AM 11.4 52.52 0.067 6.69 3.78 10.31
5/19/2022 5:45:00 AM 11.39 52.502 0.067 6.68 3.72 10.3
5/19/2022 6:00:00 AM 11.38 52.484 0.067 6.69 3.66 10.32
5/19/2022 6:15:00 AM 11.38 52.484 0.067 6.68 3.82 10.32
5/19/2022 6:30:00 AM 11.37 52.466 0.067 6.69 3.89 10.28
5/19/2022 6:45:00 AM 11.37 52.466 0.067 6.69 3.82 10.33
5/19/2022 7:00:00 AM 11.37 52.466 0.067 6.69 3.87 10.31
5/19/2022 7:15:00 AM 11.37 52.466 0.067 6.69 4.01 10.34
5/19/2022 7:30:00 AM 11.37 52.466 0.067 6.69 3.22 10.34
5/19/2022 7:45:00 AM 11.38 52.484 0.067 6.69 3.13 10.36
5/19/2022 8:00:00 AM 11.38 52.484 0.067 6.7 3.09 10.34
5/19/2022 8:15:00 AM 11.39 52.502 0.067 6.7 3.13 10.33
5/19/2022 8:30:00 AM 11.4 52.52 0.067 6.7 3.1 10.34
5/19/2022 8:45:00 AM 11.44 52.592 0.067 6.71 3.15 10.38
5/19/2022 9:00:00 AM 11.46 52.628 0.067 6.71 3.07 10.41
5/19/2022 9:15:00 AM 11.48 52.664 0.067 6.71 3.06 10.42
5/19/2022 9:30:00 AM 11.5 52.7 0.067 6.71 3.02 10.4
5/19/2022 9:45:00 AM 11.52 52.736 0.067 6.72 3.12 10.41
5/19/2022 10:00:00 AM 11.57 52.826 0.067 6.72 3.01 10.43
5/19/2022 10:15:00 AM 11.6 52.88 0.067 6.73 3.1 10.47
5/19/2022 10:30:00 AM 11.62 52.916 0.067 6.73 3.02 10.42
5/19/2022 10:45:00 AM 11.65 52.97 0.067 6.73 3.05 10.43
5/19/2022 11:00:00 AM 11.71 53.078 0.067 6.73 2.97 10.45
5/19/2022 11:15:00 AM 11.76 53.168 0.067 6.73 2.96 10.44
5/19/2022 11:30:00 AM 11.8 53.24 0.067 6.73 2.97 10.43
5/19/2022 11:45:00 AM 11.82 53.276 0.067 6.74 3.11 10.39
5/19/2022 12:00:00 PM 11.98 53.564 0.067 6.75 3.06 10.41
5/19/2022 12:15:00 PM 12.21 53.978 0.067 6.75 2.95 10.42
5/19/2022 12:30:00 PM 12.25 54.05 0.067 6.76 2.97 10.37
5/19/2022 12:45:00 PM 12.4 54.32 0.067 6.76 3.02 10.39
5/19/2022 1:00:00 PM 12.61 54.698 0.067 6.77 2.94 10.33
5/19/2022 1:15:00 PM 13.05 55.49 0.067 6.78 2.94 10.33
5/19/2022 1:30:00 PM 13.15 55.67 0.067 6.78 2.94 10.27
5/19/2022 1:45:00 PM 13.14 55.652 0.067 6.79 2.87 10.25
5/19/2022 2:00:00 PM 13.32 55.976 0.067 6.78 2.88 10.17
5/19/2022 2:15:00 PM 13.6 56.48 0.067 6.79 2.88 10.16
5/19/2022 2:30:00 PM 13.61 56.498 0.067 6.79 2.84 10.1
5/19/2022 2:45:00 PM 13.69 56.642 0.067 6.79 2.83 10.03
5/19/2022 3:00:00 PM 13.99 57.182 0.067 6.79 2.87 10.03
5/19/2022 3:15:00 PM 14.23 57.614 0.067 6.8 2.88 9.97
5/19/2022 3:30:00 PM 14.42 57.956 0.067 6.79 2.85 9.97
5/19/2022 3:45:00 PM 14.51 58.118 0.067 6.79 2.84 9.94
5/19/2022 4:00:00 PM 13.57 56.426 0.063 6.35 2.65 9.26
5/19/2022 4:15:00 PM 14.4 57.92 0.066 6.73 2.86 9.82
5/19/2022 4:30:00 PM 14.52 58.136 0.067 6.78 2.92 9.88
5/19/2022 4:45:00 PM 14.49 58.082 0.067 6.79 2.81 9.83
5/19/2022 5:00:00 PM 14.44 57.992 0.067 6.78 3.03 9.86
5/19/2022 5:15:00 PM 14.45 58.01 0.067 6.79 2.85 9.87
5/19/2022 5:30:00 PM 14.45 58.01 0.067 6.79 2.82 9.83
5/19/2022 5:45:00 PM 14.41 57.938 0.067 6.78 2.82 9.81
5/19/2022 6:00:00 PM 14.36 57.848 0.067 6.78 2.94 9.78
5/19/2022 6:15:00 PM 14.31 57.758 0.067 6.78 2.86 9.82
5/19/2022 6:30:00 PM 14.24 57.632 0.067 6.77 2.9 9.8
5/19/2022 6:45:00 PM 14.17 57.506 0.067 6.77 2.79 9.78
5/19/2022 7:00:00 PM 14.13 57.434 0.067 6.76 2.85 9.76
5/19/2022 7:15:00 PM 14.09 57.362 0.067 6.75 2.93 9.81
5/19/2022 7:30:00 PM 14.02 57.236 0.067 6.74 2.9 9.78
5/19/2022 7:45:00 PM 13.96 57.128 0.067 6.74 2.9 9.77
5/19/2022 8:00:00 PM 13.89 57.002 0.067 6.73 2.87 9.76
5/19/2022 8:15:00 PM 13.82 56.876 0.067 6.73 2.88 9.79
5/19/2022 8:30:00 PM 13.74 56.732 0.067 6.72 2.88 9.77
5/19/2022 8:45:00 PM 13.66 56.588 0.067 6.7 2.97 9.75
5/19/2022 9:00:00 PM 13.59 56.462 0.067 6.7 3.2 9.74
5/19/2022 9:15:00 PM 13.52 56.336 0.067 6.69 3.55 9.78
5/19/2022 9:30:00 PM 13.46 56.228 0.067 6.69 3.05 9.77
5/19/2022 9:45:00 PM 13.38 56.084 0.067 6.68 3.04 9.79
5/19/2022 10:00:00 PM 13.32 55.976 0.067 6.69 3.12 9.81
5/19/2022 10:15:00 PM 13.26 55.868 0.067 6.69 2.96 9.83
5/19/2022 10:30:00 PM 13.2 55.76 0.067 6.69 3.02 9.83
5/19/2022 10:45:00 PM 13.15 55.67 0.067 6.69 2.95 9.88
5/19/2022 11:00:00 PM 13.1 55.58 0.067 6.69 3.05 9.88
5/19/2022 11:15:00 PM 13.04 55.472 0.067 6.69 2.95 9.9
5/19/2022 11:30:00 PM 12.99 55.382 0.067 6.69 2.97 9.91
5/19/2022 11:45:00 PM 12.93 55.274 0.067 6.69 3 9.91
5/20/2022 12:00:00 AM 12.88 55.184 0.067 6.69 3.06 9.94
5/20/2022 12:15:00 AM 12.83 55.094 0.067 6.69 3.02 9.92
5/20/2022 12:30:00 AM 12.78 55.004 0.067 6.69 2.99 9.94
5/20/2022 12:45:00 AM 12.73 54.914 0.067 6.69 2.98 9.96
5/20/2022 1:00:00 AM 12.68 54.824 0.067 6.68 2.98 9.98
5/20/2022 1:15:00 AM 12.63 54.734 0.067 6.67 2.99 9.97
5/20/2022 1:30:00 AM 12.58 54.644 0.067 6.68 2.98 10
5/20/2022 1:45:00 AM 12.53 54.554 0.067 6.68 2.99 10.02
5/20/2022 2:00:00 AM 12.48 54.464 0.067 6.68 3.08 10.02
5/20/2022 2:15:00 AM 12.43 54.374 0.067 6.68 3 10.03
5/20/2022 2:30:00 AM 12.38 54.284 0.067 6.68 2.97 10.05
5/20/2022 2:45:00 AM 12.33 54.194 0.067 6.68 2.97 10.04
5/20/2022 3:00:00 AM 12.27 54.086 0.067 6.68 3.11 10.06
5/20/2022 3:15:00 AM 12.22 53.996 0.067 6.68 3 10.07
5/20/2022 3:30:00 AM 12.18 53.924 0.067 6.68 3.08 10.07
5/20/2022 3:45:00 AM 12.13 53.834 0.067 6.67 2.98 10.09
5/20/2022 4:00:00 AM 12.08 53.744 0.067 6.67 3.11 10.1
5/20/2022 4:15:00 AM 12.03 53.654 0.067 6.67 3.03 10.11
5/20/2022 4:30:00 AM 11.98 53.564 0.067 6.67 3.09 10.14
5/20/2022 4:45:00 AM 11.93 53.474 0.067 6.67 3.89 10.16
5/20/2022 5:00:00 AM 11.91 53.438 0.067 6.67 4.23 10.17
5/20/2022 5:15:00 AM 11.9 53.42 0.067 6.67 4.02 10.18
5/20/2022 5:30:00 AM 11.88 53.384 0.067 6.67 4.05 10.18
5/20/2022 5:45:00 AM 11.85 53.33 0.067 6.68 3.96 10.19
5/20/2022 6:00:00 AM 11.84 53.312 0.067 6.68 3.88 10.2
5/20/2022 6:15:00 AM 11.81 53.258 0.067 6.67 3.84 10.22
5/20/2022 6:30:00 AM 11.77 53.186 0.067 6.68 3.86 10.25
5/20/2022 6:45:00 AM 11.75 53.15 0.067 6.68 3.82 10.26
5/20/2022 7:00:00 AM 11.73 53.114 0.067 6.69 3.85 10.27
5/20/2022 7:15:00 AM 11.72 53.096 0.067 6.69 3.81 10.31
5/20/2022 7:30:00 AM 11.72 53.096 0.067 6.7 3.82 10.34
5/20/2022 7:45:00 AM 11.73 53.114 0.067 6.71 3.91 10.38
5/20/2022 8:00:00 AM 11.75 53.15 0.067 6.72 3.8 10.41
5/20/2022 8:15:00 AM 11.79 53.222 0.067 6.73 3.87 10.44
5/20/2022 8:30:00 AM 11.86 53.348 0.066 6.73 3.28 10.45
5/20/2022 8:45:00 AM 11.94 53.492 0.066 6.74 3.13 10.46
5/20/2022 9:00:00 AM 11.98 53.564 0.066 6.74 3.14 10.43
5/20/2022 9:15:00 AM 12.01 53.618 0.066 6.74 3.05 10.44
5/20/2022 9:30:00 AM 12.08 53.744 0.066 6.74 3.01 10.42
5/20/2022 9:45:00 AM 12.13 53.834 0.066 6.74 2.95 10.41
5/20/2022 10:00:00 AM 12.18 53.924 0.066 6.75 3.14 10.41
5/20/2022 10:15:00 AM 12.22 53.996 0.066 6.74 3.06 10.41
5/20/2022 10:30:00 AM 12.41 54.338 0.066 6.76 2.97 10.4
5/20/2022 10:45:00 AM 12.68 54.824 0.066 6.76 2.9 10.41
5/20/2022 11:00:00 AM 13.02 55.436 0.066 6.77 2.91 10.37
5/20/2022 11:15:00 AM 13.12 55.616 0.066 6.79 2.89 10.33
5/20/2022 11:30:00 AM 13.3 55.94 0.066 6.79 2.85 10.28
5/20/2022 11:45:00 AM 13.42 56.156 0.066 6.79 2.89 10.22
5/20/2022 12:00:00 PM 13.49 56.282 0.066 6.79 2.9 10.2
5/20/2022 12:15:00 PM 13.59 56.462 0.066 6.8 2.98 10.18
5/20/2022 12:30:00 PM 13.69 56.642 0.067 6.79 3.38 10.15
5/20/2022 12:45:00 PM 14.03 57.254 0.067 6.8 3.25 10.1
5/20/2022 1:00:00 PM 14.13 57.434 0.067 6.8 3.25 10.04
5/20/2022 1:15:00 PM 14.09 57.362 0.067 6.8 3.31 10.01
5/20/2022 1:30:00 PM 14.05 57.29 0.067 6.8 3.24 9.96
5/20/2022 1:45:00 PM 14.01 57.218 0.067 6.78 3.37 9.9
5/20/2022 2:00:00 PM 13.96 57.128 0.067 6.78 3.36 9.84
5/20/2022 2:15:00 PM 13.98 57.164 0.067 6.78 3.29 9.9
5/20/2022 2:30:00 PM 14.02 57.236 0.067 6.78 3.28 9.94
5/20/2022 2:45:00 PM 13.98 57.164 0.067 6.78 3.37 9.93
5/20/2022 3:00:00 PM 13.93 57.074 0.067 6.78 3.37 9.95
5/20/2022 3:15:00 PM 13.9 57.02 0.067 6.77 3.29 9.92
5/20/2022 3:30:00 PM 13.91 57.038 0.067 6.77 3.7 9.94
5/20/2022 3:45:00 PM 13.91 57.038 0.067 6.77 3.56 9.94
5/20/2022 4:00:00 PM 13.9 57.02 0.067 6.77 4.76 9.93
5/20/2022 4:15:00 PM 13.86 56.948 0.067 6.77 4.36 9.92
5/20/2022 4:30:00 PM 13.84 56.912 0.067 6.76 4.43 9.92
5/20/2022 4:45:00 PM 13.84 56.912 0.067 6.76 4.68 9.89
5/20/2022 5:00:00 PM 13.85 56.93 0.067 6.76 4.41 9.89
5/20/2022 5:15:00 PM 13.84 56.912 0.067 6.76 4.72 9.88
5/20/2022 5:30:00 PM 13.85 56.93 0.067 6.75 4.99 9.87
5/20/2022 5:45:00 PM 13.91 57.038 0.067 6.76 4.97 9.89
5/20/2022 6:00:00 PM 13.94 57.092 0.067 6.76 5.13 9.94
5/20/2022 6:15:00 PM 13.93 57.074 0.067 6.77 5.44 9.94
5/20/2022 6:30:00 PM 13.91 57.038 0.067 6.77 5.29 9.92
5/20/2022 6:45:00 PM 13.91 57.038 0.067 6.76 4.84 9.92
5/20/2022 7:00:00 PM 13.9 57.02 0.067 6.76 4.88 9.89
5/20/2022 7:15:00 PM 13.88 56.984 0.067 6.76 5.13 9.87
5/20/2022 7:30:00 PM 13.85 56.93 0.067 6.75 5.27 9.87
5/20/2022 7:45:00 PM 13.82 56.876 0.067 6.75 5.22 9.85
5/20/2022 8:00:00 PM 13.79 56.822 0.067 6.74 4.85 9.84
5/20/2022 8:15:00 PM 13.74 56.732 0.067 6.73 4.79 9.82
5/20/2022 8:30:00 PM 13.71 56.678 0.067 6.72 5.02 9.8
5/20/2022 8:45:00 PM 13.67 56.606 0.067 6.72 5.26 9.79
5/20/2022 9:00:00 PM 13.64 56.552 0.067 6.71 4.98 9.81
5/20/2022 9:15:00 PM 13.61 56.498 0.067 6.71 5.05 9.8
5/20/2022 9:30:00 PM 13.58 56.444 0.068 6.7 4.94 9.82
5/20/2022 9:45:00 PM 13.55 56.39 0.068 6.7 4.97 9.8
5/20/2022 10:00:00 PM 13.52 56.336 0.068 6.69 5.09 9.8
5/20/2022 10:15:00 PM 13.49 56.282 0.068 6.69 4.76 9.81
5/20/2022 10:30:00 PM 13.46 56.228 0.068 6.68 4.72 9.82
5/20/2022 10:45:00 PM 13.43 56.174 0.068 6.68 4.64 9.84
5/20/2022 11:00:00 PM 13.41 56.138 0.068 6.67 4.7 9.83
5/20/2022 11:15:00 PM 13.37 56.066 0.068 6.66 5.32 9.83
5/20/2022 11:30:00 PM 13.34 56.012 0.068 6.66 5.23 9.85
5/20/2022 11:45:00 PM 13.32 55.976 0.068 6.65 5.27 9.86
5/21/2022 12:00:00 AM 13.29 55.922 0.068 6.64 5.25 9.87
5/21/2022 12:15:00 AM 13.28 55.904 0.068 6.64 8.54 9.89
5/21/2022 12:30:00 AM 13.27 55.886 0.068 6.64 460.04 9.89
5/21/2022 12:45:00 AM 13.24 55.832 0.068 6.63 101.99 9.9
5/21/2022 1:00:00 AM 13.2 55.76 0.068 6.63 42.79 9.9
5/21/2022 1:15:00 AM 13.18 55.724 0.068 6.63 16.1 9.92
5/21/2022 1:30:00 AM 13.17 55.706 0.068 6.63 10.54 9.92
5/21/2022 1:45:00 AM 13.17 55.706 0.068 6.63 7.67 9.93
5/21/2022 2:00:00 AM 13.16 55.688 0.068 6.63 5.59 9.93
5/21/2022 2:15:00 AM 13.15 55.67 0.068 6.64 6.7 9.94
5/21/2022 2:30:00 AM 13.15 55.67 0.068 6.64 5.66 9.94
5/21/2022 2:45:00 AM 13.14 55.652 0.068 6.64 14.15 9.95
5/21/2022 3:00:00 AM 13.14 55.652 0.068 6.64 9.18 9.95
5/21/2022 3:15:00 AM 13.12 55.616 0.068 6.65 6.01 9.95
5/21/2022 3:30:00 AM 13.11 55.598 0.068 6.65 6.52 9.96
5/21/2022 3:45:00 AM 13.09 55.562 0.068 6.64 5.65 9.96
5/21/2022 4:00:00 AM 13.08 55.544 0.068 6.64 5.46 9.97
5/21/2022 4:15:00 AM 13.09 55.562 0.068 6.64 5.71 9.97
5/21/2022 4:30:00 AM 13.09 55.562 0.068 6.64 5.82 9.96
5/21/2022 4:45:00 AM 13.08 55.544 0.068 6.66 5.66 9.98
5/21/2022 5:00:00 AM 13.07 55.526 0.068 6.65 5.83 9.98
5/21/2022 5:15:00 AM 13.05 55.49 0.068 6.65 5.85 9.99
5/21/2022 5:30:00 AM 13.04 55.472 0.068 6.65 5.47 9.98
5/21/2022 5:45:00 AM 13.03 55.454 0.068 6.65 5.55 9.98
5/21/2022 6:00:00 AM 13.03 55.454 0.068 6.66 18.18 9.99
5/21/2022 6:15:00 AM 13.03 55.454 0.068 6.66 7.12 10
5/21/2022 6:30:00 AM 13.02 55.436 0.068 6.67 5.31 10.02
5/21/2022 6:45:00 AM 13.02 55.436 0.068 6.68 5.32 10.05
5/21/2022 7:00:00 AM 13.02 55.436 0.068 6.68 5.38 10.08
5/21/2022 7:15:00 AM 13.04 55.472 0.068 6.69 5.28 10.11
5/21/2022 7:30:00 AM 13.06 55.508 0.068 6.7 5.26 10.14
5/21/2022 7:45:00 AM 13.08 55.544 0.068 6.71 5.67 10.17
5/21/2022 8:00:00 AM 13.11 55.598 0.068 6.72 5.62 10.2
5/21/2022 8:15:00 AM 13.12 55.616 0.068 6.73 5.4 10.21
5/21/2022 8:30:00 AM 13.17 55.706 0.068 6.73 5.27 10.22
5/21/2022 8:45:00 AM 13.26 55.868 0.068 6.73 5.35 10.21
5/21/2022 9:00:00 AM 13.35 56.03 0.068 6.74 5.57 10.2
5/21/2022 9:15:00 AM 13.46 56.228 0.068 6.74 5.98 10.2
5/21/2022 9:30:00 AM 13.6 56.48 0.068 6.74 6.16 10.19
5/21/2022 9:45:00 AM 13.78 56.804 0.068 6.75 5.56 10.17
5/21/2022 10:00:00 AM 14.02 57.236 0.068 6.76 5.38 10.15
5/21/2022 10:15:00 AM 14.32 57.776 0.068 6.78 5.88 10.11
5/21/2022 10:30:00 AM 14.59 58.262 0.068 6.79 5.79 10.08
5/21/2022 10:45:00 AM 14.9 58.82 0.068 6.79 6.06 10.04
5/21/2022 11:00:00 AM 15.17 59.306 0.068 6.8 6.2 9.99
5/21/2022 11:15:00 AM 15.43 59.774 0.068 6.81 6.16 9.95
5/21/2022 11:30:00 AM 15.62 60.116 0.068 6.81 5.88 9.91
5/21/2022 11:45:00 AM 15.88 60.584 0.068 6.82 5.98 9.87
5/21/2022 12:00:00 PM 16.19 61.142 0.068 6.82 5.36 9.81
5/21/2022 12:15:00 PM 16.53 61.754 0.068 6.82 4.98 9.75
5/21/2022 12:30:00 PM 16.75 62.15 0.068 6.82 5.04 9.7
5/21/2022 12:45:00 PM 16.93 62.474 0.068 6.82 4.88 9.68
5/21/2022 1:00:00 PM 17.06 62.708 0.068 6.83 4.89 9.63
5/21/2022 1:15:00 PM 17.06 62.708 0.068 6.83 4.9 9.59
5/21/2022 1:30:00 PM 17.28 63.104 0.068 6.82 5.69 9.55
5/21/2022 1:45:00 PM 17.56 63.608 0.068 6.82 5.35 9.52
5/21/2022 2:00:00 PM 17.53 63.554 0.068 6.83 6.27 9.5
5/21/2022 2:15:00 PM 17.67 63.806 0.068 6.82 6.14 9.48
5/21/2022 2:30:00 PM 17.79 64.022 0.068 6.82 5.53 9.45
5/21/2022 2:45:00 PM 17.92 64.256 0.068 6.82 5.15 9.42
5/21/2022 3:00:00 PM 17.86 64.148 0.068 6.82 5.62 9.4
5/21/2022 3:15:00 PM 17.94 64.292 0.068 6.82 5.54 9.38
5/21/2022 3:30:00 PM 18.01 64.418 0.068 6.82 10.45 9.36
5/21/2022 3:45:00 PM 17.93 64.274 0.068 6.82 15.05 9.34
5/21/2022 4:00:00 PM 18 64.4 0.068 6.82 38.86 9.34
5/21/2022 4:15:00 PM 18.06 64.508 0.068 6.82 10.88 9.35
5/21/2022 4:30:00 PM 18.03 64.454 0.068 6.82 8.48 9.34
5/21/2022 4:45:00 PM 18 64.4 0.068 6.82 7.06 9.32
5/21/2022 5:00:00 PM 17.93 64.274 0.068 6.82 51 9.32
5/21/2022 5:15:00 PM 17.84 64.112 0.068 6.82 12.01 9.31
5/21/2022 5:30:00 PM 17.69 63.842 0.069 6.81 7.81 9.29
5/21/2022 5:45:00 PM 17.64 63.752 0.069 6.8 5.86 9.29
5/21/2022 6:00:00 PM 17.55 63.59 0.068 6.8 21.47 9.29
5/21/2022 6:15:00 PM 17.47 63.446 0.069 6.79 7.72 9.28
5/21/2022 6:30:00 PM 17.39 63.302 0.068 6.79 300.48 9.27
5/21/2022 6:45:00 PM 17.32 63.176 0.068 6.79 68.25 9.26
5/21/2022 7:00:00 PM 17.23 63.014 0.069 6.78 14.46 9.23
5/21/2022 7:15:00 PM 17.13 62.834 0.069 6.77 10.21 9.21
5/21/2022 7:30:00 PM 17.04 62.672 0.069 6.76 6.49 9.2
5/21/2022 7:45:00 PM 16.95 62.51 0.069 6.75 5.72 9.22
5/21/2022 8:00:00 PM 16.86 62.348 0.069 6.74 45.08 9.22
5/21/2022 8:15:00 PM 16.76 62.168 0.069 6.73 14.56 9.21
5/21/2022 8:30:00 PM 16.66 61.988 0.069 6.73 21.87 9.21
5/21/2022 8:45:00 PM 16.57 61.826 0.069 6.71 15.47 9.21
5/21/2022 9:00:00 PM 16.47 61.646 0.069 6.7 115.59 9.22
5/21/2022 9:15:00 PM 16.38 61.484 0.069 6.7 19.37 9.24
5/21/2022 9:30:00 PM 16.31 61.358 0.069 6.7 6.29 9.25
5/21/2022 9:45:00 PM 16.22 61.196 0.069 6.7 4.69 9.27
5/21/2022 10:00:00 PM 16.16 61.088 0.069 6.7 4.36 9.29
5/21/2022 10:15:00 PM 16.13 61.034 0.069 6.7 4.36 9.29
5/21/2022 10:30:00 PM 16.08 60.944 0.069 6.71 4.5 9.31
5/21/2022 10:45:00 PM 16 60.8 0.069 6.72 4.31 9.33
5/21/2022 11:00:00 PM 15.93 60.674 0.069 6.72 4.49 9.34
5/21/2022 11:15:00 PM 15.86 60.548 0.069 6.71 5.16 9.35
5/21/2022 11:30:00 PM 15.8 60.44 0.069 6.7 5.62 9.35
5/21/2022 11:45:00 PM 15.74 60.332 0.069 6.7 5.37 9.37
5/22/2022 12:00:00 AM 15.68 60.224 0.069 6.69 5.03 9.39
5/22/2022 12:15:00 AM 15.62 60.116 0.069 6.69 4.44 9.39
5/22/2022 12:30:00 AM 15.56 60.008 0.069 6.69 4.38 9.41
5/22/2022 12:45:00 AM 15.5 59.9 0.069 6.69 4.41 9.42
5/22/2022 1:00:00 AM 15.45 59.81 0.069 6.7 4.41 9.43
5/22/2022 1:15:00 AM 15.4 59.72 0.068 6.7 4.37 9.44
5/22/2022 1:30:00 AM 15.34 59.612 0.069 6.71 4.37 9.45
5/22/2022 1:45:00 AM 15.29 59.522 0.068 6.71 4.45 9.46
5/22/2022 2:00:00 AM 15.22 59.396 0.068 6.7 4.3 9.47
5/22/2022 2:15:00 AM 15.17 59.306 0.068 6.7 4.34 9.48
5/22/2022 2:30:00 AM 15.12 59.216 0.068 6.7 4.36 9.5
5/22/2022 2:45:00 AM 15.07 59.126 0.068 6.7 4.56 9.5
5/22/2022 3:00:00 AM 15.02 59.036 0.068 6.7 4.74 9.52
5/22/2022 3:15:00 AM 14.97 58.946 0.068 6.7 4.84 9.53
5/22/2022 3:30:00 AM 14.91 58.838 0.068 6.7 4.96 9.54
5/22/2022 3:45:00 AM 14.86 58.748 0.068 6.7 4.88 9.54
5/22/2022 4:00:00 AM 14.81 58.658 0.068 6.71 4.75 9.55
5/22/2022 4:15:00 AM 14.76 58.568 0.068 6.71 4.74 9.56
5/22/2022 4:30:00 AM 14.71 58.478 0.068 6.71 5.72 9.57
5/22/2022 4:45:00 AM 14.66 58.388 0.068 6.71 5.34 9.6
5/22/2022 5:00:00 AM 14.61 58.298 0.068 6.71 5.17 9.61
5/22/2022 5:15:00 AM 14.56 58.208 0.068 6.71 4.65 9.62
5/22/2022 5:30:00 AM 14.51 58.118 0.068 6.71 4.53 9.62
5/22/2022 5:45:00 AM 14.46 58.028 0.068 6.7 7.87 9.63
5/22/2022 6:00:00 AM 14.41 57.938 0.068 6.7 5.35 9.65
5/22/2022 6:15:00 AM 14.38 57.884 0.068 6.7 5.09 9.68
5/22/2022 6:30:00 AM 14.34 57.812 0.068 6.71 4.86 9.71
5/22/2022 6:45:00 AM 14.31 57.758 0.068 6.72 4.83 9.75
5/22/2022 7:00:00 AM 14.28 57.704 0.068 6.72 5.59 9.77
5/22/2022 7:15:00 AM 14.27 57.686 0.068 6.73 6.14 9.8
5/22/2022 7:30:00 AM 14.28 57.704 0.068 6.74 6.21 9.84
5/22/2022 7:45:00 AM 14.32 57.776 0.068 6.74 6.19 9.88
5/22/2022 8:00:00 AM 14.32 57.776 0.068 6.75 6.12 9.89
5/22/2022 8:15:00 AM 14.35 57.83 0.068 6.76 5.81 9.91
5/22/2022 8:30:00 AM 14.43 57.974 0.068 6.76 5.39 9.92
5/22/2022 8:45:00 AM 14.43 57.974 0.068 6.76 5.45 9.92
5/22/2022 9:00:00 AM 14.53 58.154 0.068 6.77 5.66 9.93
5/22/2022 9:15:00 AM 14.65 58.37 0.068 6.78 5.59 9.94
5/22/2022 9:30:00 AM 14.76 58.568 0.068 6.78 5.72 9.93
5/22/2022 9:45:00 AM 14.79 58.622 0.068 6.79 5.56 9.93
5/22/2022 10:00:00 AM 14.8 58.64 0.068 6.78 5.91 9.92
5/22/2022 10:15:00 AM 14.92 58.856 0.068 6.79 5.2 9.93
5/22/2022 10:30:00 AM 15.21 59.378 0.068 6.79 4.56 9.9
5/22/2022 10:45:00 AM 15.54 59.972 0.068 6.8 5.15 9.87
5/22/2022 11:00:00 AM 15.85 60.53 0.068 6.81 4.95 9.84
5/22/2022 11:15:00 AM 15.84 60.512 0.068 6.81 5.23 9.81
5/22/2022 11:30:00 AM 16.05 60.89 0.068 6.83 5.83 9.8
5/22/2022 11:45:00 AM 16.44 61.592 0.068 6.83 5.38 9.75
5/22/2022 12:00:00 PM 16.8 62.24 0.068 6.83 4.57 9.69
5/22/2022 12:15:00 PM 16.92 62.456 0.068 6.83 5.26 9.65
5/22/2022 12:30:00 PM 17.05 62.69 0.068 6.85 4.24 9.64
5/22/2022 12:45:00 PM 17.08 62.744 0.068 6.84 4.07 9.59
5/22/2022 1:00:00 PM 16.98 62.564 0.068 6.84 3.98 9.55
5/22/2022 1:15:00 PM 17.17 62.906 0.068 6.84 3.85 9.55
5/22/2022 1:30:00 PM 17.5 63.5 0.068 6.84 4.06 9.53
5/22/2022 1:45:00 PM 17.58 63.644 0.068 6.84 4.58 9.51
5/22/2022 2:00:00 PM 17.45 63.41 0.068 6.85 8.54 9.5
5/22/2022 2:15:00 PM 17.36 63.248 0.068 6.84 23.47 9.48
5/22/2022 2:30:00 PM 17.7 63.86 0.068 6.83 7.93 9.43
5/22/2022 2:45:00 PM 17.77 63.986 0.068 6.84 7.32 9.4
5/22/2022 3:00:00 PM 17.62 63.716 0.068 6.85 10.47 9.4
5/22/2022 3:15:00 PM 17.64 63.752 0.064 6.84 6.3 9.39
5/22/2022 3:30:00 PM 17.76 63.968 0.068 6.84 12.62 9.41
5/22/2022 3:45:00 PM 17.54 63.572 0.068 6.84 6.64 9.36
5/22/2022 4:00:00 PM 17.43 63.374 0.069 6.82 6.43 9.35
5/22/2022 4:15:00 PM 17.32 63.176 0.069 6.81 4.62 9.31
5/22/2022 4:30:00 PM 17.23 63.014 0.069 6.81 4.3 9.31
5/22/2022 4:45:00 PM 17.15 62.87 0.069 6.8 4.35 9.31
5/22/2022 5:00:00 PM 17.07 62.726 0.069 6.79 4.78 9.29
5/22/2022 5:15:00 PM 16.95 62.51 0.069 6.78 4.51 9.27
5/22/2022 5:30:00 PM 16.82 62.276 0.069 6.78 4.16 9.28
5/22/2022 5:45:00 PM 16.73 62.114 0.069 6.78 4.06 9.32
5/22/2022 6:00:00 PM 16.63 61.934 0.069 6.78 3.58 9.34
5/22/2022 6:15:00 PM 16.52 61.736 0.069 6.77 3.45 9.35
5/22/2022 6:30:00 PM 16.43 61.574 0.069 6.78 3.5 9.39
5/22/2022 6:45:00 PM 16.35 61.43 0.069 6.78 3.53 9.43
5/22/2022 7:00:00 PM 16.25 61.25 0.069 6.78 3.46 9.42
5/22/2022 7:15:00 PM 16.17 61.106 0.069 6.78 3.84 9.43
5/22/2022 7:30:00 PM 16.11 60.998 0.069 6.78 3.8 9.48
5/22/2022 7:45:00 PM 16.01 60.818 0.069 6.78 3.8 9.47
5/22/2022 8:00:00 PM 15.92 60.656 0.069 6.78 3.88 9.45
5/22/2022 8:15:00 PM 15.83 60.494 0.069 6.77 3.85 9.44
5/22/2022 8:30:00 PM 15.74 60.332 0.069 6.76 3.55 9.44
5/22/2022 8:45:00 PM 15.65 60.17 0.069 6.75 5.51 9.44
5/22/2022 9:00:00 PM 15.58 60.044 0.069 6.75 5.7 9.45
5/22/2022 9:15:00 PM 15.49 59.882 0.069 6.75 5.74 9.46
5/22/2022 9:30:00 PM 15.39 59.702 0.069 6.75 5.76 9.48
5/22/2022 9:45:00 PM 15.31 59.558 0.069 6.75 5.62 9.49
5/22/2022 10:00:00 PM 15.24 59.432 0.069 6.74 5.44 9.51
5/22/2022 10:15:00 PM 15.16 59.288 0.069 6.74 5.4 9.52
5/22/2022 10:30:00 PM 15.07 59.126 0.069 6.74 5.61 9.54
5/22/2022 10:45:00 PM 14.97 58.946 0.069 6.74 5.61 9.56
5/22/2022 11:00:00 PM 14.88 58.784 0.069 6.75 5.59 9.59
5/22/2022 11:15:00 PM 14.79 58.622 0.069 6.74 12.04 9.6
5/22/2022 11:30:00 PM 14.7 58.46 0.069 6.75 10173.67 9.62
5/22/2022 11:45:00 PM 14.62 58.316 0.069 6.74 1469.32 9.64
5/23/2022 12:00:00 AM 14.53 58.154 0.069 6.74 215.28 9.66
5/23/2022 12:15:00 AM 14.45 58.01 0.069 6.74 46.25 9.68
5/23/2022 12:30:00 AM 14.36 57.848 0.069 6.74 20.89 9.7
5/23/2022 12:45:00 AM 14.27 57.686 0.069 6.74 6296.82 9.72
5/23/2022 1:00:00 AM 14.18 57.524 0.069 6.74 1256.45 9.73
5/23/2022 1:15:00 AM 14.1 57.38 0.069 6.72 3168.39 9.75
5/23/2022 1:30:00 AM 14.01 57.218 0.069 6.71 633.69 9.77
5/23/2022 1:45:00 AM 13.93 57.074 0.069 6.72 92.15 9.81
5/23/2022 2:00:00 AM 13.86 56.948 0.069 6.72 595.5 9.81
5/23/2022 2:15:00 AM 13.81 56.858 0.069 6.71 83.92 9.84
5/23/2022 2:30:00 AM 13.75 56.75 0.069 6.72 114.51 9.86
5/23/2022 2:45:00 AM 13.69 56.642 0.069 6.72 19.88 9.87
5/23/2022 3:00:00 AM 13.62 56.516 0.069 6.72 6.95 9.88
5/23/2022 3:15:00 AM 13.57 56.426 0.069 6.72 4.9 9.9
5/23/2022 3:30:00 AM 13.53 56.354 0.069 6.71 16.22 9.9
5/23/2022 3:45:00 AM 13.48 56.264 0.069 6.71 15.08 9.91
5/23/2022 4:00:00 AM 13.42 56.156 0.069 6.72 76.56 9.92
5/23/2022 4:15:00 AM 13.35 56.03 0.069 6.71 14.57 9.94
5/23/2022 4:30:00 AM 13.29 55.922 0.069 6.71 5.76 9.96
5/23/2022 4:45:00 AM 13.23 55.814 0.069 6.71 4.63 9.97
5/23/2022 5:00:00 AM 13.15 55.67 0.069 6.71 10.69 9.99
5/23/2022 5:15:00 AM 13.08 55.544 0.069 6.7 5.54 10
5/23/2022 5:30:00 AM 13 55.4 0.069 6.71 4.79 10.02
5/23/2022 5:45:00 AM 12.93 55.274 0.069 6.7 5.55 10.03
5/23/2022 6:00:00 AM 12.86 55.148 0.069 6.71 6.45 10.06
5/23/2022 6:15:00 AM 12.8 55.04 0.069 6.71 13.19 10.09
5/23/2022 6:30:00 AM 12.74 54.932 0.069 6.72 136.06 10.12
5/23/2022 6:45:00 AM 12.7 54.86 0.069 6.72 1295.89 10.17
5/23/2022 7:00:00 AM 12.68 54.824 0.069 6.73 191.73 10.21
5/23/2022 7:15:00 AM 12.66 54.788 0.069 6.74 29.78 10.26
5/23/2022 7:30:00 AM 12.6 54.68 0.069 6.75 7.49 10.29
5/23/2022 7:45:00 AM 12.59 54.662 0.069 6.75 4.13 10.32
5/23/2022 8:00:00 AM 12.59 54.662 0.069 6.76 3.67 10.35
5/23/2022 8:15:00 AM 12.66 54.788 0.069 6.76 3.52 10.39
5/23/2022 8:30:00 AM 12.75 54.95 0.069 6.77 3.49 10.39
5/23/2022 8:45:00 AM 12.82 55.076 0.069 6.79 3.51 10.42
5/23/2022 9:00:00 AM 12.96 55.328 0.069 6.8 3.44 10.44
5/23/2022 9:15:00 AM 13.09 55.562 0.069 6.81 3.45 10.44
5/23/2022 9:30:00 AM 13.23 55.814 0.069 6.81 3.45 10.42
5/23/2022 9:45:00 AM 13.42 56.156 0.069 6.82 3.48 10.4
5/23/2022 10:00:00 AM 13.59 56.462 0.069 6.82 3.64 10.38
5/23/2022 10:15:00 AM 13.7 56.66 0.069 6.82 3.48 10.36
5/23/2022 10:30:00 AM 13.86 56.948 0.069 6.82 3.41 10.34
5/23/2022 10:45:00 AM 13.91 57.038 0.069 6.82 3.41 10.32
5/23/2022 11:00:00 AM 14 57.2 0.069 6.83 3.47 10.31
5/23/2022 11:15:00 AM 13.96 57.128 0.069 6.82 3.5 10.29
5/23/2022 11:30:00 AM 14.02 57.236 0.069 6.83 3.51 10.3
5/23/2022 11:45:00 AM 14.07 57.326 0.069 6.83 3.44 10.29
5/23/2022 12:00:00 PM 14.13 57.434 0.069 6.84 3.64 10.28
5/23/2022 12:15:00 PM 14.16 57.488 0.069 6.84 3.44 10.27
5/23/2022 12:30:00 PM 14.2 57.56 0.069 6.84 3.45 10.26
5/23/2022 12:45:00 PM 14.31 57.758 0.069 6.84 3.4 10.24
5/23/2022 1:00:00 PM 14.36 57.848 0.069 6.84 3.38 10.23
5/23/2022 1:15:00 PM 14.45 58.01 0.069 6.84 3.39 10.21
5/23/2022 1:30:00 PM 14.52 58.136 0.069 6.84 3.33 10.18
5/23/2022 1:45:00 PM 14.61 58.298 0.069 6.84 3.45 10.17
5/23/2022 2:00:00 PM 14.65 58.37 0.069 6.85 3.36 10.14
5/23/2022 2:15:00 PM 14.72 58.496 0.069 6.85 3.33 10.13
5/23/2022 2:30:00 PM 14.85 58.73 0.069 6.84 3.33 10.11
5/23/2022 2:45:00 PM 14.94 58.892 0.069 6.85 3.32 10.1
5/23/2022 3:00:00 PM 14.91 58.838 0.069 6.85 3.33 10.09
5/23/2022 3:15:00 PM 14.85 58.73 0.069 6.85 3.28 10.09
5/23/2022 3:30:00 PM 14.83 58.694 0.069 6.85 3.3 10.08
5/23/2022 3:45:00 PM 14.84 58.712 0.069 6.85 3.31 10.07
5/23/2022 4:00:00 PM 14.82 58.676 0.069 6.84 3.28 10.06
5/23/2022 4:15:00 PM 14.81 58.658 0.069 6.85 3.3 10.05
5/23/2022 4:30:00 PM 14.79 58.622 0.069 6.84 3.31 10.04
5/23/2022 4:45:00 PM 14.76 58.568 0.069 6.84 3.35 10.03
5/23/2022 5:00:00 PM 14.75 58.55 0.069 6.84 3.34 10.03
5/23/2022 5:15:00 PM 14.73 58.514 0.069 6.84 3.31 10.02
5/23/2022 5:30:00 PM 14.71 58.478 0.069 6.83 3.79 10.01
5/23/2022 5:45:00 PM 14.67 58.406 0.069 6.83 3.41 10
5/23/2022 6:00:00 PM 14.63 58.334 0.069 6.82 3.45 9.99
5/23/2022 6:15:00 PM 14.59 58.262 0.069 6.82 3.34 9.98
5/23/2022 6:30:00 PM 14.55 58.19 0.069 6.81 9.45 9.97
5/23/2022 6:45:00 PM 14.49 58.082 0.069 6.81 4.44 9.95
5/23/2022 7:00:00 PM 14.42 57.956 0.069 6.8 3.47 9.94
5/23/2022 7:15:00 PM 14.36 57.848 0.07 6.79 3.35 9.92
5/23/2022 7:30:00 PM 14.3 57.74 0.07 6.79 3.32 9.91
5/23/2022 7:45:00 PM 14.23 57.614 0.07 6.78 3.33 9.89
5/23/2022 8:00:00 PM 14.16 57.488 0.07 6.77 3.33 9.87
5/23/2022 8:15:00 PM 14.08 57.344 0.07 6.77 3.42 9.86
5/23/2022 8:30:00 PM 14.01 57.218 0.07 6.76 3.36 9.85
5/23/2022 8:45:00 PM 13.94 57.092 0.07 6.76 3.39 9.84
5/23/2022 9:00:00 PM 13.86 56.948 0.07 6.76 3.29 9.85
5/23/2022 9:15:00 PM 13.79 56.822 0.07 6.75 3.28 9.85
5/23/2022 9:30:00 PM 13.72 56.696 0.07 6.75 3.33 9.87
5/23/2022 9:45:00 PM 13.65 56.57 0.07 6.75 3.36 9.88
5/23/2022 10:00:00 PM 13.59 56.462 0.07 6.75 3.31 9.89
5/23/2022 10:15:00 PM 13.54 56.372 0.07 6.75 3.32 9.9
5/23/2022 10:30:00 PM 13.48 56.264 0.07 6.75 3.33 9.91
5/23/2022 10:45:00 PM 13.42 56.156 0.07 6.74 3.36 9.93
5/23/2022 11:00:00 PM 13.36 56.048 0.07 6.74 3.37 9.94
5/23/2022 11:15:00 PM 13.31 55.958 0.07 6.74 3.34 9.95
5/23/2022 11:30:00 PM 13.26 55.868 0.07 6.74 3.35 9.96
5/23/2022 11:45:00 PM 13.2 55.76 0.07 6.74 3.38 9.98
5/24/2022 12:00:00 AM 13.14 55.652 0.07 6.74 3.31 10
5/24/2022 12:15:00 AM 13.1 55.58 0.07 6.74 3.37 10.01
5/24/2022 12:30:00 AM 13.05 55.49 0.07 6.73 3.37 10.02
5/24/2022 12:45:00 AM 13 55.4 0.07 6.73 3.38 10.03
5/24/2022 1:00:00 AM 12.95 55.31 0.07 6.73 3.37 10.04
5/24/2022 1:15:00 AM 12.9 55.22 0.07 6.73 3.36 10.06
5/24/2022 1:30:00 AM 12.85 55.13 0.07 6.73 3.43 10.06
5/24/2022 1:45:00 AM 12.79 55.022 0.07 6.73 3.49 10.08
5/24/2022 2:00:00 AM 12.73 54.914 0.07 6.73 3.43 10.09
5/24/2022 2:15:00 AM 12.67 54.806 0.07 6.72 3.38 10.1
5/24/2022 2:30:00 AM 12.61 54.698 0.07 6.72 3.5 10.11
5/24/2022 2:45:00 AM 12.55 54.59 0.07 6.72 3.53 10.13
5/24/2022 3:00:00 AM 12.49 54.482 0.07 6.72 3.6 10.14
5/24/2022 3:15:00 AM 12.43 54.374 0.07 6.72 3.49 10.16
5/24/2022 3:30:00 AM 12.36 54.248 0.07 6.72 3.53 10.17
5/24/2022 3:45:00 AM 12.3 54.14 0.07 6.72 3.51 10.19
5/24/2022 4:00:00 AM 12.24 54.032 0.07 6.72 3.65 10.2
5/24/2022 4:15:00 AM 12.17 53.906 0.07 6.72 3.65 10.21
5/24/2022 4:30:00 AM 12.12 53.816 0.07 6.72 3.64 10.23
5/24/2022 4:45:00 AM 12.08 53.744 0.07 6.72 3.78 10.22
5/24/2022 5:00:00 AM 12.03 53.654 0.07 6.72 4.2 10.25
5/24/2022 5:15:00 AM 11.96 53.528 0.07 6.72 13.34 10.27
5/24/2022 5:30:00 AM 11.89 53.402 0.07 6.72 8.98 10.29
5/24/2022 5:45:00 AM 11.83 53.294 0.07 6.72 8.49 10.3
5/24/2022 6:00:00 AM 11.78 53.204 0.07 6.72 9.2 10.32
5/24/2022 6:15:00 AM 11.73 53.114 0.07 6.72 16.18 10.35
5/24/2022 6:30:00 AM 11.68 53.024 0.07 6.73 13.66 10.4
5/24/2022 6:45:00 AM 11.64 52.952 0.07 6.74 188.55 10.44
5/24/2022 7:00:00 AM 11.62 52.916 0.07 6.75 31.49 10.47
5/24/2022 7:15:00 AM 11.6 52.88 0.07 6.75 8.53 10.5
5/24/2022 7:30:00 AM 11.63 52.934 0.07 6.77 6.93 10.55
5/24/2022 7:45:00 AM 11.7 53.06 0.07 6.78 6.59 10.6
5/24/2022 8:00:00 AM 11.74 53.132 0.07 6.79 5.05 10.62
5/24/2022 8:15:00 AM 11.75 53.15 0.07 6.78 4.89 10.62
5/24/2022 8:30:00 AM 11.78 53.204 0.07 6.79 43.57 10.63
5/24/2022 8:45:00 AM 11.84 53.312 0.07 6.8 16.43 10.64
5/24/2022 9:00:00 AM 11.93 53.474 0.069 6.8 6.17 10.65
5/24/2022 9:15:00 AM 12.02 53.636 0.069 6.81 304.92 10.65
5/24/2022 9:30:00 AM 12.13 53.834 0.069 6.82 104.15 10.65
5/24/2022 9:45:00 AM 12.23 54.014 0.069 6.82 238.25 10.64
5/24/2022 10:00:00 AM 12.31 54.158 0.069 6.83 128.51 10.62
5/24/2022 10:15:00 AM 12.38 54.284 0.069 6.83 748.26 10.6
5/24/2022 10:30:00 AM 12.46 54.428 0.069 6.83 115.55 10.58
5/24/2022 10:45:00 AM 12.58 54.644 0.069 6.83 107.4 10.58
5/24/2022 11:00:00 AM 12.69 54.842 0.069 6.84 25.44 10.56
5/24/2022 11:15:00 AM 12.76 54.968 0.069 6.83 478.73 10.53
5/24/2022 11:30:00 AM 12.79 55.022 0.069 6.83 87.27 10.5
5/24/2022 11:45:00 AM 12.85 55.13 0.069 6.84 17.34 10.49
5/24/2022 12:00:00 PM 12.95 55.31 0.069 6.84 56.23 10.48
5/24/2022 12:15:00 PM 13.01 55.418 0.069 6.83 11.4 10.46
5/24/2022 12:30:00 PM 13.12 55.616 0.069 6.84 5.16 10.46
5/24/2022 12:45:00 PM 13.17 55.706 0.069 6.84 4.27 10.43
5/24/2022 1:00:00 PM 13.18 55.724 0.07 6.84 4.11 10.41
5/24/2022 1:15:00 PM 13.23 55.814 0.069 6.84 4.1 10.4
5/24/2022 1:30:00 PM 13.25 55.85 0.07 6.84 4.16 10.38
5/24/2022 1:45:00 PM 13.25 55.85 0.07 6.84 4.76 10.36
5/24/2022 2:00:00 PM 13.23 55.814 0.07 6.84 5.33 10.34
5/24/2022 2:15:00 PM 13.21 55.778 0.07 6.83 4.74 10.32
5/24/2022 2:30:00 PM 13.23 55.814 0.07 6.83 4.73 10.33
5/24/2022 2:45:00 PM 13.23 55.814 0.07 6.83 4.27 10.32
5/24/2022 3:00:00 PM 13.21 55.778 0.07 6.82 4.27 10.31
5/24/2022 3:15:00 PM 13.22 55.796 0.07 6.83 18.75 10.32
5/24/2022 3:30:00 PM 13.21 55.778 0.07 6.82 7.91 10.3
5/24/2022 3:45:00 PM 13.19 55.742 0.07 6.82 4.25 10.28
5/24/2022 4:00:00 PM 13.19 55.742 0.07 6.82 3.67 10.3
5/24/2022 4:15:00 PM 13.22 55.796 0.07 6.82 3.57 10.32
5/24/2022 4:30:00 PM 13.27 55.886 0.07 6.82 3.58 10.32
5/24/2022 4:45:00 PM 13.31 55.958 0.07 6.83 3.56 10.32
5/24/2022 5:00:00 PM 13.34 56.012 0.07 6.83 3.59 10.32
5/24/2022 5:15:00 PM 13.33 55.994 0.07 6.83 3.55 10.29
5/24/2022 5:30:00 PM 13.3 55.94 0.07 6.83 3.52 10.27
5/24/2022 5:45:00 PM 13.28 55.904 0.07 6.82 3.57 10.25
5/24/2022 6:00:00 PM 13.26 55.868 0.07 6.81 3.56 10.23
5/24/2022 6:15:00 PM 13.26 55.868 0.07 6.8 3.67 10.21
5/24/2022 6:30:00 PM 13.25 55.85 0.07 6.8 3.55 10.2
5/24/2022 6:45:00 PM 13.22 55.796 0.07 6.79 3.55 10.18
5/24/2022 7:00:00 PM 13.2 55.76 0.07 6.79 3.56 10.17
5/24/2022 7:15:00 PM 13.16 55.688 0.07 6.78 3.58 10.15
5/24/2022 7:30:00 PM 13.14 55.652 0.07 6.77 3.6 10.13
5/24/2022 7:45:00 PM 13.11 55.598 0.071 6.77 3.56 10.13
5/24/2022 8:00:00 PM 13.09 55.562 0.071 6.76 3.55 10.1
5/24/2022 8:15:00 PM 13.06 55.508 0.071 6.75 3.57 10.1
5/24/2022 8:30:00 PM 13.03 55.454 0.071 6.75 3.61 10.1
5/24/2022 8:45:00 PM 13.01 55.418 0.071 6.74 3.6 10.09
5/24/2022 9:00:00 PM 12.98 55.364 0.071 6.74 3.63 10.09
5/24/2022 9:15:00 PM 12.96 55.328 0.071 6.74 3.61 10.09
5/24/2022 9:30:00 PM 12.93 55.274 0.071 6.73 3.65 10.09
5/24/2022 9:45:00 PM 12.91 55.238 0.071 6.73 3.61 10.09
5/24/2022 10:00:00 PM 12.89 55.202 0.071 6.73 3.61 10.09
5/24/2022 10:15:00 PM 12.87 55.166 0.071 6.73 3.61 10.1
5/24/2022 10:30:00 PM 12.85 55.13 0.071 6.73 3.65 10.09
5/24/2022 10:45:00 PM 12.84 55.112 0.071 6.73 3.54 10.1
5/24/2022 11:00:00 PM 12.82 55.076 0.07 6.73 3.64 10.12
5/24/2022 11:15:00 PM 12.81 55.058 0.071 6.73 3.64 10.11
5/24/2022 11:30:00 PM 12.8 55.04 0.071 6.73 3.65 10.11
5/24/2022 11:45:00 PM 12.79 55.022 0.071 6.74 3.63 10.12
5/25/2022 12:00:00 AM 12.78 55.004 0.071 6.73 3.66 10.12
5/25/2022 12:15:00 AM 12.77 54.986 0.071 6.73 3.65 10.12
5/25/2022 12:30:00 AM 12.75 54.95 0.071 6.73 3.69 10.13
5/25/2022 12:45:00 AM 12.74 54.932 0.071 6.73 3.69 10.13
5/25/2022 1:00:00 AM 12.73 54.914 0.071 6.72 3.68 10.12
5/25/2022 1:15:00 AM 12.72 54.896 0.071 6.72 3.66 10.13
5/25/2022 1:30:00 AM 12.71 54.878 0.071 6.72 3.65 10.13
5/25/2022 1:45:00 AM 12.69 54.842 0.071 6.72 3.64 10.14
5/25/2022 2:00:00 AM 12.68 54.824 0.071 6.72 3.65 10.14
5/25/2022 2:15:00 AM 12.67 54.806 0.071 6.72 3.65 10.14
5/25/2022 2:30:00 AM 12.66 54.788 0.071 6.72 3.67 10.14
5/25/2022 2:45:00 AM 12.65 54.77 0.071 6.71 3.67 10.15
5/25/2022 3:00:00 AM 12.63 54.734 0.071 6.72 3.66 10.15
5/25/2022 3:15:00 AM 12.62 54.716 0.071 6.72 3.67 10.15
5/25/2022 3:30:00 AM 12.6 54.68 0.071 6.71 3.69 10.15
5/25/2022 3:45:00 AM 12.57 54.626 0.071 6.71 3.72 10.16
5/25/2022 4:00:00 AM 12.54 54.572 0.071 6.71 3.7 10.17
5/25/2022 4:15:00 AM 12.52 54.536 0.071 6.71 3.69 10.17
5/25/2022 4:30:00 AM 12.5 54.5 0.071 6.72 3.79 10.19
5/25/2022 4:45:00 AM 12.49 54.482 0.071 6.71 3.75 10.18
5/25/2022 5:00:00 AM 12.48 54.464 0.071 6.72 3.94 10.18
5/25/2022 5:15:00 AM 12.47 54.446 0.071 6.72 3.84 10.18
5/25/2022 5:30:00 AM 12.46 54.428 0.071 6.72 3.85 10.19
5/25/2022 5:45:00 AM 12.44 54.392 0.071 6.72 3.84 10.2
5/25/2022 6:00:00 AM 12.42 54.356 0.071 6.72 5.6 10.21
5/25/2022 6:15:00 AM 12.41 54.338 0.071 6.73 5.29 10.23
5/25/2022 6:30:00 AM 12.4 54.32 0.071 6.73 4.02 10.27
5/25/2022 6:45:00 AM 12.41 54.338 0.071 6.74 3.76 10.3
5/25/2022 7:00:00 AM 12.42 54.356 0.071 6.75 3.65 10.31
5/25/2022 7:15:00 AM 12.42 54.356 0.071 6.75 3.68 10.35
5/25/2022 7:30:00 AM 12.42 54.356 0.071 6.77 3.68 10.38
5/25/2022 7:45:00 AM 12.45 54.41 0.071 6.77 3.67 10.42
5/25/2022 8:00:00 AM 12.5 54.5 0.071 6.78 4.83 10.45
5/25/2022 8:15:00 AM 12.61 54.698 0.071 6.79 3.82 10.48
5/25/2022 8:30:00 AM 12.7 54.86 0.071 6.81 3.63 10.48
5/25/2022 8:45:00 AM 12.75 54.95 0.071 6.82 3.63 10.48
5/25/2022 9:00:00 AM 12.8 55.04 0.071 6.82 3.67 10.48
5/25/2022 9:15:00 AM 12.91 55.238 0.071 6.83 3.59 10.47
5/25/2022 9:30:00 AM 13.02 55.436 0.071 6.84 3.63 10.47
5/25/2022 9:45:00 AM 13.2 55.76 0.071 6.83 3.47 10.44
5/25/2022 10:00:00 AM 13.19 55.742 0.071 6.82 3.5 10.4
5/25/2022 10:15:00 AM 13.26 55.868 0.071 6.83 5.18 10.4
5/25/2022 10:30:00 AM 13.39 56.102 0.071 6.83 3.86 10.4
5/25/2022 10:45:00 AM 13.55 56.39 0.071 6.83 3.76 10.38
5/25/2022 11:00:00 AM 13.66 56.588 0.071 6.83 3.71 10.36
5/25/2022 11:15:00 AM 14.02 57.236 0.071 6.83 3.64 10.32
5/25/2022 11:30:00 AM 14.19 57.542 0.071 6.84 3.69 10.31
5/25/2022 11:45:00 AM 14.45 58.01 0.071 6.85 3.67 10.29
5/25/2022 12:00:00 PM 14.66 58.388 0.071 6.85 3.64 10.25
5/25/2022 12:15:00 PM 14.79 58.622 0.071 6.85 3.64 10.21
5/25/2022 12:30:00 PM 15 59 0.071 6.86 3.61 10.19
5/25/2022 12:45:00 PM 15.2 59.36 0.071 6.87 3.58 10.14
5/25/2022 1:00:00 PM 15.4 59.72 0.071 6.87 3.6 10.09
5/25/2022 1:15:00 PM 15.61 60.098 0.071 6.88 3.63 10.07
5/25/2022 1:30:00 PM 15.61 60.098 0.071 6.87 3.53 10.02
5/25/2022 1:45:00 PM 15.84 60.512 0.071 6.88 3.5 9.99
5/25/2022 2:00:00 PM 15.94 60.692 0.071 6.87 3.55 9.96
5/25/2022 2:15:00 PM 16.06 60.908 0.071 6.88 3.49 9.92
5/25/2022 2:30:00 PM 16.23 61.214 0.071 6.88 3.63 9.88
5/25/2022 2:45:00 PM 16.32 61.376 0.071 6.87 3.55 9.84
5/25/2022 3:00:00 PM 16.42 61.556 0.071 6.87 3.46 9.79
5/25/2022 3:15:00 PM 16.45 61.61 0.071 6.88 3.51 9.78
5/25/2022 3:30:00 PM 16.48 61.664 0.071 6.87 3.59 9.74
5/25/2022 3:45:00 PM 16.45 61.61 0.071 6.87 3.62 9.72
5/25/2022 4:00:00 PM 16.32 61.376 0.071 6.87 3.44 9.73
5/25/2022 4:15:00 PM 16.24 61.232 0.071 6.88 3.41 9.75
5/25/2022 4:30:00 PM 16.14 61.052 0.071 6.88 3.54 9.75
5/25/2022 4:45:00 PM 16.16 61.088 0.071 6.87 3.45 9.76
5/25/2022 5:00:00 PM 16.13 61.034 0.071 6.86 3.45 9.73
5/25/2022 5:15:00 PM 16.06 60.908 0.071 6.87 3.53 9.73
5/25/2022 5:30:00 PM 15.98 60.764 0.071 6.86 3.43 9.72
5/25/2022 5:45:00 PM 15.89 60.602 0.071 6.87 3.45 9.72
5/25/2022 6:00:00 PM 15.85 60.53 0.071 6.86 3.43 9.73
5/25/2022 6:15:00 PM 15.8 60.44 0.071 6.86 3.47 9.74
5/25/2022 6:30:00 PM 15.71 60.278 0.071 6.85 3.45 9.73
5/25/2022 6:45:00 PM 15.64 60.152 0.071 6.85 3.53 9.7
5/25/2022 7:00:00 PM 15.57 60.026 0.071 6.84 3.45 9.68
5/25/2022 7:15:00 PM 15.47 59.846 0.072 6.83 3.44 9.66
5/25/2022 7:30:00 PM 15.39 59.702 0.072 6.82 3.44 9.64
5/25/2022 7:45:00 PM 15.29 59.522 0.072 6.82 3.48 9.65
5/25/2022 8:00:00 PM 15.2 59.36 0.072 6.81 3.56 9.63
5/25/2022 8:15:00 PM 15.11 59.198 0.072 6.81 3.53 9.63
5/25/2022 8:30:00 PM 15.02 59.036 0.072 6.79 3.51 9.61
5/25/2022 8:45:00 PM 14.94 58.892 0.072 6.79 3.5 9.61
5/25/2022 9:00:00 PM 14.88 58.784 0.072 6.79 3.58 9.62
5/25/2022 9:15:00 PM 14.81 58.658 0.072 6.78 3.54 9.61
5/25/2022 9:30:00 PM 14.74 58.532 0.072 6.77 3.53 9.63
5/25/2022 9:45:00 PM 14.67 58.406 0.072 6.77 3.58 9.63
5/25/2022 10:00:00 PM 14.6 58.28 0.072 6.77 3.63 9.64
5/25/2022 10:15:00 PM 14.54 58.172 0.072 6.77 3.55 9.65
5/25/2022 10:30:00 PM 14.48 58.064 0.072 6.77 3.56 9.66
5/25/2022 10:45:00 PM 14.43 57.974 0.072 6.77 3.72 9.69
5/25/2022 11:00:00 PM 14.37 57.866 0.072 6.77 3.63 9.7
5/25/2022 11:15:00 PM 14.31 57.758 0.072 6.78 3.57 9.71
5/25/2022 11:30:00 PM 14.27 57.686 0.072 6.76 3.53 9.7
5/25/2022 11:45:00 PM 14.21 57.578 0.072 6.76 3.57 9.72
5/26/2022 12:00:00 AM 14.16 57.488 0.072 6.77 3.66 9.74
5/26/2022 12:15:00 AM 14.11 57.398 0.072 6.76 3.64 9.75
5/26/2022 12:30:00 AM 14.07 57.326 0.072 6.76 3.63 9.75
5/26/2022 12:45:00 AM 14.01 57.218 0.072 6.76 3.64 9.76
5/26/2022 1:00:00 AM 13.97 57.146 0.072 6.76 3.67 9.77
5/26/2022 1:15:00 AM 13.92 57.056 0.072 6.75 3.64 9.76
5/26/2022 1:30:00 AM 13.87 56.966 0.072 6.76 3.68 9.79
5/26/2022 1:45:00 AM 13.83 56.894 0.072 6.75 3.79 9.78
5/26/2022 2:00:00 AM 13.78 56.804 0.071 6.75 3.71 9.8
5/26/2022 2:15:00 AM 13.75 56.75 0.072 6.75 3.71 9.82
5/26/2022 2:30:00 AM 13.71 56.678 0.072 6.75 3.65 9.84
5/26/2022 2:45:00 AM 13.66 56.588 0.072 6.76 3.66 9.85
5/26/2022 3:00:00 AM 13.6 56.48 0.072 6.75 3.67 9.86
5/26/2022 3:15:00 AM 13.54 56.372 0.072 6.74 3.64 9.86
5/26/2022 3:30:00 AM 13.48 56.264 0.072 6.75 3.68 9.87
5/26/2022 3:45:00 AM 13.43 56.174 0.072 6.75 3.62 9.88
5/26/2022 4:00:00 AM 13.38 56.084 0.072 6.75 3.62 9.89
5/26/2022 4:15:00 AM 13.33 55.994 0.072 6.74 3.6 9.89
5/26/2022 4:30:00 AM 13.28 55.904 0.072 6.74 3.68 9.91
5/26/2022 4:45:00 AM 13.23 55.814 0.072 6.75 3.65 9.92
5/26/2022 5:00:00 AM 13.18 55.724 0.072 6.75 3.63 9.94
5/26/2022 5:15:00 AM 13.13 55.634 0.072 6.74 5.72 9.94
5/26/2022 5:30:00 AM 13.08 55.544 0.072 6.74 3.77 9.95
5/26/2022 5:45:00 AM 13.03 55.454 0.072 6.75 3.94 9.98
5/26/2022 6:00:00 AM 12.99 55.382 0.072 6.75 3.4 9.99
5/26/2022 6:15:00 AM 12.95 55.31 0.072 6.76 3.38 10.02
5/26/2022 6:30:00 AM 12.92 55.256 0.072 6.76 37.08 10.06
5/26/2022 6:45:00 AM 12.9 55.22 0.072 6.77 20.65 10.1
5/26/2022 7:00:00 AM 12.91 55.238 0.071 6.78 7.24 10.14
5/26/2022 7:15:00 AM 12.93 55.274 0.071 6.8 11.53 10.17
5/26/2022 7:30:00 AM 12.93 55.274 0.071 6.8 9.83 10.18
5/26/2022 7:45:00 AM 12.94 55.292 0.071 6.8 7.22 10.19
5/26/2022 8:00:00 AM 12.97 55.346 0.071 6.8 42.81 10.21
5/26/2022 8:15:00 AM 13.04 55.472 0.071 6.81 10.18 10.24
5/26/2022 8:30:00 AM 13.14 55.652 0.069 6.83 5.49 10.26
5/26/2022 8:45:00 AM 13.22 55.796 0.071 6.84 4.61 10.28
5/26/2022 9:00:00 AM 13.36 56.048 0.071 6.85 4.44 10.29
5/26/2022 9:15:00 AM 13.48 56.264 0.071 6.85 4.47 10.29
5/26/2022 9:30:00 AM 13.63 56.534 0.071 6.85 4.5 10.26
5/26/2022 9:45:00 AM 13.8 56.84 0.071 6.84 4.47 10.23
5/26/2022 10:00:00 AM 13.93 57.074 0.071 6.84 6.27 10.19
5/26/2022 10:15:00 AM 14.03 57.254 0.071 6.83 16.41 10.18
5/26/2022 10:30:00 AM 14.27 57.686 0.071 6.85 7.72 10.16
5/26/2022 10:45:00 AM 14.53 58.154 0.071 6.85 6.45 10.13
5/26/2022 11:00:00 AM 14.73 58.514 0.071 6.84 5.34 10.08
5/26/2022 11:15:00 AM 14.92 58.856 0.071 6.86 3.67 10.07
5/26/2022 11:30:00 AM 15.2 59.36 0.071 6.87 3.41 10.03
5/26/2022 11:45:00 AM 15.48 59.864 0.071 6.87 3.28 9.98
5/26/2022 12:00:00 PM 15.77 60.386 0.071 6.86 3.27 9.92
5/26/2022 12:15:00 PM 16.03 60.854 0.071 6.87 3.23 9.87
5/26/2022 12:30:00 PM 16.32 61.376 0.071 6.88 3.23 9.83
5/26/2022 12:45:00 PM 16.57 61.826 0.071 6.88 3.19 9.77
5/26/2022 1:00:00 PM 16.83 62.294 0.071 6.87 5.85 9.71
5/26/2022 1:15:00 PM 17.06 62.708 0.071 6.88 6.48 9.68
5/26/2022 1:30:00 PM 17.31 63.158 0.071 6.88 5.67 9.62
5/26/2022 1:45:00 PM 17.56 63.608 0.071 6.89 4.35 9.58
5/26/2022 2:00:00 PM 17.54 63.572 0.071 6.88 4.46 9.54
5/26/2022 2:15:00 PM 17.41 63.338 0.071 6.89 4.45 9.52
5/26/2022 2:30:00 PM 17.33 63.194 0.071 6.88 4.75 9.49
5/26/2022 2:45:00 PM 17.26 63.068 0.071 6.88 4.39 9.45
5/26/2022 3:00:00 PM 17.35 63.23 0.071 6.88 5.88 9.45
5/26/2022 3:15:00 PM 17.69 63.842 0.071 6.89 8.04 9.44
5/26/2022 3:30:00 PM 17.82 64.076 0.071 6.89 4.23 9.43
5/26/2022 3:45:00 PM 17.87 64.166 0.071 6.89 3.31 9.4
5/26/2022 4:00:00 PM 17.88 64.184 0.071 6.88 3.08 9.38
5/26/2022 4:15:00 PM 17.83 64.094 0.072 6.89 3.04 9.37
5/26/2022 4:30:00 PM 17.74 63.932 0.072 6.89 6.44 9.37
5/26/2022 4:45:00 PM 17.66 63.788 0.072 6.88 282.72 9.36
5/26/2022 5:00:00 PM 17.59 63.662 0.07 6.88 218.03 9.36
5/26/2022 5:15:00 PM 17.55 63.59 0.071 6.88 33.21 9.35
5/26/2022 5:30:00 PM 17.46 63.428 0.072 6.87 7.02 9.35
5/26/2022 5:45:00 PM 17.32 63.176 0.072 6.87 3.6 9.34
5/26/2022 6:00:00 PM 17.23 63.014 0.072 6.86 3.11 9.34
5/26/2022 6:15:00 PM 17.11 62.798 0.072 6.86 3.01 9.32
5/26/2022 6:30:00 PM 17.02 62.636 0.072 6.85 3.02 9.31
5/26/2022 6:45:00 PM 16.97 62.546 0.072 6.86 3.05 9.34
5/26/2022 7:00:00 PM 16.88 62.384 0.072 6.85 3.05 9.33
5/26/2022 7:15:00 PM 16.79 62.222 0.072 6.84 3.05 9.3
5/26/2022 7:30:00 PM 16.71 62.078 0.072 6.83 3.13 9.26
5/26/2022 7:45:00 PM 16.62 61.916 0.072 6.83 3.08 9.25
5/26/2022 8:00:00 PM 16.53 61.754 0.072 6.81 3.1 9.23
5/26/2022 8:15:00 PM 16.45 61.61 0.072 6.81 3.15 9.22
5/26/2022 8:30:00 PM 16.37 61.466 0.073 6.8 3.13 9.21
5/26/2022 8:45:00 PM 16.28 61.304 0.073 6.8 3.08 9.21
5/26/2022 9:00:00 PM 16.21 61.178 0.073 6.79 3.19 9.21
5/26/2022 9:15:00 PM 16.15 61.07 0.073 6.79 3.2 9.22
5/26/2022 9:30:00 PM 16.09 60.962 0.073 6.79 3.19 9.23
5/26/2022 9:45:00 PM 16.02 60.836 0.073 6.78 3.19 9.23
5/26/2022 10:00:00 PM 15.96 60.728 0.073 6.78 3.2 9.22
5/26/2022 10:15:00 PM 15.9 60.62 0.073 6.78 3.19 9.24
5/26/2022 10:30:00 PM 15.86 60.548 0.073 6.77 3.2 9.26
5/26/2022 10:45:00 PM 15.81 60.458 0.073 6.77 3.13 9.26
5/26/2022 11:00:00 PM 15.77 60.386 0.073 6.77 3.21 9.27
5/26/2022 11:15:00 PM 15.73 60.314 0.073 6.77 3.16 9.28
5/26/2022 11:30:00 PM 15.69 60.242 0.073 6.77 3.12 9.29
5/26/2022 11:45:00 PM 15.65 60.17 0.073 6.77 3.15 9.3
5/27/2022 12:00:00 AM 15.61 60.098 0.073 6.77 3.15 9.31
5/27/2022 12:15:00 AM 15.57 60.026 0.073 6.77 3.14 9.33
5/27/2022 12:30:00 AM 15.52 59.936 0.073 6.76 3.17 9.31
5/27/2022 12:45:00 AM 15.48 59.864 0.073 6.75 3.2 9.33
5/27/2022 1:00:00 AM 15.45 59.81 0.073 6.76 3.19 9.34
5/27/2022 1:15:00 AM 15.41 59.738 0.073 6.76 3.17 9.34
5/27/2022 1:30:00 AM 15.37 59.666 0.073 6.75 3.19 9.35
5/27/2022 1:45:00 AM 15.34 59.612 0.073 6.75 3.19 9.35
5/27/2022 2:00:00 AM 15.3 59.54 0.073 6.74 3.24 9.34
5/27/2022 2:15:00 AM 15.28 59.504 0.073 6.74 3.2 9.35
5/27/2022 2:30:00 AM 15.24 59.432 0.072 6.75 3.22 9.37
5/27/2022 2:45:00 AM 15.2 59.36 0.072 6.75 3.22 9.37
5/27/2022 3:00:00 AM 15.17 59.306 0.072 6.75 3.45 9.38
5/27/2022 3:15:00 AM 15.14 59.252 0.072 6.75 3.34 9.37
5/27/2022 3:30:00 AM 15.13 59.234 0.072 6.75 3.46 9.38
5/27/2022 3:45:00 AM 15.11 59.198 0.072 6.74 3.44 9.38
5/27/2022 4:00:00 AM 15.08 59.144 0.072 6.75 3.43 9.4
5/27/2022 4:15:00 AM 15.05 59.09 0.072 6.75 3.57 9.39
5/27/2022 4:30:00 AM 15.03 59.054 0.072 6.75 3.46 9.41
5/27/2022 4:45:00 AM 15.02 59.036 0.072 6.75 3.42 9.41
5/27/2022 5:00:00 AM 15 59 0.072 6.74 3.39 9.38
5/27/2022 5:15:00 AM 14.97 58.946 0.072 6.75 3.39 9.41
5/27/2022 5:30:00 AM 14.94 58.892 0.072 6.74 3.42 9.41
5/27/2022 5:45:00 AM 14.92 58.856 0.072 6.75 3.38 9.42
5/27/2022 6:00:00 AM 14.9 58.82 0.072 6.75 3.41 9.45
5/27/2022 6:15:00 AM 14.88 58.784 0.072 6.74 3.39 9.45
5/27/2022 6:30:00 AM 14.87 58.766 0.072 6.75 3.39 9.45
5/27/2022 6:45:00 AM 14.85 58.73 0.072 6.75 3.38 9.45
5/27/2022 7:00:00 AM 14.85 58.73 0.072 6.75 3.63 9.48
5/27/2022 7:15:00 AM 14.85 58.73 0.072 6.76 3.67 9.49
5/27/2022 7:30:00 AM 14.85 58.73 0.072 6.76 3.54 9.52
5/27/2022 7:45:00 AM 14.86 58.748 0.072 6.76 3.39 9.53
5/27/2022 8:00:00 AM 14.86 58.748 0.072 6.77 3.37 9.56
5/27/2022 8:15:00 AM 14.87 58.766 0.072 6.77 3.33 9.59
5/27/2022 8:30:00 AM 14.88 58.784 0.072 6.78 3.27 9.61
5/27/2022 8:45:00 AM 14.92 58.856 0.072 6.78 3.34 9.62
5/27/2022 9:00:00 AM 14.96 58.928 0.072 6.79 3.41 9.66
5/27/2022 9:15:00 AM 15 59 0.072 6.79 3.42 9.67
5/27/2022 9:30:00 AM 15.01 59.018 0.072 6.79 3.43 9.65
5/27/2022 9:45:00 AM 15.06 59.108 0.071 6.81 3.77 9.68
5/27/2022 10:00:00 AM 15.12 59.216 0.071 6.81 3.53 9.7
5/27/2022 10:15:00 AM 15.14 59.252 0.071 6.81 3.47 9.67
5/27/2022 10:30:00 AM 15.18 59.324 0.071 6.8 3.36 9.66
5/27/2022 10:45:00 AM 15.19 59.342 0.071 6.81 3.34 9.65
5/27/2022 11:00:00 AM 15.21 59.378 0.071 6.81 3.4 9.65
5/27/2022 11:15:00 AM 15.23 59.414 0.071 6.81 3.48 9.64
5/27/2022 11:30:00 AM 15.35 59.63 0.071 6.87 5.56 9.62
5/27/2022 11:45:00 AM 15.38 59.684 0.071 6.83 4.09 9.58
5/27/2022 12:00:00 PM 15.48 59.864 0.071 6.84 3.68 9.64
5/27/2022 12:15:00 PM 15.58 60.044 0.071 6.83 3.58 9.67
5/27/2022 12:30:00 PM 15.59 60.062 0.071 6.84 3.54 9.66
5/27/2022 12:45:00 PM 15.72 60.296 0.071 6.85 3.62 9.69
5/27/2022 1:00:00 PM 15.92 60.656 0.071 6.85 3.66 9.67
5/27/2022 1:15:00 PM 15.95 60.71 0.071 6.86 3.54 9.67
5/27/2022 1:30:00 PM 15.93 60.674 0.071 6.87 3.54 9.67
5/27/2022 1:45:00 PM 16.01 60.818 0.071 6.88 3.55 9.67
5/27/2022 2:00:00 PM 16.11 60.998 0.071 6.88 3.49 9.65
5/27/2022 2:15:00 PM 16.19 61.142 0.071 6.87 3.55 9.62
5/27/2022 2:30:00 PM 16.27 61.286 0.071 6.89 3.6 9.62
5/27/2022 2:45:00 PM 16.34 61.412 0.071 6.88 3.66 9.61
5/27/2022 3:00:00 PM 16.41 61.538 0.071 6.89 4.04 9.6
5/27/2022 3:15:00 PM 16.42 61.556 0.072 6.89 4.35 9.56
5/27/2022 3:30:00 PM 16.4 61.52 0.072 6.89 4.48 9.55
5/27/2022 3:45:00 PM 16.42 61.556 0.072 6.89 4.78 9.54
5/27/2022 4:00:00 PM 16.43 61.574 0.073 6.9 4.37 9.53
5/27/2022 4:15:00 PM 16.46 61.628 0.073 6.9 4.24 9.53
5/27/2022 4:30:00 PM 16.52 61.736 0.074 6.9 4.3 9.51
5/27/2022 4:45:00 PM 16.56 61.808 0.074 6.9 4.21 9.49
5/27/2022 5:00:00 PM 16.47 61.646 0.075 6.9 4.09 9.49
5/27/2022 5:15:00 PM 16.46 61.628 0.075 6.89 3.95 9.47
5/27/2022 5:30:00 PM 16.45 61.61 0.075 6.88 4.09 9.47
5/27/2022 5:45:00 PM 16.39 61.502 0.076 6.86 3.98 9.43
5/27/2022 6:00:00 PM 16.4 61.52 0.076 6.87 4.04 9.44
5/27/2022 6:15:00 PM 16.36 61.448 0.076 6.86 4.22 9.41
5/27/2022 6:30:00 PM 16.32 61.376 0.077 6.84 4.13 9.35
5/27/2022 6:45:00 PM 16.23 61.214 0.077 6.84 4.64 9.33
5/27/2022 7:00:00 PM 16.17 61.106 0.078 6.83 4.65 9.31
5/27/2022 7:15:00 PM 16.1 60.98 0.078 6.82 7.06 9.27
5/27/2022 7:30:00 PM 16.02 60.836 0.079 6.81 4.89 9.27
5/27/2022 7:45:00 PM 15.94 60.692 0.079 6.81 4.52 9.27
5/27/2022 8:00:00 PM 15.87 60.566 0.079 6.8 4.56 9.28
5/27/2022 8:15:00 PM 15.79 60.422 0.079 6.79 4.69 9.29
5/27/2022 8:30:00 PM 15.72 60.296 0.078 6.78 4.8 9.28
5/27/2022 8:45:00 PM 15.65 60.17 0.077 6.77 5.17 9.28
5/27/2022 9:00:00 PM 15.58 60.044 0.077 6.77 4.42 9.29
5/27/2022 9:15:00 PM 15.52 59.936 0.077 6.76 4.17 9.3
5/27/2022 9:30:00 PM 15.46 59.828 0.077 6.76 4.56 9.3
5/27/2022 9:45:00 PM 15.4 59.72 0.077 6.75 4.54 9.31
5/27/2022 10:00:00 PM 15.35 59.63 0.077 6.76 4.18 9.32
5/27/2022 10:15:00 PM 15.31 59.558 0.077 6.76 4.27 9.34
5/27/2022 10:30:00 PM 15.25 59.45 0.077 6.75 4.3 9.34
5/27/2022 10:45:00 PM 15.2 59.36 0.077 6.76 4.5 9.36
5/27/2022 11:00:00 PM 15.17 59.306 0.076 6.76 4.74 9.37
5/27/2022 11:15:00 PM 15.12 59.216 0.076 6.75 4.65 9.37
5/27/2022 11:30:00 PM 15.09 59.162 0.076 6.75 4.67 9.37
5/27/2022 11:45:00 PM 15.06 59.108 0.076 6.75 4.5 9.38
5/28/2022 12:00:00 AM 15.03 59.054 0.075 6.75 4.51 9.4
5/28/2022 12:15:00 AM 15 59 0.075 6.75 4.59 9.41
5/28/2022 12:30:00 AM 14.97 58.946 0.075 6.75 4.62 9.41
5/28/2022 12:45:00 AM 14.94 58.892 0.075 6.74 4.48 9.41
5/28/2022 1:00:00 AM 14.91 58.838 0.075 6.74 4.33 9.42
5/28/2022 1:15:00 AM 14.88 58.784 0.075 6.74 4.35 9.42
5/28/2022 1:30:00 AM 14.86 58.748 0.075 6.74 4.28 9.42
5/28/2022 1:45:00 AM 14.83 58.694 0.075 6.74 5.68 9.42
5/28/2022 2:00:00 AM 14.81 58.658 0.074 6.74 6.07 9.43
5/28/2022 2:15:00 AM 14.79 58.622 0.074 6.74 4.69 9.43
5/28/2022 2:30:00 AM 14.76 58.568 0.074 6.73 4.46 9.43
5/28/2022 2:45:00 AM 14.74 58.532 0.074 6.73 4.42 9.43
5/28/2022 3:00:00 AM 14.72 58.496 0.074 6.73 4.53 9.43
5/28/2022 3:15:00 AM 14.69 58.442 0.074 6.74 4.56 9.45
5/28/2022 3:30:00 AM 14.67 58.406 0.074 6.74 4.4 9.45
5/28/2022 3:45:00 AM 14.65 58.37 0.074 6.73 4.31 9.45
5/28/2022 4:00:00 AM 14.63 58.334 0.074 6.74 4.22 9.47
5/28/2022 4:15:00 AM 14.6 58.28 0.074 6.73 3.96 9.47
5/28/2022 4:30:00 AM 14.58 58.244 0.074 6.73 3.96 9.47
5/28/2022 4:45:00 AM 14.55 58.19 0.074 6.73 4.02 9.47
5/28/2022 5:00:00 AM 14.54 58.172 0.074 6.73 4.04 9.48
5/28/2022 5:15:00 AM 14.52 58.136 0.074 6.73 3.93 9.48
5/28/2022 5:30:00 AM 14.5 58.1 0.074 6.73 3.76 9.49
5/28/2022 5:45:00 AM 14.49 58.082 0.074 6.73 3.77 9.5
5/28/2022 6:00:00 AM 14.47 58.046 0.074 6.73 7.53 9.5
5/28/2022 6:15:00 AM 14.46 58.028 0.074 6.73 4.36 9.5
5/28/2022 6:30:00 AM 14.45 58.01 0.074 6.73 3.85 9.52
5/28/2022 6:45:00 AM 14.44 57.992 0.074 6.73 3.86 9.54
5/28/2022 7:00:00 AM 14.44 57.992 0.074 6.73 3.85 9.57
5/28/2022 7:15:00 AM 14.46 58.028 0.074 6.74 3.88 9.62
5/28/2022 7:30:00 AM 14.46 58.028 0.074 6.75 4.01 9.64
5/28/2022 7:45:00 AM 14.47 58.046 0.074 6.76 3.7 9.65
5/28/2022 8:00:00 AM 14.5 58.1 0.074 6.78 3.59 9.69
5/28/2022 8:15:00 AM 14.52 58.136 0.074 6.78 3.55 9.71
5/28/2022 8:30:00 AM 14.51 58.118 0.074 6.79 3.51 9.69
5/28/2022 8:45:00 AM 14.51 58.118 0.074 6.79 3.55 9.67
5/28/2022 9:00:00 AM 14.52 58.136 0.074 6.79 3.52 9.69
5/28/2022 9:15:00 AM 14.55 58.19 0.073 6.81 3.42 9.73
5/28/2022 9:30:00 AM 14.59 58.262 0.073 6.82 3.4 9.75
5/28/2022 9:45:00 AM 14.64 58.352 0.073 6.83 3.42 9.78
5/28/2022 10:00:00 AM 14.63 58.334 0.073 6.83 3.39 9.75
5/28/2022 10:15:00 AM 14.63 58.334 0.073 6.83 3.37 9.75
5/28/2022 10:30:00 AM 14.68 58.424 0.073 6.84 3.38 9.77
5/28/2022 10:45:00 AM 14.76 58.568 0.073 6.85 3.33 9.8
5/28/2022 11:00:00 AM 14.82 58.676 0.073 6.85 3.34 9.82
5/28/2022 11:15:00 AM 14.83 58.694 0.073 6.86 3.4 9.82
5/28/2022 11:30:00 AM 14.87 58.766 0.073 6.86 3.39 9.81
5/28/2022 11:45:00 AM 14.99 58.982 0.073 6.87 3.31 9.84
5/28/2022 12:00:00 PM 15.19 59.342 0.073 6.88 3.36 9.84
5/28/2022 12:15:00 PM 15.39 59.702 0.073 6.87 3.46 9.81
5/28/2022 12:30:00 PM 15.47 59.846 0.073 6.87 3.36 9.77
5/28/2022 12:45:00 PM 15.47 59.846 0.073 6.87 3.29 9.75
5/28/2022 1:00:00 PM 15.54 59.972 0.073 6.89 3.46 9.74
5/28/2022 1:15:00 PM 15.54 59.972 0.073 6.88 3.65 9.7
5/28/2022 1:30:00 PM 15.6 60.08 0.073 6.89 3.74 9.71
5/28/2022 1:45:00 PM 15.58 60.044 0.073 6.88 3.49 9.69
5/28/2022 2:00:00 PM 15.64 60.152 0.073 6.89 3.39 9.71
5/28/2022 2:15:00 PM 15.76 60.368 0.073 6.89 3.44 9.71
5/28/2022 2:30:00 PM 15.77 60.386 0.073 6.88 3.42 9.67
5/28/2022 2:45:00 PM 15.76 60.368 0.073 6.89 3.35 9.66
5/28/2022 3:00:00 PM 16.02 60.836 0.073 6.89 3.74 9.67
5/28/2022 3:15:00 PM 16.04 60.872 0.073 6.88 3.69 9.63
5/28/2022 3:30:00 PM 16.04 60.872 0.073 6.89 3.47 9.63
5/28/2022 3:45:00 PM 15.97 60.746 0.073 6.89 3.41 9.6
5/28/2022 4:00:00 PM 15.99 60.782 0.073 6.9 3.44 9.62
5/28/2022 4:15:00 PM 16.02 60.836 0.073 6.9 3.41 9.62
5/28/2022 4:30:00 PM 16.03 60.854 0.073 6.89 3.7 9.61
5/28/2022 4:45:00 PM 16.02 60.836 0.073 6.89 3.67 9.61
5/28/2022 5:00:00 PM 16 60.8 0.073 6.89 3.95 9.6
5/28/2022 5:15:00 PM 15.96 60.728 0.073 6.89 3.62 9.57
5/28/2022 5:30:00 PM 15.92 60.656 0.073 6.89 3.54 9.59
5/28/2022 5:45:00 PM 15.91 60.638 0.073 6.88 3.55 9.59
5/28/2022 6:00:00 PM 15.89 60.602 0.073 6.88 3.36 9.58
5/28/2022 6:15:00 PM 15.86 60.548 0.073 6.87 7.68 9.56
5/28/2022 6:30:00 PM 15.83 60.494 0.074 6.87 9.63 9.55
5/28/2022 6:45:00 PM 15.78 60.404 0.074 6.87 5.18 9.54
5/28/2022 7:00:00 PM 15.73 60.314 0.074 6.86 5.02 9.54
5/28/2022 7:15:00 PM 15.68 60.224 0.074 6.85 8.25 9.52
5/28/2022 7:30:00 PM 15.61 60.098 0.074 6.85 7.07 9.52
5/28/2022 7:45:00 PM 15.55 59.99 0.074 6.84 6.78 9.51
5/28/2022 8:00:00 PM 15.46 59.828 0.074 6.83 5.82 9.49
5/28/2022 8:15:00 PM 15.38 59.684 0.073 6.82 5.66 9.46
5/28/2022 8:30:00 PM 15.3 59.54 0.074 6.81 5.73 9.44
5/28/2022 8:45:00 PM 15.25 59.45 0.074 6.81 5.85 9.44
5/28/2022 9:00:00 PM 15.18 59.324 0.074 6.8 5.69 9.43
5/28/2022 9:15:00 PM 15.13 59.234 0.074 6.79 5.75 9.44
5/28/2022 9:30:00 PM 15.09 59.162 0.074 6.79 5.76 9.43
5/28/2022 9:45:00 PM 15.04 59.072 0.074 6.79 5.77 9.44
5/28/2022 10:00:00 PM 14.99 58.982 0.074 6.79 5.81 9.46
5/28/2022 10:15:00 PM 14.94 58.892 0.074 6.78 5.9 9.46
5/28/2022 10:30:00 PM 14.9 58.82 0.074 6.78 5.8 9.46
5/28/2022 10:45:00 PM 14.86 58.748 0.074 6.78 5.73 9.48
5/28/2022 11:00:00 PM 14.83 58.694 0.074 6.78 5.85 9.49
5/28/2022 11:15:00 PM 14.8 58.64 0.074 6.78 5.79 9.49
5/28/2022 11:30:00 PM 14.76 58.568 0.074 6.78 5.74 9.51
5/28/2022 11:45:00 PM 14.71 58.478 0.074 6.77 5.64 9.51
5/29/2022 12:00:00 AM 14.66 58.388 0.074 6.77 5.57 9.52
5/29/2022 12:15:00 AM 14.61 58.298 0.074 6.77 5.6 9.52
5/29/2022 12:30:00 AM 14.58 58.244 0.074 6.76 5.65 9.53
5/29/2022 12:45:00 AM 14.56 58.208 0.074 6.76 5.77 9.53
5/29/2022 1:00:00 AM 14.53 58.154 0.074 6.77 5.71 9.55
5/29/2022 1:15:00 AM 14.49 58.082 0.074 6.77 5.74 9.56
5/29/2022 1:30:00 AM 14.46 58.028 0.074 6.77 5.63 9.57
5/29/2022 1:45:00 AM 14.42 57.956 0.074 6.77 5.63 9.58
5/29/2022 2:00:00 AM 14.39 57.902 0.074 6.76 5.56 9.57
5/29/2022 2:15:00 AM 14.35 57.83 0.074 6.77 5.61 9.59
5/29/2022 2:30:00 AM 14.3 57.74 0.074 6.77 5.59 9.61
5/29/2022 2:45:00 AM 14.26 57.668 0.074 6.77 5.6 9.61
5/29/2022 3:00:00 AM 14.22 57.596 0.074 6.77 5.56 9.62
5/29/2022 3:15:00 AM 14.18 57.524 0.074 6.77 5.57 9.62
5/29/2022 3:30:00 AM 14.15 57.47 0.074 6.77 5.61 9.63
5/29/2022 3:45:00 AM 14.11 57.398 0.074 6.77 5.57 9.65
5/29/2022 4:00:00 AM 14.08 57.344 0.074 6.77 5.59 9.65
5/29/2022 4:15:00 AM 14.05 57.29 0.074 6.77 5.52 9.65
5/29/2022 4:30:00 AM 14.02 57.236 0.074 6.77 5.88 9.67
5/29/2022 4:45:00 AM 13.99 57.182 0.074 6.77 6.03 9.67
5/29/2022 5:00:00 AM 13.97 57.146 0.074 6.77 5.57 9.68
5/29/2022 5:15:00 AM 13.94 57.092 0.074 6.77 5.51 9.68
5/29/2022 5:30:00 AM 13.92 57.056 0.074 6.77 5.56 9.69
5/29/2022 5:45:00 AM 13.9 57.02 0.074 6.77 5.68 9.71
5/29/2022 6:00:00 AM 13.88 56.984 0.074 6.77 5.88 9.73
5/29/2022 6:15:00 AM 13.86 56.948 0.074 6.77 5.67 9.73
5/29/2022 6:30:00 AM 13.85 56.93 0.074 6.77 5.58 9.76
5/29/2022 6:45:00 AM 13.84 56.912 0.074 6.79 5.41 9.8
5/29/2022 7:00:00 AM 13.83 56.894 0.074 6.79 5.42 9.81
5/29/2022 7:15:00 AM 13.83 56.894 0.074 6.79 5.32 9.84
5/29/2022 7:30:00 AM 13.83 56.894 0.073 6.8 5.33 9.87
5/29/2022 7:45:00 AM 13.84 56.912 0.073 6.81 5.35 9.89
5/29/2022 8:00:00 AM 13.85 56.93 0.073 6.81 5.32 9.93
5/29/2022 8:15:00 AM 13.85 56.93 0.073 6.82 5.25 9.93
5/29/2022 8:30:00 AM 13.88 56.984 0.073 6.83 5.25 9.96
5/29/2022 8:45:00 AM 13.94 57.092 0.073 6.83 5.4 9.98
5/29/2022 9:00:00 AM 14.01 57.218 0.073 6.84 5.46 10.01
5/29/2022 9:15:00 AM 14.12 57.416 0.073 6.86 5.38 10.05
5/29/2022 9:30:00 AM 14.31 57.758 0.073 6.87 5.33 10.06
5/29/2022 9:45:00 AM 14.5 58.1 0.073 6.87 5.37 10.05
5/29/2022 10:00:00 AM 14.62 58.316 0.073 6.88 5.37 10.03
5/29/2022 10:15:00 AM 14.75 58.55 0.073 6.88 5.33 10
5/29/2022 10:30:00 AM 14.97 58.946 0.073 6.87 5.31 9.96
5/29/2022 10:45:00 AM 15.19 59.342 0.073 6.86 5.28 9.9
5/29/2022 11:00:00 AM 15.43 59.774 0.073 6.86 5.36 9.85
5/29/2022 11:15:00 AM 15.68 60.224 0.073 6.86 5.27 9.81
5/29/2022 11:30:00 AM 15.92 60.656 0.073 6.87 5.24 9.77
5/29/2022 11:45:00 AM 16.18 61.124 0.073 6.87 5.26 9.73
5/29/2022 12:00:00 PM 16.45 61.61 0.073 6.88 5.21 9.69
5/29/2022 12:15:00 PM 16.71 62.078 0.073 6.88 5.16 9.64
5/29/2022 12:30:00 PM 16.98 62.564 0.073 6.89 5.2 9.6
5/29/2022 12:45:00 PM 17.04 62.672 0.073 6.89 5.21 9.56
5/29/2022 1:00:00 PM 17.13 62.834 0.073 6.89 5.11 9.51
5/29/2022 1:15:00 PM 17.45 63.41 0.073 6.89 5.3 9.47
5/29/2022 1:30:00 PM 17.53 63.554 0.073 6.9 5.18 9.44
5/29/2022 1:45:00 PM 17.83 64.094 0.073 6.89 5.16 9.41
5/29/2022 2:00:00 PM 17.93 64.274 0.073 6.89 5.23 9.38
5/29/2022 2:15:00 PM 18.1 64.58 0.073 6.9 5.12 9.35
5/29/2022 2:30:00 PM 18.27 64.886 0.073 6.89 5.13 9.3
5/29/2022 2:45:00 PM 18.39 65.102 0.073 6.89 5.09 9.27
5/29/2022 3:00:00 PM 18.25 64.85 0.073 6.9 5.15 9.26
5/29/2022 3:15:00 PM 18.37 65.066 0.073 6.89 5.15 9.23
5/29/2022 3:30:00 PM 18.47 65.246 0.073 6.9 5.16 9.22
5/29/2022 3:45:00 PM 18.47 65.246 0.073 6.9 5.1 9.23
5/29/2022 4:00:00 PM 18.49 65.282 0.073 6.91 5.08 9.23
5/29/2022 4:15:00 PM 18.36 65.048 0.074 6.91 5.08 9.22
5/29/2022 4:30:00 PM 18.3 64.94 0.074 6.91 5.06 9.21
5/29/2022 4:45:00 PM 18.24 64.832 0.074 6.9 5.11 9.2
5/29/2022 5:00:00 PM 18.14 64.652 0.074 6.89 5.13 9.19
5/29/2022 5:15:00 PM 18.08 64.544 0.074 6.89 5.17 9.2
5/29/2022 5:30:00 PM 18 64.4 0.074 6.89 5.09 9.2
5/29/2022 5:45:00 PM 17.9 64.22 0.074 6.88 5.08 9.2
5/29/2022 6:00:00 PM 17.78 64.004 0.074 6.88 5.07 9.19
5/29/2022 6:15:00 PM 17.66 63.788 0.074 6.87 5.07 9.18
5/29/2022 6:30:00 PM 17.52 63.536 0.074 6.86 5.16 9.16
5/29/2022 6:45:00 PM 17.44 63.392 0.074 6.86 5.11 9.16
5/29/2022 7:00:00 PM 17.37 63.266 0.074 6.85 5.13 9.17
5/29/2022 7:15:00 PM 17.29 63.122 0.074 6.85 5 9.17
5/29/2022 7:30:00 PM 17.18 62.924 0.074 6.85 5 9.16
5/29/2022 7:45:00 PM 17.07 62.726 0.074 6.83 5.01 9.15
5/29/2022 8:00:00 PM 16.97 62.546 0.074 6.82 5.02 9.14
5/29/2022 8:15:00 PM 16.87 62.366 0.074 6.81 5.04 9.13
5/29/2022 8:30:00 PM 16.77 62.186 0.075 6.8 5.05 9.13
5/29/2022 8:45:00 PM 16.66 61.988 0.075 6.79 5.17 9.12
5/29/2022 9:00:00 PM 16.55 61.79 0.075 6.79 669.22 9.12
5/29/2022 9:15:00 PM 16.45 61.61 0.075 6.78 107.57 9.14
5/29/2022 9:30:00 PM 16.36 61.448 0.075 6.77 19.58 9.15
5/29/2022 9:45:00 PM 16.27 61.286 0.075 6.77 6.25 9.13
5/29/2022 10:00:00 PM 16.18 61.124 0.075 6.77 4.52 9.17
5/29/2022 10:15:00 PM 16.09 60.962 0.075 6.77 4.21 9.19
5/29/2022 10:30:00 PM 16 60.8 0.075 6.77 4.01 9.21
5/29/2022 10:45:00 PM 15.91 60.638 0.075 6.78 4.3 9.24
5/29/2022 11:00:00 PM 15.83 60.494 0.075 6.78 4.27 9.27
5/29/2022 11:15:00 PM 15.76 60.368 0.075 6.78 4.21 9.28
5/29/2022 11:30:00 PM 15.67 60.206 0.075 6.78 4.27 9.3
5/29/2022 11:45:00 PM 15.6 60.08 0.075 6.77 4.2 9.3
5/30/2022 12:00:00 AM 15.52 59.936 0.075 6.78 4.22 9.33
5/30/2022 12:15:00 AM 15.45 59.81 0.075 6.77 4.28 9.34
5/30/2022 12:30:00 AM 15.37 59.666 0.075 6.78 4.2 9.37
5/30/2022 12:45:00 AM 15.3 59.54 0.075 6.77 4.19 9.38
5/30/2022 1:00:00 AM 15.23 59.414 0.075 6.77 4.24 9.38
5/30/2022 1:15:00 AM 15.17 59.306 0.075 6.76 4.28 9.38
5/30/2022 1:30:00 AM 15.09 59.162 0.075 6.76 4.18 9.4
5/30/2022 1:45:00 AM 15.03 59.054 0.075 6.76 9.94 9.42
5/30/2022 2:00:00 AM 14.96 58.928 0.075 6.76 5.89 9.43
5/30/2022 2:15:00 AM 14.9 58.82 0.075 6.75 6.92 9.44
5/30/2022 2:30:00 AM 14.84 58.712 0.075 6.76 4.66 9.46
5/30/2022 2:45:00 AM 14.78 58.604 0.075 6.75 4.34 9.47
5/30/2022 3:00:00 AM 14.74 58.532 0.075 6.75 4.11 9.47
5/30/2022 3:15:00 AM 14.69 58.442 0.074 6.75 4.17 9.49
5/30/2022 3:30:00 AM 14.64 58.352 0.074 6.75 4.06 9.5
5/30/2022 3:45:00 AM 14.61 58.298 0.074 6.75 4.08 9.5
5/30/2022 4:00:00 AM 14.57 58.226 0.074 6.76 4.1 9.53
5/30/2022 4:15:00 AM 14.53 58.154 0.074 6.76 4.13 9.53
5/30/2022 4:30:00 AM 14.5 58.1 0.074 6.76 4.18 9.55
5/30/2022 4:45:00 AM 14.48 58.064 0.074 6.75 4.1 9.54
5/30/2022 5:00:00 AM 14.44 57.992 0.074 6.75 4 9.56
5/30/2022 5:15:00 AM 14.41 57.938 0.074 6.75 3.87 9.57
5/30/2022 5:30:00 AM 14.38 57.884 0.074 6.75 75.19 9.55
5/30/2022 5:45:00 AM 14.34 57.812 0.074 6.75 13.01 9.57
5/30/2022 6:00:00 AM 14.3 57.74 0.074 6.75 4.33 9.59
5/30/2022 6:15:00 AM 14.27 57.686 0.074 6.76 3.1 9.62
5/30/2022 6:30:00 AM 14.24 57.632 0.074 6.76 2.93 9.66
5/30/2022 6:45:00 AM 14.22 57.596 0.074 6.77 2.93 9.68
5/30/2022 7:00:00 AM 14.2 57.56 0.074 6.77 2.9 9.69
5/30/2022 7:15:00 AM 14.19 57.542 0.074 6.77 5.42 9.72
5/30/2022 7:30:00 AM 14.2 57.56 0.074 6.78 4.91 9.74
5/30/2022 7:45:00 AM 14.21 57.578 0.074 6.79 5.24 9.81
5/30/2022 8:00:00 AM 14.24 57.632 0.074 6.81 5.37 9.86
5/30/2022 8:15:00 AM 14.28 57.704 0.074 6.82 4.98 9.88
5/30/2022 8:30:00 AM 14.34 57.812 0.074 6.83 7.63 9.92
5/30/2022 8:45:00 AM 14.39 57.902 0.074 6.83 13.26 9.93
5/30/2022 9:00:00 AM 14.52 58.136 0.074 6.84 7.72 9.94
5/30/2022 9:15:00 AM 14.61 58.298 0.074 6.85 6.67 9.95
5/30/2022 9:30:00 AM 14.68 58.424 0.074 6.85 6.34 9.93
5/30/2022 9:45:00 AM 14.9 58.82 0.074 6.86 6.24 9.91
5/30/2022 10:00:00 AM 15.14 59.252 0.074 6.86 6.07 9.88
5/30/2022 10:15:00 AM 15.41 59.738 0.074 6.86 10.53 9.84
5/30/2022 10:30:00 AM 15.68 60.224 0.074 6.86 7.72 9.79
5/30/2022 10:45:00 AM 15.91 60.638 0.074 6.85 8.31 9.73
5/30/2022 11:00:00 AM 16.15 61.07 0.074 6.86 7.7 9.71
5/30/2022 11:15:00 AM 16.39 61.502 0.074 6.85 7.44 9.66
5/30/2022 11:30:00 AM 16.64 61.952 0.074 6.86 7.28 9.62
5/30/2022 11:45:00 AM 16.92 62.456 0.074 6.87 7.42 9.58
5/30/2022 12:00:00 PM 17.17 62.906 0.074 6.87 7.05 9.52
5/30/2022 12:15:00 PM 17.52 63.536 0.074 6.88 8.3 9.5
5/30/2022 12:30:00 PM 17.52 63.536 0.074 6.88 7.16 9.47
5/30/2022 12:45:00 PM 17.82 64.076 0.074 6.89 6.99 9.43
5/30/2022 1:00:00 PM 18.11 64.598 0.074 6.89 7.13 9.38
5/30/2022 1:15:00 PM 18.16 64.688 0.074 6.89 8.94 9.33
5/30/2022 1:30:00 PM 18.45 65.21 0.074 6.89 7.54 9.29
5/30/2022 1:45:00 PM 18.66 65.588 0.074 6.89 6.84 9.25
5/30/2022 2:00:00 PM 18.85 65.93 0.074 6.9 6.87 9.23
5/30/2022 2:15:00 PM 18.99 66.182 0.074 6.89 6.65 9.19
5/30/2022 2:30:00 PM 19.13 66.434 0.074 6.9 6.55 9.15
5/30/2022 2:45:00 PM 19.23 66.614 0.074 6.9 6.5 9.11
5/30/2022 3:00:00 PM 19.34 66.812 0.074 6.89 6.6 9.07
5/30/2022 3:15:00 PM 19.43 66.974 0.074 6.89 6.5 9.03
5/30/2022 3:30:00 PM 19.47 67.046 0.074 6.88 6.49 9
5/30/2022 3:45:00 PM 19.44 66.992 0.074 6.88 6.71 8.99
5/30/2022 4:00:00 PM 19.39 66.902 0.074 6.89 6.89 8.98
5/30/2022 4:15:00 PM 19.32 66.776 0.074 6.88 6.62 8.97
5/30/2022 4:30:00 PM 19.23 66.614 0.074 6.88 7.4 8.96
5/30/2022 4:45:00 PM 19.16 66.488 0.074 6.87 6.74 8.95
5/30/2022 5:00:00 PM 19.11 66.398 0.075 6.88 6.54 8.96
5/30/2022 5:15:00 PM 19.05 66.29 0.075 6.87 6.41 8.95
5/30/2022 5:30:00 PM 18.93 66.074 0.075 6.86 6.44 8.95
5/30/2022 5:45:00 PM 18.85 65.93 0.075 6.87 7.64 8.93
5/30/2022 6:00:00 PM 18.76 65.768 0.075 6.86 6.61 8.93
5/30/2022 6:15:00 PM 18.67 65.606 0.075 6.85 6.54 8.92
5/30/2022 6:30:00 PM 18.57 65.426 0.075 6.84 6.88 8.9
5/30/2022 6:45:00 PM 18.48 65.264 0.075 6.83 6.5 8.89
5/30/2022 7:00:00 PM 18.4 65.12 0.075 6.83 6.42 8.87
5/30/2022 7:15:00 PM 18.32 64.976 0.075 6.82 6.43 8.87
5/30/2022 7:30:00 PM 18.22 64.796 0.075 6.81 7.1 8.87
5/30/2022 7:45:00 PM 18.14 64.652 0.075 6.8 6.68 8.86
5/30/2022 8:00:00 PM 18.05 64.49 0.075 6.8 6.48 8.85
5/30/2022 8:15:00 PM 17.95 64.31 0.075 6.79 6.42 8.84
5/30/2022 8:30:00 PM 17.85 64.13 0.075 6.78 7.04 8.82
5/30/2022 8:45:00 PM 17.77 63.986 0.075 6.78 5.85 8.83
5/30/2022 9:00:00 PM 17.67 63.806 0.075 6.77 5.35 8.83
5/30/2022 9:15:00 PM 17.58 63.644 0.075 6.76 5.23 8.84
5/30/2022 9:30:00 PM 17.49 63.482 0.075 6.77 5.19 8.85
5/30/2022 9:45:00 PM 17.4 63.32 0.076 6.76 5.15 8.87
5/30/2022 10:00:00 PM 17.3 63.14 0.076 6.76 5.24 8.88
5/30/2022 10:15:00 PM 17.22 62.996 0.076 6.75 5.13 8.88
5/30/2022 10:30:00 PM 17.13 62.834 0.076 6.74 5.45 8.87
5/30/2022 10:45:00 PM 17.07 62.726 0.076 6.74 5.01 8.89
5/30/2022 11:00:00 PM 16.98 62.564 0.076 6.75 5.13 8.92
5/30/2022 11:15:00 PM 16.91 62.438 0.076 6.75 5.11 8.94
5/30/2022 11:30:00 PM 16.82 62.276 0.076 6.75 5.19 8.97
5/30/2022 11:45:00 PM 16.75 62.15 0.076 6.75 5.13 8.99
5/31/2022 12:00:00 AM 16.67 62.006 0.076 6.76 4.69 9
5/31/2022 12:15:00 AM 16.61 61.898 0.076 6.75 4.87 9
5/31/2022 12:30:00 AM 16.54 61.772 0.076 6.75 4.79 9.01
5/31/2022 12:45:00 AM 16.46 61.628 0.076 6.75 4.82 9.04
5/31/2022 1:00:00 AM 16.4 61.52 0.076 6.75 4.79 9.05
5/31/2022 1:15:00 AM 16.33 61.394 0.076 6.75 4.65 9.08
5/31/2022 1:30:00 AM 16.26 61.268 0.076 6.75 4.72 9.08
5/31/2022 1:45:00 AM 16.19 61.142 0.076 6.75 4.72 9.09
5/31/2022 2:00:00 AM 16.13 61.034 0.076 6.75 4.66 9.1
5/31/2022 2:15:00 AM 16.08 60.944 0.076 6.74 5.02 9.1
5/31/2022 2:30:00 AM 16.05 60.89 0.076 6.73 4.69 9.08
5/31/2022 2:45:00 AM 16 60.8 0.076 6.73 4.68 9.12
5/31/2022 3:00:00 AM 15.93 60.674 0.076 6.74 4.68 9.14
5/31/2022 3:15:00 AM 15.87 60.566 0.076 6.74 4.67 9.16
5/31/2022 3:30:00 AM 15.83 60.494 0.076 6.74 4.68 9.16
5/31/2022 3:45:00 AM 15.76 60.368 0.076 6.74 4.65 9.19
5/31/2022 4:00:00 AM 15.7 60.26 0.075 6.75 4.66 9.22
5/31/2022 4:15:00 AM 15.67 60.206 0.076 6.74 4.67 9.21
5/31/2022 4:30:00 AM 15.63 60.134 0.075 6.74 4.67 9.21
5/31/2022 4:45:00 AM 15.6 60.08 0.076 6.73 5.95 9.2
5/31/2022 5:00:00 AM 15.55 59.99 0.075 6.73 3.51 9.22
5/31/2022 5:15:00 AM 15.51 59.918 0.075 6.73 3.55 9.23
5/31/2022 5:30:00 AM 15.46 59.828 0.075 6.73 3.53 9.23
5/31/2022 5:45:00 AM 15.41 59.738 0.075 6.74 3.48 9.26
5/31/2022 6:00:00 AM 15.36 59.648 0.075 6.74 3.38 9.27
5/31/2022 6:15:00 AM 15.34 59.612 0.075 6.74 3.39 9.29
5/31/2022 6:30:00 AM 15.3 59.54 0.075 6.74 3.41 9.32
5/31/2022 6:45:00 AM 15.28 59.504 0.075 6.75 16.83 9.34
5/31/2022 7:00:00 AM 15.26 59.468 0.075 6.76 6.85 9.4
5/31/2022 7:15:00 AM 15.24 59.432 0.075 6.76 5.55 9.44
5/31/2022 7:30:00 AM 15.22 59.396 0.075 6.77 5.25 9.47
5/31/2022 7:45:00 AM 15.25 59.45 0.075 6.78 5.89 9.49
5/31/2022 8:00:00 AM 15.28 59.504 0.075 6.78 4.38 9.52
5/31/2022 8:15:00 AM 15.35 59.63 0.075 6.8 5.32 9.54
5/31/2022 8:30:00 AM 15.43 59.774 0.075 6.79 7.17 9.52
5/31/2022 8:45:00 AM 15.51 59.918 0.075 6.81 5.37 9.58
5/31/2022 9:00:00 AM 15.62 60.116 0.075 6.8 5.2 9.54
5/31/2022 9:15:00 AM 15.73 60.314 0.075 6.81 5.26 9.56
5/31/2022 9:30:00 AM 15.9 60.62 0.075 6.81 6.35 9.53
5/31/2022 9:45:00 AM 16.11 60.998 0.075 6.82 5.29 9.52
5/31/2022 10:00:00 AM 16.34 61.412 0.075 6.82 4.73 9.5
5/31/2022 10:15:00 AM 16.59 61.862 0.075 6.82 4.45 9.37
5/31/2022 10:30:00 AM 16.83 62.294 0.075 6.81 4.41 9.39
5/31/2022 10:45:00 AM 17.08 62.744 0.075 6.81 4.59 9.35
5/31/2022 11:00:00 AM 17.22 62.996 0.075 6.81 4.58 9.31
5/31/2022 11:15:00 AM 17.26 63.068 0.075 6.82 4.76 9.31
5/31/2022 11:30:00 AM 17.43 63.374 0.075 6.84 4.55 9.33
5/31/2022 11:45:00 AM 17.64 63.752 0.075 6.85 4.69 9.3
5/31/2022 12:00:00 PM 17.73 63.914 0.075 6.84 4.58 9.25
5/31/2022 12:15:00 PM 18.06 64.508 0.075 6.86 3.75 9.25
5/31/2022 12:30:00 PM 18.14 64.652 0.075 6.87 3.64 9.24
5/31/2022 12:45:00 PM 18.17 64.706 0.075 6.86 3.57 9.18
5/31/2022 1:00:00 PM 18.52 65.336 0.075 6.87 3.44 9.17
5/31/2022 1:15:00 PM 18.63 65.534 0.075 6.87 3.45 9.14
5/31/2022 1:30:00 PM 18.94 66.092 0.075 6.87 3.41 9.11
5/31/2022 1:45:00 PM 19.17 66.506 0.075 6.87 3.52 9.05
5/31/2022 2:00:00 PM 19.24 66.632 0.075 6.87 3.48 9.02
5/31/2022 2:15:00 PM 19.28 66.704 0.075 6.88 3.84 9.02
5/31/2022 2:30:00 PM 19.42 66.956 0.075 6.88 3.8 9.01
5/31/2022 2:45:00 PM 19.56 67.208 0.075 6.88 3.76 8.97
5/31/2022 3:00:00 PM 19.64 67.352 0.075 6.88 3.7 8.96
5/31/2022 3:15:00 PM 19.8 67.64 0.075 6.88 3.65 8.91
5/31/2022 3:30:00 PM 19.85 67.73 0.075 6.87 3.7 8.87
5/31/2022 3:45:00 PM 19.79 67.622 0.075 6.86 3.72 8.83
5/31/2022 4:00:00 PM 19.8 67.64 0.075 6.87 3.73 8.82
5/31/2022 4:15:00 PM 19.77 67.586 0.075 6.87 3.66 8.83
5/31/2022 4:30:00 PM 19.59 67.262 0.075 6.87 3.68 8.8
5/31/2022 4:45:00 PM 19.41 66.938 0.075 6.85 3.7 8.78
5/31/2022 5:00:00 PM 19.32 66.776 0.075 6.85 3.71 8.78
5/31/2022 5:15:00 PM 19.37 66.866 0.075 6.84 3.67 8.78
5/31/2022 5:30:00 PM 19.33 66.794 0.075 6.85 3.58 8.82
5/31/2022 5:45:00 PM 19.26 66.668 0.075 6.85 3.91 8.81
5/31/2022 6:00:00 PM 19.25 66.65 0.075 6.84 3.73 8.78
5/31/2022 6:15:00 PM 19.18 66.524 0.075 6.84 3.68 8.77
5/31/2022 6:30:00 PM 19.09 66.362 0.075 6.84 3.71 8.74
5/31/2022 6:45:00 PM 19 66.2 0.075 6.81 3.73 8.7
5/31/2022 7:00:00 PM 18.93 66.074 0.076 6.81 3.67 8.7
5/31/2022 7:15:00 PM 18.85 65.93 0.075 6.82 3.79 8.71
5/31/2022 7:30:00 PM 18.77 65.786 0.076 6.8 3.69 8.67
5/31/2022 7:45:00 PM 18.69 65.642 0.076 6.79 3.75 8.69
5/31/2022 8:00:00 PM 18.61 65.498 0.076 6.79 3.74 8.68
5/31/2022 8:15:00 PM 18.52 65.336 0.076 6.78 3.69 8.65
5/31/2022 8:30:00 PM 18.43 65.174 0.076 6.77 9.88 8.63
5/31/2022 8:45:00 PM 18.33 64.994 0.076 6.76 8.45 8.63
5/31/2022 9:00:00 PM 18.25 64.85 0.076 6.76 8.8 8.63
5/31/2022 9:15:00 PM 18.17 64.706 0.076 6.76 6.58 8.63
5/31/2022 9:30:00 PM 18.09 64.562 0.076 6.76 11.38 8.64
5/31/2022 9:45:00 PM 18.03 64.454 0.076 6.75 7.62 8.62
5/31/2022 10:00:00 PM 17.95 64.31 0.076 6.75 6.88 8.64
5/31/2022 10:15:00 PM 17.85 64.13 0.076 6.75 6.77 8.63
5/31/2022 10:30:00 PM 17.78 64.004 0.076 6.75 6.88 8.67
5/31/2022 10:45:00 PM 17.7 63.86 0.076 6.74 6.79 8.67
5/31/2022 11:00:00 PM 17.61 63.698 0.076 6.74 6.34 8.67
5/31/2022 11:15:00 PM 17.54 63.572 0.076 6.74 6.56 8.69
5/31/2022 11:30:00 PM 17.46 63.428 0.076 6.74 6.2 8.72
5/31/2022 11:45:00 PM 17.4 63.32 0.076 6.74 5.87 8.73
6/1/2022 12:00:00 AM 17.34 63.212 0.076 6.73 6.13 8.73
6/1/2022 12:15:00 AM 17.25 63.05 0.076 6.74 6.03 8.76
6/1/2022 12:30:00 AM 17.22 62.996 0.076 6.73 6.18 8.73
6/1/2022 12:45:00 AM 17.14 62.852 0.076 6.73 6.03 8.77
6/1/2022 1:00:00 AM 17.07 62.726 0.076 6.73 6.17 8.79
6/1/2022 1:15:00 AM 17.01 62.618 0.076 6.73 6.55 8.8
6/1/2022 1:30:00 AM 16.95 62.51 0.076 6.72 6.48 8.79
6/1/2022 1:45:00 AM 16.89 62.402 0.076 6.72 6.5 8.79
6/1/2022 2:00:00 AM 16.82 62.276 0.076 6.72 6.49 8.83
6/1/2022 2:15:00 AM 16.77 62.186 0.076 6.72 7.4 8.82
6/1/2022 2:30:00 AM 16.71 62.078 0.076 6.72 4.8 8.84
6/1/2022 2:45:00 AM 16.66 61.988 0.076 6.71 6.96 8.84
6/1/2022 3:00:00 AM 16.61 61.898 0.076 6.72 4.93 8.88
6/1/2022 3:15:00 AM 16.56 61.808 0.076 6.71 4.62 8.87
6/1/2022 3:30:00 AM 16.5 61.7 0.076 6.72 4.23 8.9
6/1/2022 3:45:00 AM 16.44 61.592 0.076 6.71 25.33 8.89
6/1/2022 4:00:00 AM 16.38 61.484 0.076 6.71 7.31 8.92
6/1/2022 4:15:00 AM 16.34 61.412 0.076 6.71 4.63 8.91
6/1/2022 4:30:00 AM 16.29 61.322 0.076 6.71 4.24 8.94
6/1/2022 4:45:00 AM 16.24 61.232 0.076 6.71 4.15 8.96
6/1/2022 5:00:00 AM 16.2 61.16 0.076 6.71 4.25 8.97
6/1/2022 5:15:00 AM 16.17 61.106 0.076 6.71 4.14 8.96
6/1/2022 5:30:00 AM 16.12 61.016 0.076 6.71 4.37 8.99
6/1/2022 5:45:00 AM 16.06 60.908 0.076 6.72 4.49 8.99
6/1/2022 6:00:00 AM 16 60.8 0.076 6.72 4.59 9.04
6/1/2022 6:15:00 AM 15.97 60.746 0.076 6.72 4.57 9.05
6/1/2022 6:30:00 AM 15.94 60.692 0.076 6.72 4.59 9.04
6/1/2022 6:45:00 AM 15.91 60.638 0.076 6.73 5.5 9.08
6/1/2022 7:00:00 AM 15.89 60.602 0.076 6.73 4.87 9.12
6/1/2022 7:15:00 AM 15.89 60.602 0.076 6.73 5.31 9.14
6/1/2022 7:30:00 AM 15.89 60.602 0.076 6.75 4.96 9.2
6/1/2022 7:45:00 AM 15.92 60.656 0.076 6.76 4.81 9.26
6/1/2022 8:00:00 AM 15.97 60.746 0.076 6.76 4.79 9.25
6/1/2022 8:15:00 AM 16.03 60.854 0.076 6.77 4.68 9.28
6/1/2022 8:30:00 AM 16.11 60.998 0.076 6.77 4.68 9.26
6/1/2022 8:45:00 AM 16.21 61.178 0.076 6.78 4.68 9.27
6/1/2022 9:00:00 AM 16.31 61.358 0.076 6.78 5.05 9.27
6/1/2022 9:15:00 AM 16.44 61.592 0.076 6.79 4.33 9.28
6/1/2022 9:30:00 AM 16.62 61.916 0.076 6.8 12.34 9.27
6/1/2022 9:45:00 AM 16.83 62.294 0.075 6.81 8.77 9.28
6/1/2022 10:00:00 AM 17.05 62.69 0.075 6.81 6.27 9.26
6/1/2022 10:15:00 AM 17.26 63.068 0.075 6.82 4.59 9.25
6/1/2022 10:30:00 AM 17.52 63.536 0.075 6.81 4.55 9.21
6/1/2022 10:45:00 AM 17.79 64.022 0.075 6.81 3.97 9.12
6/1/2022 11:00:00 AM 17.87 64.166 0.075 6.8 10.68 9.08
6/1/2022 11:15:00 AM 17.86 64.148 0.075 6.81 10.29 9.04
6/1/2022 11:30:00 AM 18.11 64.598 0.075 6.84 8.01 9.08
6/1/2022 11:45:00 AM 18.25 64.85 0.075 6.83 5.94 9.04
6/1/2022 12:00:00 PM 18.58 65.444 0.075 6.82 5.25 8.95
6/1/2022 12:15:00 PM 18.45 65.21 0.075 6.83 4.32 8.97
6/1/2022 12:30:00 PM 18.83 65.894 0.075 6.84 4.07 8.98
6/1/2022 12:45:00 PM 18.64 65.552 0.075 6.83 4 8.94
6/1/2022 1:00:00 PM 18.59 65.462 0.075 6.84 3.91 8.94
6/1/2022 1:15:00 PM 18.64 65.552 0.075 6.84 3.85 8.94
6/1/2022 1:30:00 PM 19.05 66.29 0.075 6.84 3.74 8.91
6/1/2022 1:45:00 PM 19.31 66.758 0.075 6.85 3.73 8.88
6/1/2022 2:00:00 PM 19.55 67.19 0.075 6.85 3.65 8.85
6/1/2022 2:15:00 PM 19.53 67.154 0.075 6.84 3.72 8.82
6/1/2022 2:30:00 PM 19.57 67.226 0.075 6.85 3.71 8.81
6/1/2022 2:45:00 PM 19.7 67.46 0.075 6.86 3.67 8.81
6/1/2022 3:00:00 PM 19.83 67.694 0.075 6.85 3.63 8.77
6/1/2022 3:15:00 PM 19.75 67.55 0.075 6.84 3.64 8.73
6/1/2022 3:30:00 PM 19.87 67.766 0.075 6.86 3.63 8.75
6/1/2022 3:45:00 PM 19.9 67.82 0.075 6.84 3.63 8.69
6/1/2022 4:00:00 PM 19.82 67.676 0.075 6.84 3.71 8.69
6/1/2022 4:15:00 PM 19.86 67.748 0.075 6.84 3.69 8.7
6/1/2022 4:30:00 PM 19.75 67.55 0.075 6.83 3.71 8.63
6/1/2022 4:45:00 PM 19.64 67.352 0.074 6.83 4.83 8.62
6/1/2022 5:00:00 PM 19.6 67.28 0.075 6.89 5.45 8.64
6/1/2022 5:15:00 PM 19.6 67.28 0.076 6.89 5.51 8.65
6/1/2022 5:30:00 PM 19.57 67.226 0.076 6.87 5.74 8.63
6/1/2022 5:45:00 PM 19.5 67.1 0.075 6.86 4.62 8.64
6/1/2022 6:00:00 PM 19.44 66.992 0.075 6.85 4.02 8.63
6/1/2022 6:15:00 PM 19.36 66.848 0.075 6.84 3.88 8.61
6/1/2022 6:30:00 PM 19.25 66.65 0.076 6.82 3.86 8.55
6/1/2022 6:45:00 PM 19.16 66.488 0.076 6.8 3.99 8.48
6/1/2022 7:00:00 PM 19.08 66.344 0.076 6.79 4.33 8.47
6/1/2022 7:15:00 PM 19 66.2 0.076 6.79 4.34 8.47
6/1/2022 7:30:00 PM 18.93 66.074 0.076 6.77 4.16 8.44
6/1/2022 7:45:00 PM 18.86 65.948 0.076 6.77 4.15 8.46
6/1/2022 8:00:00 PM 18.76 65.768 0.076 6.78 4.32 8.48
6/1/2022 8:15:00 PM 18.66 65.588 0.076 6.77 4.42 8.45
6/1/2022 8:30:00 PM 18.57 65.426 0.076 6.76 4.43 8.46
6/1/2022 8:45:00 PM 18.49 65.282 0.076 6.76 4.83 8.46
6/1/2022 9:00:00 PM 18.43 65.174 0.076 6.75 5.02 8.43
6/1/2022 9:15:00 PM 18.35 65.03 0.076 6.75 4.86 8.45
6/1/2022 9:30:00 PM 18.28 64.904 0.076 6.74 5 8.45
6/1/2022 9:45:00 PM 18.21 64.778 0.076 6.75 4.96 8.49
6/1/2022 10:00:00 PM 18.14 64.652 0.076 6.74 4.93 8.48
6/1/2022 10:15:00 PM 18.08 64.544 0.076 6.73 4.88 8.47
6/1/2022 10:30:00 PM 18 64.4 0.076 6.74 4.99 8.48
6/1/2022 10:45:00 PM 17.93 64.274 0.076 6.74 5.11 8.52
6/1/2022 11:00:00 PM 17.87 64.166 0.076 6.74 5.12 8.54
6/1/2022 11:15:00 PM 17.8 64.04 0.076 6.73 5 8.55
6/1/2022 11:30:00 PM 17.72 63.896 0.076 6.74 5.07 8.57
6/1/2022 11:45:00 PM 17.66 63.788 0.076 6.73 4.99 8.57
6/2/2022 12:00:00 AM 17.6 63.68 0.076 6.74 5 8.59
6/2/2022 12:15:00 AM 17.54 63.572 0.076 6.74 5.06 8.59
6/2/2022 12:30:00 AM 17.49 63.482 0.076 6.72 5.1 8.56
6/2/2022 12:45:00 AM 17.43 63.374 0.076 6.73 5.11 8.6
6/2/2022 1:00:00 AM 17.37 63.266 0.076 6.73 4.99 8.63
6/2/2022 1:15:00 AM 17.32 63.176 0.076 6.73 5.06 8.64
6/2/2022 1:30:00 AM 17.27 63.086 0.076 6.74 5 8.66
6/2/2022 1:45:00 AM 17.22 62.996 0.076 6.74 4.96 8.68
6/2/2022 2:00:00 AM 17.17 62.906 0.076 6.74 4.97 8.69
6/2/2022 2:15:00 AM 17.13 62.834 0.076 6.74 4.92 8.71
6/2/2022 2:30:00 AM 17.09 62.762 0.076 6.74 5 8.71
6/2/2022 2:45:00 AM 17.06 62.708 0.076 6.74 4.97 8.72
6/2/2022 3:00:00 AM 17.02 62.636 0.076 6.74 4.92 8.75
6/2/2022 3:15:00 AM 16.99 62.582 0.076 6.74 4.93 8.73
6/2/2022 3:30:00 AM 16.96 62.528 0.076 6.74 4.93 8.76
6/2/2022 3:45:00 AM 16.93 62.474 0.076 6.75 4.93 8.78
6/2/2022 4:00:00 AM 16.9 62.42 0.076 6.75 4.97 8.78
6/2/2022 4:15:00 AM 16.86 62.348 0.076 6.76 4.99 8.81
6/2/2022 4:30:00 AM 16.84 62.312 0.077 6.75 5 8.81
6/2/2022 4:45:00 AM 16.79 62.222 0.077 6.76 5 8.85
6/2/2022 5:00:00 AM 16.78 62.204 0.077 6.75 4.98 8.84
6/2/2022 5:15:00 AM 16.74 62.132 0.077 6.74 5.01 8.84
6/2/2022 5:30:00 AM 16.71 62.078 0.077 6.75 5.16 8.87
6/2/2022 5:45:00 AM 16.68 62.024 0.077 6.75 5.08 8.89
6/2/2022 6:00:00 AM 16.65 61.97 0.077 6.74 4.78 8.87
6/2/2022 6:15:00 AM 16.63 61.934 0.077 6.75 7.83 8.91
6/2/2022 6:30:00 AM 16.61 61.898 0.077 6.75 7.26 8.93
6/2/2022 6:45:00 AM 16.6 61.88 0.077 6.76 6.93 8.96
6/2/2022 7:00:00 AM 16.59 61.862 0.077 6.76 7.48 8.96
6/2/2022 7:15:00 AM 16.59 61.862 0.077 6.76 7.45 8.98
6/2/2022 7:30:00 AM 16.6 61.88 0.077 6.76 7.54 8.99
6/2/2022 7:45:00 AM 16.59 61.862 0.077 6.77 7.77 9.03
6/2/2022 8:00:00 AM 16.61 61.898 0.077 6.78 7.59 9.06
6/2/2022 8:15:00 AM 16.61 61.898 0.077 6.78 7.7 9.1
6/2/2022 8:30:00 AM 16.65 61.97 0.077 6.79 8 9.13
6/2/2022 8:45:00 AM 16.7 62.06 0.077 6.8 7.77 9.17
6/2/2022 9:00:00 AM 16.71 62.078 0.077 6.81 7.72 9.17
6/2/2022 9:15:00 AM 16.73 62.114 0.077 6.81 7.52 9.18
6/2/2022 9:30:00 AM 16.76 62.168 0.077 6.81 7.36 9.17
6/2/2022 9:45:00 AM 16.78 62.204 0.077 6.82 7.37 9.18
6/2/2022 10:00:00 AM 16.77 62.186 0.077 6.81 7.32 9.13
6/2/2022 10:15:00 AM 16.8 62.24 0.077 6.82 7.38 9.15
6/2/2022 10:30:00 AM 16.94 62.492 0.077 6.83 7.3 9.18
6/2/2022 10:45:00 AM 17.09 62.762 0.076 6.84 7.16 9.19
6/2/2022 11:00:00 AM 17.41 63.338 0.076 6.85 7.23 9.19
6/2/2022 11:15:00 AM 17.39 63.302 0.076 6.86 7.19 9.19
6/2/2022 11:30:00 AM 17.4 63.32 0.076 6.87 7.12 9.19
6/2/2022 11:45:00 AM 17.36 63.248 0.076 6.87 7.16 9.19
6/2/2022 12:00:00 PM 17.42 63.356 0.076 6.86 7.16 9.17
6/2/2022 12:15:00 PM 17.48 63.464 0.076 6.87 7.09 9.16
6/2/2022 12:30:00 PM 17.52 63.536 0.076 6.86 7.07 9.13
6/2/2022 12:45:00 PM 17.54 63.572 0.076 6.87 5.24 9.13
6/2/2022 1:00:00 PM 17.59 63.662 0.076 6.87 9.35 9.13
6/2/2022 1:15:00 PM 17.57 63.626 0.076 6.86 4.51 9.1
6/2/2022 1:30:00 PM 17.54 63.572 0.076 6.86 3.33 9.08
6/2/2022 1:45:00 PM 17.61 63.698 0.076 6.87 3.12 9.1
6/2/2022 2:00:00 PM 17.75 63.95 0.076 6.87 3.11 9.09
6/2/2022 2:15:00 PM 17.87 64.166 0.076 6.86 3.08 9.08
6/2/2022 2:30:00 PM 18.02 64.436 0.076 6.86 3.04 9.06
6/2/2022 2:45:00 PM 18.26 64.868 0.076 6.87 3.04 9.04
6/2/2022 3:00:00 PM 18.23 64.814 0.076 6.85 2.99 9
6/2/2022 3:15:00 PM 18.35 65.03 0.076 6.88 3.01 9.03
6/2/2022 3:30:00 PM 18.31 64.958 0.076 6.88 3.02 9.02
6/2/2022 3:45:00 PM 18.42 65.156 0.076 6.88 3.15 9.01
6/2/2022 4:00:00 PM 18.45 65.21 0.076 6.88 3.08 8.97
6/2/2022 4:15:00 PM 18.41 65.138 0.076 6.88 3.21 8.95
6/2/2022 4:30:00 PM 18.41 65.138 0.076 6.88 3.05 8.92
6/2/2022 4:45:00 PM 18.32 64.976 0.076 6.87 3.01 8.9
6/2/2022 5:00:00 PM 18.33 64.994 0.076 6.87 2.99 8.91
6/2/2022 5:15:00 PM 18.27 64.886 0.076 6.86 3.01 8.87
6/2/2022 5:30:00 PM 18.23 64.814 0.076 6.86 3.03 8.87
6/2/2022 5:45:00 PM 18.18 64.724 0.076 6.85 3.1 8.85
6/2/2022 6:00:00 PM 18.11 64.598 0.076 6.84 3.08 8.8
6/2/2022 6:15:00 PM 18.1 64.58 0.076 6.84 3.06 8.82
6/2/2022 6:30:00 PM 18.03 64.454 0.076 6.83 3.04 8.78
6/2/2022 6:45:00 PM 18.01 64.418 0.076 6.82 3.03 8.77
6/2/2022 7:00:00 PM 17.97 64.346 0.076 6.82 3.07 8.77
6/2/2022 7:15:00 PM 17.92 64.256 0.076 6.81 3.03 8.76
6/2/2022 7:30:00 PM 17.86 64.148 0.076 6.8 2.91 8.74
6/2/2022 7:45:00 PM 17.8 64.04 0.076 6.79 2.98 8.7
6/2/2022 8:00:00 PM 17.75 63.95 0.076 6.8 3.69 8.7
6/2/2022 8:15:00 PM 17.69 63.842 0.076 6.81 3.5 8.7
6/2/2022 8:30:00 PM 17.63 63.734 0.076 6.79 3.35 8.66
6/2/2022 8:45:00 PM 17.56 63.608 0.076 6.78 3.34 8.65
6/2/2022 9:00:00 PM 17.48 63.464 0.076 6.78 3.11 8.68
6/2/2022 9:15:00 PM 17.4 63.32 0.077 6.78 3.06 8.67
6/2/2022 9:30:00 PM 17.32 63.176 0.077 6.77 3.07 8.66
6/2/2022 9:45:00 PM 17.24 63.032 0.077 6.76 3.05 8.67
6/2/2022 10:00:00 PM 17.16 62.888 0.077 6.76 3.21 8.69
6/2/2022 10:15:00 PM 17.1 62.78 0.077 6.75 3.2 8.68
6/2/2022 10:30:00 PM 17.02 62.636 0.077 6.76 3.23 8.71
6/2/2022 10:45:00 PM 16.95 62.51 0.077 6.76 3.28 8.73
6/2/2022 11:00:00 PM 16.89 62.402 0.077 6.76 2.76 8.74
6/2/2022 11:15:00 PM 16.83 62.294 0.077 6.76 2.72 8.77
6/2/2022 11:30:00 PM 16.78 62.204 0.077 6.76 2.65 8.78
6/2/2022 11:45:00 PM 16.71 62.078 0.077 6.76 2.69 8.79
6/3/2022 12:00:00 AM 16.66 61.988 0.077 6.76 2.67 8.81
6/3/2022 12:15:00 AM 16.6 61.88 0.077 6.76 2.64 8.84
6/3/2022 12:30:00 AM 16.54 61.772 0.077 6.77 2.6 8.87
6/3/2022 12:45:00 AM 16.49 61.682 0.077 6.77 2.57 8.89
6/3/2022 1:00:00 AM 16.43 61.574 0.077 6.77 2.64 8.9
6/3/2022 1:15:00 AM 16.39 61.502 0.077 6.76 2.58 8.89
6/3/2022 1:30:00 AM 16.33 61.394 0.077 6.76 2.62 8.91
6/3/2022 1:45:00 AM 16.26 61.268 0.077 6.76 2.65 8.92
6/3/2022 2:00:00 AM 16.19 61.142 0.077 6.76 2.65 8.94
6/3/2022 2:15:00 AM 16.12 61.016 0.077 6.76 2.66 8.95
6/3/2022 2:30:00 AM 16.05 60.89 0.077 6.75 2.71 8.92
6/3/2022 2:45:00 AM 15.96 60.728 0.077 6.76 2.64 8.99
6/3/2022 3:00:00 AM 15.88 60.584 0.077 6.76 2.65 8.99
6/3/2022 3:15:00 AM 15.78 60.404 0.077 6.77 2.86 9.02
6/3/2022 3:30:00 AM 15.7 60.26 0.077 6.76 2.72 9.04
6/3/2022 3:45:00 AM 15.61 60.098 0.077 6.77 2.67 9.08
6/3/2022 4:00:00 AM 15.52 59.936 0.077 6.77 2.64 9.11
6/3/2022 4:15:00 AM 15.45 59.81 0.077 6.77 2.68 9.1
6/3/2022 4:30:00 AM 15.35 59.63 0.077 6.77 2.67 9.13
6/3/2022 4:45:00 AM 15.24 59.432 0.077 6.77 3.01 9.17
6/3/2022 5:00:00 AM 15.17 59.306 0.077 6.77 2.8 9.15
6/3/2022 5:15:00 AM 15.09 59.162 0.077 6.76 2.71 9.17
6/3/2022 5:30:00 AM 14.99 58.982 0.077 6.77 12.3 9.21
6/3/2022 5:45:00 AM 14.91 58.838 0.077 6.77 4.24 9.22
6/3/2022 6:00:00 AM 14.81 58.658 0.077 6.78 3.14 9.28
6/3/2022 6:15:00 AM 14.72 58.496 0.077 6.78 2.9 9.31
6/3/2022 6:30:00 AM 14.64 58.352 0.077 6.78 2.84 9.35
6/3/2022 6:45:00 AM 14.57 58.226 0.077 6.78 2.9 9.37
6/3/2022 7:00:00 AM 14.49 58.082 0.077 6.8 2.74 9.43
6/3/2022 7:15:00 AM 14.47 58.046 0.077 6.79 2.7 9.45
6/3/2022 7:30:00 AM 14.47 58.046 0.077 6.79 2.66 9.47
6/3/2022 7:45:00 AM 14.46 58.028 0.076 6.81 2.65 9.52
6/3/2022 8:00:00 AM 14.49 58.082 0.076 6.82 2.72 9.56
6/3/2022 8:15:00 AM 14.54 58.172 0.076 6.82 2.67 9.57
6/3/2022 8:30:00 AM 14.6 58.28 0.076 6.84 2.61 9.6
6/3/2022 8:45:00 AM 14.7 58.46 0.077 6.82 2.87 9.53
6/3/2022 9:00:00 AM 14.77 58.586 0.076 6.84 2.68 9.6
6/3/2022 9:15:00 AM 14.89 58.802 0.076 6.84 2.64 9.59
6/3/2022 9:30:00 AM 15.06 59.108 0.076 6.83 2.82 9.54
6/3/2022 9:45:00 AM 15.26 59.468 0.076 6.85 2.7 9.56
6/3/2022 10:00:00 AM 15.52 59.936 0.076 6.85 2.68 9.52
6/3/2022 10:15:00 AM 15.78 60.404 0.076 6.85 2.61 9.49
6/3/2022 10:30:00 AM 16.02 60.836 0.076 6.85 2.63 9.44
6/3/2022 10:45:00 AM 16.26 61.268 0.076 6.86 2.72 9.43
6/3/2022 11:00:00 AM 16.49 61.682 0.076 6.86 2.61 9.39
6/3/2022 11:15:00 AM 16.71 62.078 0.076 6.87 2.7 9.36
6/3/2022 11:30:00 AM 16.9 62.42 0.076 6.87 2.67 9.32
6/3/2022 11:45:00 AM 17.13 62.834 0.076 6.86 2.65 9.25
6/3/2022 12:00:00 PM 17.31 63.158 0.076 6.85 2.69 9.19
6/3/2022 12:15:00 PM 17.44 63.392 0.076 6.85 2.63 9.16
6/3/2022 12:30:00 PM 17.38 63.284 0.076 6.85 2.64 9.13
6/3/2022 12:45:00 PM 17.49 63.482 0.076 6.85 2.59 9.11
6/3/2022 1:00:00 PM 17.59 63.662 0.076 6.85 2.55 9.07
6/3/2022 1:15:00 PM 17.93 64.274 0.076 6.85 2.5 9.05
6/3/2022 1:30:00 PM 18.08 64.544 0.076 6.85 2.73 9.01
6/3/2022 1:45:00 PM 18.47 65.246 0.076 6.87 2.61 9
6/3/2022 2:00:00 PM 18.54 65.372 0.076 6.87 2.54 9
6/3/2022 2:15:00 PM 18.72 65.696 0.076 6.86 2.53 8.96
6/3/2022 2:30:00 PM 18.68 65.624 0.076 6.86 2.5 8.92
6/3/2022 2:45:00 PM 18.53 65.354 0.076 6.87 2.5 8.94
6/3/2022 3:00:00 PM 18.71 65.67799 0.076 6.87 2.49 8.93
6/3/2022 3:15:00 PM 18.87 65.966 0.076 6.87 2.47 8.9
6/3/2022 3:30:00 PM 18.78 65.804 0.076 6.87 2.48 8.88
6/3/2022 3:45:00 PM 18.71 65.67799 0.076 6.87 2.49 8.87
6/3/2022 4:00:00 PM 18.73 65.714 0.076 6.87 2.63 8.87
6/3/2022 4:15:00 PM 18.58 65.444 0.076 6.86 2.72 8.85
6/3/2022 4:30:00 PM 18.38 65.084 0.076 6.87 2.75 8.86
6/3/2022 4:45:00 PM 18.27 64.886 0.076 6.86 2.57 8.86
6/3/2022 5:00:00 PM 18.29 64.922 0.076 6.86 2.65 8.9
6/3/2022 5:15:00 PM 18.2 64.76 0.076 6.85 2.56 8.88
6/3/2022 5:30:00 PM 18.14 64.652 0.077 6.84 2.57 8.86
6/3/2022 5:45:00 PM 18.03 64.454 0.076 6.86 2.59 8.89
6/3/2022 6:00:00 PM 18 64.4 0.076 6.86 2.57 8.91
6/3/2022 6:15:00 PM 17.88 64.184 0.076 6.85 2.57 8.89
6/3/2022 6:30:00 PM 17.71 63.878 0.077 6.84 2.47 8.88
6/3/2022 6:45:00 PM 17.61 63.698 0.077 6.84 2.6 8.89
6/3/2022 7:00:00 PM 17.54 63.572 0.077 6.82 2.58 8.84
6/3/2022 7:15:00 PM 17.46 63.428 0.077 6.8 5.36 8.81
6/3/2022 7:30:00 PM 17.38 63.284 0.077 6.79 3.07 8.79
6/3/2022 7:45:00 PM 17.29 63.122 0.077 6.78 2.81 8.78
6/3/2022 8:00:00 PM 17.18 62.924 0.077 6.78 2.6 8.78
6/3/2022 8:15:00 PM 17.07 62.726 0.077 6.77 2.61 8.78
6/3/2022 8:30:00 PM 16.96 62.528 0.077 6.78 2.54 8.79
6/3/2022 8:45:00 PM 16.84 62.312 0.077 6.77 2.6 8.8
6/3/2022 9:00:00 PM 16.73 62.114 0.077 6.75 2.58 8.77
6/3/2022 9:15:00 PM 16.63 61.934 0.077 6.74 2.55 8.74
6/3/2022 9:30:00 PM 16.51 61.718 0.077 6.75 2.53 8.78
6/3/2022 9:45:00 PM 16.42 61.556 0.077 6.73 2.51 8.77
6/3/2022 10:00:00 PM 16.31 61.358 0.077 6.74 2.6 8.81
6/3/2022 10:15:00 PM 16.21 61.178 0.077 6.73 2.54 8.84
6/3/2022 10:30:00 PM 16.09 60.962 0.077 6.74 2.57 8.86
6/3/2022 10:45:00 PM 15.98 60.764 0.077 6.74 2.56 8.89
6/3/2022 11:00:00 PM 15.85 60.53 0.077 6.75 2.56 8.93
6/3/2022 11:15:00 PM 15.74 60.332 0.077 6.75 2.6 8.97
6/3/2022 11:30:00 PM 15.64 60.152 0.077 6.74 2.59 8.98
6/3/2022 11:45:00 PM 15.53 59.954 0.077 6.74 61.7 9
6/4/2022 12:00:00 AM 15.42 59.756 0.077 6.75 47.02 9.03
6/4/2022 12:15:00 AM 15.32 59.576 0.077 6.75 9.77 9.08
6/4/2022 12:30:00 AM 15.21 59.378 0.077 6.75 4.27 9.11
6/4/2022 12:45:00 AM 15.12 59.216 0.078 6.74 3.5 9.1
6/4/2022 1:00:00 AM 15.01 59.018 0.077 6.75 3.28 9.16
6/4/2022 1:15:00 AM 14.93 58.874 0.077 6.75 3.38 9.18
6/4/2022 1:30:00 AM 14.83 58.694 0.077 6.76 3.33 9.22
6/4/2022 1:45:00 AM 14.75 58.55 0.077 6.75 3.27 9.23
6/4/2022 2:00:00 AM 14.67 58.406 0.077 6.75 3.27 9.25
6/4/2022 2:15:00 AM 14.59 58.262 0.077 6.75 3.22 9.26
6/4/2022 2:30:00 AM 14.5 58.1 0.077 6.75 3.25 9.28
6/4/2022 2:45:00 AM 14.41 57.938 0.077 6.76 3.22 9.32
6/4/2022 3:00:00 AM 14.34 57.812 0.077 6.76 3.32 9.33
6/4/2022 3:15:00 AM 14.26 57.668 0.077 6.76 44.93 9.36
6/4/2022 3:30:00 AM 14.18 57.524 0.077 6.76 9.12 9.38
6/4/2022 3:45:00 AM 14.11 57.398 0.077 6.76 3.95 9.39
6/4/2022 4:00:00 AM 14.04 57.272 0.077 6.75 3.27 9.42
6/4/2022 4:15:00 AM 13.96 57.128 0.077 6.76 2.95 9.45
6/4/2022 4:30:00 AM 13.99 57.182 0.077 6.76 2.98 9.42
6/4/2022 4:45:00 AM 13.93 57.074 0.077 6.76 2.93 9.45
6/4/2022 5:00:00 AM 13.86 56.948 0.077 6.76 2.89 9.45
6/4/2022 5:15:00 AM 13.79 56.822 0.077 6.76 3.35 9.47
6/4/2022 5:30:00 AM 13.7 56.66 0.077 6.77 3.32 9.52
6/4/2022 5:45:00 AM 13.64 56.552 0.077 6.77 3.34 9.53
6/4/2022 6:00:00 AM 13.6 56.48 0.077 6.76 3.19 9.52
6/4/2022 6:15:00 AM 13.53 56.354 0.077 6.77 3.19 9.54
6/4/2022 6:30:00 AM 13.45 56.21 0.077 6.78 3.17 9.61
6/4/2022 6:45:00 AM 13.43 56.174 0.077 6.78 3.14 9.64
6/4/2022 7:00:00 AM 13.4 56.12 0.077 6.78 3.03 9.64
6/4/2022 7:15:00 AM 13.36 56.048 0.077 6.79 3.01 9.69
6/4/2022 7:30:00 AM 13.36 56.048 0.077 6.79 2.96 9.72
6/4/2022 7:45:00 AM 13.36 56.048 0.076 6.8 2.99 9.79
6/4/2022 8:00:00 AM 13.38 56.084 0.076 6.82 3.02 9.83
6/4/2022 8:15:00 AM 13.39 56.102 0.076 6.8 3.08 9.81
6/4/2022 8:30:00 AM 13.45 56.21 0.076 6.81 2.98 9.82
6/4/2022 8:45:00 AM 13.56 56.408 0.076 6.8 2.97 9.8
6/4/2022 9:00:00 AM 13.68 56.624 0.076 6.81 3.04 9.79
6/4/2022 9:15:00 AM 13.84 56.912 0.076 6.81 2.97 9.76
6/4/2022 9:30:00 AM 14.01 57.218 0.076 6.82 2.99 9.77
6/4/2022 9:45:00 AM 14.25 57.65 0.076 6.83 2.94 9.76
6/4/2022 10:00:00 AM 14.48 58.064 0.076 6.85 2.91 9.76
6/4/2022 10:15:00 AM 14.75 58.55 0.076 6.84 2.93 9.72
6/4/2022 10:30:00 AM 14.99 58.982 0.076 6.84 3.07 9.68
6/4/2022 10:45:00 AM 15.24 59.432 0.076 6.86 3.03 9.66
6/4/2022 11:00:00 AM 15.45 59.81 0.076 6.86 3.17 9.63
6/4/2022 11:15:00 AM 15.68 60.224 0.076 6.87 3.07 9.61
6/4/2022 11:30:00 AM 15.9 60.62 0.076 6.86 2.99 9.54
6/4/2022 11:45:00 AM 16.11 60.998 0.076 6.85 2.94 9.48
6/4/2022 12:00:00 PM 16.32 61.376 0.076 6.84 2.86 9.4
6/4/2022 12:15:00 PM 16.53 61.754 0.076 6.84 2.82 9.35
6/4/2022 12:30:00 PM 16.75 62.15 0.076 6.83 2.82 9.3
6/4/2022 12:45:00 PM 16.98 62.564 0.076 6.81 2.9 9.2
6/4/2022 1:00:00 PM 17.16 62.888 0.076 6.81 2.95 9.14
6/4/2022 1:15:00 PM 17.37 63.266 0.076 6.83 2.92 9.14
6/4/2022 1:30:00 PM 17.58 63.644 0.076 6.84 3.02 9.11
6/4/2022 1:45:00 PM 17.74 63.932 0.076 6.84 3.01 9.09
6/4/2022 2:00:00 PM 17.92 64.256 0.076 6.84 2.9 9.05
6/4/2022 2:15:00 PM 18.04 64.472 0.076 6.85 2.95 9.02
6/4/2022 2:30:00 PM 18.1 64.58 0.076 6.84 2.92 8.98
6/4/2022 2:45:00 PM 18.18 64.724 0.076 6.85 3.38 8.98
6/4/2022 3:00:00 PM 18.21 64.778 0.076 6.85 3.08 8.97
6/4/2022 3:15:00 PM 18.2 64.76 0.076 6.84 3.89 8.95
6/4/2022 3:30:00 PM 18.18 64.724 0.076 6.86 4.65 8.96
6/4/2022 3:45:00 PM 18.14 64.652 0.076 6.85 4.54 8.95
6/4/2022 4:00:00 PM 18.09 64.562 0.076 6.86 4.3 8.94
6/4/2022 4:15:00 PM 18.02 64.436 0.076 6.87 4.56 8.98
6/4/2022 4:30:00 PM 17.91 64.238 0.076 6.88 4.37 8.99
6/4/2022 4:45:00 PM 17.83 64.094 0.076 6.85 4.39 8.96
6/4/2022 5:00:00 PM 17.73 63.914 0.076 6.86 4.96 8.99
6/4/2022 5:15:00 PM 17.62 63.716 0.076 6.86 4.91 9.03
6/4/2022 5:30:00 PM 17.49 63.482 0.076 6.85 5.97 9.02
6/4/2022 5:45:00 PM 17.36 63.248 0.077 6.84 5.93 9
6/4/2022 6:00:00 PM 17.25 63.05 0.077 6.84 5.58 9
6/4/2022 6:15:00 PM 17.09 62.762 0.077 6.83 5.37 9.01
6/4/2022 6:30:00 PM 16.91 62.438 0.077 6.82 5.34 9
6/4/2022 6:45:00 PM 16.77 62.186 0.077 6.83 4.76 9.01
6/4/2022 7:00:00 PM 16.65 61.97 0.077 6.81 4.02 8.98
6/4/2022 7:15:00 PM 16.57 61.826 0.077 6.8 3.87 8.97
6/4/2022 7:30:00 PM 16.47 61.646 0.077 6.8 3.84 8.98
6/4/2022 7:45:00 PM 16.37 61.466 0.077 6.78 3.84 8.96
6/4/2022 8:00:00 PM 16.27 61.286 0.077 6.77 3.82 8.93
6/4/2022 8:15:00 PM 16.13 61.034 0.077 6.77 3.24 8.96
6/4/2022 8:30:00 PM 16 60.8 0.077 6.77 3.17 8.98
6/4/2022 8:45:00 PM 15.9 60.62 0.077 6.75 3.32 8.92
6/4/2022 9:00:00 PM 15.78 60.404 0.077 6.75 3.25 8.95
6/4/2022 9:15:00 PM 15.66 60.188 0.077 6.74 3.34 8.92
6/4/2022 9:30:00 PM 15.55 59.99 0.077 6.73 3.27 8.92
6/4/2022 9:45:00 PM 15.43 59.774 0.077 6.74 3.2 8.96
6/4/2022 10:00:00 PM 15.31 59.558 0.077 6.73 3.36 8.97
6/4/2022 10:15:00 PM 15.17 59.306 0.077 6.74 3.2 9.05
6/4/2022 10:30:00 PM 15.05 59.09 0.077 6.75 3.32 9.09
6/4/2022 10:45:00 PM 14.93 58.874 0.077 6.74 3.4 9.07
6/4/2022 11:00:00 PM 14.82 58.676 0.078 6.74 3.35 9.11
6/4/2022 11:15:00 PM 14.72 58.496 0.078 6.75 3.31 9.15
6/4/2022 11:30:00 PM 14.6 58.28 0.077 6.75 3.52 9.19
6/4/2022 11:45:00 PM 14.48 58.064 0.077 6.76 3.3 9.26
6/5/2022 12:00:00 AM 14.4 57.92 0.077 6.75 3.31 9.27
6/5/2022 12:15:00 AM 14.3 57.74 0.077 6.76 3.27 9.3
6/5/2022 12:30:00 AM 14.21 57.578 0.077 6.76 3.27 9.33
6/5/2022 12:45:00 AM 14.15 57.47 0.077 6.75 3.25 9.34
6/5/2022 1:00:00 AM 14.04 57.272 0.077 6.77 3.34 9.4
6/5/2022 1:15:00 AM 13.95 57.11 0.077 6.76 3.29 9.39
6/5/2022 1:30:00 AM 13.88 56.984 0.077 6.76 3.18 9.41
6/5/2022 1:45:00 AM 13.77 56.786 0.077 6.76 3.19 9.43
6/5/2022 2:00:00 AM 13.67 56.606 0.077 6.76 3.22 9.45
6/5/2022 2:15:00 AM 13.57 56.426 0.077 6.76 3.24 9.49
6/5/2022 2:30:00 AM 13.5 56.3 0.077 6.76 3.26 9.5
6/5/2022 2:45:00 AM 13.39 56.102 0.077 6.76 3.24 9.54
6/5/2022 3:00:00 AM 13.3 55.94 0.077 6.76 3.18 9.56
6/5/2022 3:15:00 AM 13.21 55.778 0.077 6.77 3.26 9.6
6/5/2022 3:30:00 AM 13.13 55.634 0.077 6.77 3.18 9.63
6/5/2022 3:45:00 AM 13.06 55.508 0.077 6.76 3.17 9.63
6/5/2022 4:00:00 AM 12.97 55.346 0.077 6.77 3.18 9.67
6/5/2022 4:15:00 AM 12.89 55.202 0.077 6.76 3.25 9.68
6/5/2022 4:30:00 AM 12.82 55.076 0.077 6.77 3.21 9.7
6/5/2022 4:45:00 AM 12.73 54.914 0.077 6.78 3.21 9.73
6/5/2022 5:00:00 AM 12.66 54.788 0.077 6.77 3.27 9.74
6/5/2022 5:15:00 AM 12.57 54.626 0.077 6.78 3.6 9.8
6/5/2022 5:30:00 AM 12.56 54.608 0.077 6.76 3.28 9.74
6/5/2022 5:45:00 AM 12.47 54.446 0.077 6.77 3.19 9.81
6/5/2022 6:00:00 AM 12.43 54.374 0.077 6.77 3.17 9.81
6/5/2022 6:15:00 AM 12.36 54.248 0.077 6.78 3.22 9.85
6/5/2022 6:30:00 AM 12.3 54.14 0.077 6.78 3.15 9.9
6/5/2022 6:45:00 AM 12.27 54.086 0.077 6.79 3.13 9.92
6/5/2022 7:00:00 AM 12.26 54.068 0.077 6.78 3.15 9.93
6/5/2022 7:15:00 AM 12.22 53.996 0.076 6.81 3.16 10.03
6/5/2022 7:30:00 AM 12.24 54.032 0.076 6.81 3.16 10.07
6/5/2022 7:45:00 AM 12.29 54.122 0.076 6.8 3.11 10.04
6/5/2022 8:00:00 AM 12.32 54.176 0.076 6.81 3.17 10.07
6/5/2022 8:15:00 AM 12.33 54.194 0.076 6.83 3.14 10.11
6/5/2022 8:30:00 AM 12.39 54.302 0.076 6.83 3.15 10.12
6/5/2022 8:45:00 AM 12.52 54.536 0.076 6.83 3.1 10.1
6/5/2022 9:00:00 AM 12.63 54.734 0.076 6.82 3.14 10.05
6/5/2022 9:15:00 AM 12.68 54.824 0.076 6.83 3.09 10.09
6/5/2022 9:30:00 AM 12.83 55.094 0.076 6.83 3.06 10.09
6/5/2022 9:45:00 AM 13 55.4 0.076 6.83 3.2 10.06
6/5/2022 10:00:00 AM 13.18 55.724 0.076 6.83 3.12 10.02
6/5/2022 10:15:00 AM 13.34 56.012 0.076 6.84 3.1 10.02
6/5/2022 10:30:00 AM 13.53 56.354 0.076 6.85 3.1 10.04
6/5/2022 10:45:00 AM 13.72 56.696 0.076 6.86 3.06 10.01
6/5/2022 11:00:00 AM 13.91 57.038 0.076 6.85 3.15 9.96
6/5/2022 11:15:00 AM 14.07 57.326 0.076 6.85 3.08 9.94
6/5/2022 11:30:00 AM 14.2 57.56 0.076 6.86 3.22 9.9
6/5/2022 11:45:00 AM 14.44 57.992 0.076 6.86 3.09 9.85
6/5/2022 12:00:00 PM 14.73 58.514 0.076 6.86 3.15 9.83
6/5/2022 12:15:00 PM 14.82 58.676 0.076 6.85 3.08 9.75
6/5/2022 12:30:00 PM 15.03 59.054 0.076 6.85 3.09 9.71
6/5/2022 12:45:00 PM 15.24 59.432 0.076 6.85 3.06 9.66
6/5/2022 1:00:00 PM 15.5 59.9 0.076 6.84 3.02 9.6
6/5/2022 1:15:00 PM 15.75 60.35 0.076 6.83 3 9.54
6/5/2022 1:30:00 PM 15.88 60.584 0.076 6.85 2.97 9.53
6/5/2022 1:45:00 PM 15.75 60.35 0.076 6.84 2.96 9.5
6/5/2022 2:00:00 PM 16.09 60.962 0.076 6.86 2.98 9.49
6/5/2022 2:15:00 PM 16.26 61.268 0.076 6.84 2.96 9.4
6/5/2022 2:30:00 PM 16.22 61.196 0.076 6.84 3.06 9.39
6/5/2022 2:45:00 PM 16.31 61.358 0.076 6.84 3.01 9.36
6/5/2022 3:00:00 PM 16.53 61.754 0.076 6.83 2.96 9.28
6/5/2022 3:15:00 PM 16.69 62.042 0.076 6.85 3.04 9.31
6/5/2022 3:30:00 PM 16.75 62.15 0.076 6.86 3.03 9.28
6/5/2022 3:45:00 PM 16.78 62.204 0.076 6.86 2.97 9.27
6/5/2022 4:00:00 PM 16.75 62.15 0.076 6.86 2.96 9.26
6/5/2022 4:15:00 PM 16.69 62.042 0.076 6.87 2.95 9.29
6/5/2022 4:30:00 PM 16.59 61.862 0.076 6.86 3.09 9.27
6/5/2022 4:45:00 PM 16.55 61.79 0.076 6.86 2.97 9.29
6/5/2022 5:00:00 PM 16.49 61.682 0.076 6.84 2.95 9.25
6/5/2022 5:15:00 PM 16.47 61.646 0.076 6.84 2.95 9.27
6/5/2022 5:30:00 PM 16.51 61.718 0.076 6.83 2.95 9.25
6/5/2022 5:45:00 PM 16.46 61.628 0.076 6.82 2.93 9.2
6/5/2022 6:00:00 PM 16.37 61.466 0.076 6.82 2.91 9.2
6/5/2022 6:15:00 PM 16.34 61.412 0.076 6.82 2.93 9.19
6/5/2022 6:30:00 PM 16.2 61.16 0.076 6.81 2.95 9.19
6/5/2022 6:45:00 PM 16.12 61.016 0.076 6.81 2.94 9.17
6/5/2022 7:00:00 PM 16.05 60.89 0.076 6.81 2.94 9.17
6/5/2022 7:15:00 PM 16 60.8 0.076 6.81 2.97 9.18
6/5/2022 7:30:00 PM 15.95 60.71 0.076 6.81 2.97 9.16
6/5/2022 7:45:00 PM 15.9 60.62 0.076 6.79 2.97 9.13
6/5/2022 8:00:00 PM 15.84 60.512 0.076 6.78 3.03 9.09
6/5/2022 8:15:00 PM 15.77 60.386 0.076 6.78 3.33 9.1
6/5/2022 8:30:00 PM 15.7 60.26 0.076 6.78 3.12 9.1
6/5/2022 8:45:00 PM 15.63 60.134 0.077 6.77 3.05 9.07
6/5/2022 9:00:00 PM 15.55 59.99 0.077 6.76 3.15 9.08
6/5/2022 9:15:00 PM 15.48 59.864 0.077 6.76 3.04 9.06
6/5/2022 9:30:00 PM 15.4 59.72 0.077 6.75 3.03 9.06
6/5/2022 9:45:00 PM 15.31 59.558 0.077 6.75 3.02 9.07
6/5/2022 10:00:00 PM 15.23 59.414 0.077 6.75 3.09 9.07
6/5/2022 10:15:00 PM 15.15 59.27 0.077 6.74 3.15 9.05
6/5/2022 10:30:00 PM 15.05 59.09 0.077 6.74 3.12 9.09
6/5/2022 10:45:00 PM 14.96 58.928 0.077 6.74 3.13 9.11
6/5/2022 11:00:00 PM 14.88 58.784 0.077 6.73 3.18 9.1
6/5/2022 11:15:00 PM 14.8 58.64 0.077 6.73 3.14 9.11
6/5/2022 11:30:00 PM 14.71 58.478 0.077 6.73 3.14 9.11
6/5/2022 11:45:00 PM 14.61 58.298 0.077 6.73 3.14 9.14
6/6/2022 12:00:00 AM 14.55 58.19 0.077 6.73 3.17 9.16
6/6/2022 12:15:00 AM 14.44 57.992 0.077 6.75 3.17 9.21
6/6/2022 12:30:00 AM 14.35 57.83 0.077 6.74 3.16 9.23
6/6/2022 12:45:00 AM 14.26 57.668 0.077 6.75 3.27 9.26
6/6/2022 1:00:00 AM 14.17 57.506 0.077 6.76 3.22 9.35
6/6/2022 1:15:00 AM 14.13 57.434 0.077 6.74 3.26 9.3
6/6/2022 1:30:00 AM 14.04 57.272 0.077 6.74 3.17 9.32
6/6/2022 1:45:00 AM 13.93 57.074 0.077 6.76 3.05 9.42
6/6/2022 2:00:00 AM 13.86 56.948 0.077 6.75 3.02 9.38
6/6/2022 2:15:00 AM 13.8 56.84 0.077 6.75 2.97 9.37
6/6/2022 2:30:00 AM 13.68 56.624 0.077 6.77 3 9.49
6/6/2022 2:45:00 AM 13.65 56.57 0.077 6.75 2.96 9.43
6/6/2022 3:00:00 AM 13.6 56.48 0.077 6.74 3.03 9.41
6/6/2022 3:15:00 AM 13.5 56.3 0.077 6.75 3.06 9.45
6/6/2022 3:30:00 AM 13.44 56.192 0.077 6.75 3.2 9.47
6/6/2022 3:45:00 AM 13.33 55.994 0.077 6.76 3.06 9.53
6/6/2022 4:00:00 AM 13.26 55.868 0.077 6.76 2.99 9.54
6/6/2022 4:15:00 AM 13.17 55.706 0.077 6.77 2.99 9.62
6/6/2022 4:30:00 AM 13.14 55.652 0.077 6.75 3.07 9.57
6/6/2022 4:45:00 AM 13.07 55.526 0.077 6.75 3.01 9.58
6/6/2022 5:00:00 AM 12.98 55.364 0.077 6.76 3.06 9.62
6/6/2022 5:15:00 AM 12.89 55.202 0.077 6.77 3.13 9.68
6/6/2022 5:30:00 AM 12.84 55.112 0.077 6.76 3.07 9.65
6/6/2022 5:45:00 AM 12.8 55.04 0.077 6.75 6 9.66
6/6/2022 6:00:00 AM 12.72 54.896 0.077 6.75 7.09 9.68
6/6/2022 6:15:00 AM 12.64 54.752 0.077 6.78 6.99 9.77
6/6/2022 6:30:00 AM 12.63 54.734 0.077 6.77 6.96 9.74
6/6/2022 6:45:00 AM 12.57 54.626 0.077 6.77 6.93 9.79
6/6/2022 7:00:00 AM 12.56 54.608 0.077 6.77 6.9 9.8
6/6/2022 7:15:00 AM 12.53 54.554 0.077 6.78 6.89 9.85
6/6/2022 7:30:00 AM 12.53 54.554 0.077 6.79 6.93 9.88
6/6/2022 7:45:00 AM 12.55 54.59 0.077 6.8 6.9 9.92
6/6/2022 8:00:00 AM 12.6 54.68 0.076 6.8 6.92 9.96
6/6/2022 8:15:00 AM 12.65 54.77 0.076 6.81 6.92 9.97
6/6/2022 8:30:00 AM 12.72 54.896 0.076 6.82 7.15 9.97
6/6/2022 8:45:00 AM 12.83 55.094 0.076 6.82 6.95 10
6/6/2022 9:00:00 AM 12.96 55.328 0.076 6.82 6.91 9.98
6/6/2022 9:15:00 AM 13.04 55.472 0.076 6.82 6.74 9.95
6/6/2022 9:30:00 AM 13.22 55.796 0.076 6.82 6.64 9.93
6/6/2022 9:45:00 AM 13.46 56.228 0.076 6.82 6.69 9.91
6/6/2022 10:00:00 AM 13.7 56.66 0.076 6.83 6.64 9.9
6/6/2022 10:15:00 AM 13.93 57.074 0.076 6.83 6.79 9.84
6/6/2022 10:30:00 AM 14.26 57.668 0.076 6.83 6.68 9.81
6/6/2022 10:45:00 AM 14.57 58.226 0.076 6.84 6.6 9.77
6/6/2022 11:00:00 AM 14.86 58.748 0.076 6.83 6.51 9.71
6/6/2022 11:15:00 AM 15.16 59.288 0.076 6.83 6.49 9.65
6/6/2022 11:30:00 AM 15.46 59.828 0.076 6.84 6.44 9.61
6/6/2022 11:45:00 AM 15.7 60.26 0.076 6.82 6.52 9.53
6/6/2022 12:00:00 PM 15.88 60.584 0.077 6.81 8.87 9.42
6/6/2022 12:15:00 PM 16.16 61.088 0.076 6.82 5.4 9.42
6/6/2022 12:30:00 PM 16.09 60.962 0.076 6.82 4.02 9.38
6/6/2022 12:45:00 PM 16.34 61.412 0.076 6.83 7.08 9.37
6/6/2022 1:00:00 PM 16.6 61.88 0.076 6.83 4.94 9.31
6/6/2022 1:15:00 PM 16.68 62.024 0.076 6.84 6.41 9.29
6/6/2022 1:30:00 PM 16.64 61.952 0.076 6.83 4.52 9.26
6/6/2022 1:45:00 PM 16.63 61.934 0.076 6.83 6.09 9.23
6/6/2022 2:00:00 PM 16.87 62.366 0.076 6.85 4.65 9.23
6/6/2022 2:15:00 PM 16.93 62.474 0.076 6.84 9.1 9.18
6/6/2022 2:30:00 PM 17.04 62.672 0.076 6.83 9.01 9.14
6/6/2022 2:45:00 PM 17.38 63.284 0.076 6.82 4.42 9.07
6/6/2022 3:00:00 PM 17.39 63.302 0.076 6.83 3.81 9.07
6/6/2022 3:15:00 PM 17.36 63.248 0.076 6.85 3.69 9.07
6/6/2022 3:30:00 PM 17.51 63.518 0.076 6.85 5.12 9.07
6/6/2022 3:45:00 PM 17.56 63.608 0.076 6.83 4.18 9.03
6/6/2022 4:00:00 PM 17.65 63.77 0.076 6.84 3.32 9.02
6/6/2022 4:15:00 PM 17.53 63.554 0.076 6.83 3.29 9.04
6/6/2022 4:30:00 PM 17.58 63.644 0.076 6.84 3.55 9.01
6/6/2022 4:45:00 PM 17.61 63.698 0.076 6.85 3.31 9.03
6/6/2022 5:00:00 PM 17.55 63.59 0.077 6.84 3.35 9.01
6/6/2022 5:15:00 PM 17.47 63.446 0.076 6.83 3.47 9
6/6/2022 5:30:00 PM 17.39 63.302 0.077 6.83 5.24 9
6/6/2022 5:45:00 PM 17.31 63.158 0.076 6.83 4.84 8.97
6/6/2022 6:00:00 PM 17.23 63.014 0.077 6.81 3.68 8.94
6/6/2022 6:15:00 PM 17.22 62.996 0.077 6.82 3.72 8.95
6/6/2022 6:30:00 PM 17.16 62.888 0.077 6.81 5.58 8.91
6/6/2022 6:45:00 PM 17.12 62.816 0.077 6.82 4.46 8.93
6/6/2022 7:00:00 PM 17.06 62.708 0.077 6.81 4.09 8.89
6/6/2022 7:15:00 PM 16.97 62.546 0.077 6.8 4.49 8.88
6/6/2022 7:30:00 PM 16.9 62.42 0.077 6.8 4.74 8.85
6/6/2022 7:45:00 PM 16.85 62.33 0.077 6.79 4.06 8.83
6/6/2022 8:00:00 PM 16.79 62.222 0.077 6.78 3.74 8.81
6/6/2022 8:15:00 PM 16.73 62.114 0.077 6.79 3.92 8.82
6/6/2022 8:30:00 PM 16.68 62.024 0.077 6.79 4.9 8.83
6/6/2022 8:45:00 PM 16.59 61.862 0.077 6.79 5.03 8.82
6/6/2022 9:00:00 PM 16.53 61.754 0.077 6.78 5.32 8.81
6/6/2022 9:15:00 PM 16.48 61.664 0.077 6.76 4.28 8.77
6/6/2022 9:30:00 PM 16.41 61.538 0.077 6.76 4.65 8.78
6/6/2022 9:45:00 PM 16.36 61.448 0.077 6.76 4.59 8.79
6/6/2022 10:00:00 PM 16.29 61.322 0.077 6.77 4.46 8.84
6/6/2022 10:15:00 PM 16.24 61.232 0.077 6.77 4.15 8.84
6/6/2022 10:30:00 PM 16.2 61.16 0.077 6.76 33.08 8.83
6/6/2022 10:45:00 PM 16.14 61.052 0.077 6.77 7.43 8.87
6/6/2022 11:00:00 PM 16.08 60.944 0.077 6.76 3.71 8.86
6/6/2022 11:15:00 PM 16.04 60.872 0.077 6.77 3.24 8.87
6/6/2022 11:30:00 PM 16.02 60.836 0.077 6.75 3.19 8.85
6/6/2022 11:45:00 PM 15.96 60.728 0.077 6.75 3.34 8.85
6/7/2022 12:00:00 AM 15.94 60.692 0.078 6.73 3.22 8.78
6/7/2022 12:15:00 AM 15.89 60.602 0.078 6.72 3.38 8.79
6/7/2022 12:30:00 AM 15.84 60.512 0.078 6.73 3.22 8.82
6/7/2022 12:45:00 AM 15.8 60.44 0.078 6.72 3.24 8.81
6/7/2022 1:00:00 AM 15.74 60.332 0.078 6.74 3.24 8.88
6/7/2022 1:15:00 AM 15.72 60.296 0.078 6.72 3.16 8.85
6/7/2022 1:30:00 AM 15.67 60.206 0.078 6.73 3.21 8.84
6/7/2022 1:45:00 AM 15.63 60.134 0.078 6.72 3.17 8.85
6/7/2022 2:00:00 AM 15.59 60.062 0.078 6.73 3.16 8.89
6/7/2022 2:15:00 AM 15.56 60.008 0.078 6.73 3.17 8.9
6/7/2022 2:30:00 AM 15.51 59.918 0.078 6.73 3.27 8.91
6/7/2022 2:45:00 AM 15.46 59.828 0.078 6.74 3.17 8.94
6/7/2022 3:00:00 AM 15.44 59.792 0.078 6.73 3.1 8.92
6/7/2022 3:15:00 AM 15.39 59.702 0.078 6.73 3.93 8.94
6/7/2022 3:30:00 AM 15.35 59.63 0.078 6.74 3.44 8.97
6/7/2022 3:45:00 AM 15.32 59.576 0.077 6.74 3.36 8.99
6/7/2022 4:00:00 AM 15.32 59.576 0.078 6.74 3.42 8.98
6/7/2022 4:15:00 AM 15.3 59.54 0.078 6.72 3.23 8.93
6/7/2022 4:30:00 AM 15.27 59.486 0.078 6.72 4.79 8.95
6/7/2022 4:45:00 AM 15.23 59.414 0.078 6.72 4.7 8.95
6/7/2022 5:00:00 AM 15.2 59.36 0.078 6.73 4.48 9
6/7/2022 5:15:00 AM 15.16 59.288 0.077 6.75 4.42 9.05
6/7/2022 5:30:00 AM 15.12 59.216 0.077 6.75 7.49 9.04
6/7/2022 5:45:00 AM 15.09 59.162 0.077 6.75 8.89 9.06
6/7/2022 6:00:00 AM 15.07 59.126 0.077 6.75 10.55 9.06
6/7/2022 6:15:00 AM 15.06 59.108 0.077 6.75 9.79 9.05
6/7/2022 6:30:00 AM 15.07 59.126 0.078 6.73 7.41 8.99
6/7/2022 6:45:00 AM 15.04 59.072 0.077 6.75 6.95 9.07
6/7/2022 7:00:00 AM 15.04 59.072 0.077 6.75 6.71 9.1
6/7/2022 7:15:00 AM 15.05 59.09 0.077 6.75 6.4 9.08
6/7/2022 7:30:00 AM 15.03 59.054 0.077 6.77 6.73 9.14
6/7/2022 7:45:00 AM 15.03 59.054 0.077 6.75 6.83 9.1
6/7/2022 8:00:00 AM 15.02 59.036 0.077 6.77 8.86 9.15
6/7/2022 8:15:00 AM 15.02 59.036 0.077 6.76 8.84 9.14
6/7/2022 8:30:00 AM 15.01 59.018 0.077 6.77 9.65 9.17
6/7/2022 8:45:00 AM 15.01 59.018 0.077 6.76 9.15 9.13
6/7/2022 9:00:00 AM 15.04 59.072 0.077 6.74 8.63 9.06
6/7/2022 9:15:00 AM 15.03 59.054 0.077 6.74 9.02 9.05
6/7/2022 9:30:00 AM 15.02 59.036 0.077 6.77 12.53 9.19
6/7/2022 9:45:00 AM 15.03 59.054 0.077 6.78 9.66 9.24
6/7/2022 10:00:00 AM 15.11 59.198 0.077 6.79 9.12 9.3
6/7/2022 10:15:00 AM 15.17 59.306 0.077 6.79 9.03 9.27
6/7/2022 10:30:00 AM 15.19 59.342 0.077 6.79 8.7 9.28
6/7/2022 10:45:00 AM 15.18 59.324 0.077 6.8 8.34 9.28
6/7/2022 11:00:00 AM 15.17 59.306 0.077 6.78 8.8 9.19
6/7/2022 11:15:00 AM 15.14 59.252 0.076 6.78 8.91 9.17
6/7/2022 11:30:00 AM 15.1 59.18 0.076 6.8 9.43 9.25
6/7/2022 11:45:00 AM 15.08 59.144 0.075 6.81 9.37 9.27
6/7/2022 12:00:00 PM 15.08 59.144 0.075 6.81 10.07 9.32
6/7/2022 12:15:00 PM 15.09 59.162 0.074 6.83 10.14 9.37
6/7/2022 12:30:00 PM 15.09 59.162 0.074 6.83 9.05 9.36
6/7/2022 12:45:00 PM 15.11 59.198 0.074 6.83 8.88 9.38
6/7/2022 1:00:00 PM 15.11 59.198 0.074 6.81 8.53 9.34
6/7/2022 1:15:00 PM 15.11 59.198 0.074 6.82 8.49 9.37
6/7/2022 1:30:00 PM 15.12 59.216 0.073 6.83 8.59 9.4
6/7/2022 1:45:00 PM 15.12 59.216 0.074 6.83 8.79 9.39
6/7/2022 2:00:00 PM 15.11 59.198 0.073 6.83 8.78 9.41
6/7/2022 2:15:00 PM 15.1 59.18 0.073 6.84 9.18 9.39
6/7/2022 2:30:00 PM 15.1 59.18 0.073 6.84 8.73 9.4
6/7/2022 2:45:00 PM 15.12 59.216 0.073 6.85 9.95 9.42
6/7/2022 3:00:00 PM 15.14 59.252 0.073 6.85 8.78 9.44
6/7/2022 3:15:00 PM 15.15 59.27 0.073 6.87 11.9 9.47
6/7/2022 3:30:00 PM 15.14 59.252 0.072 6.87 18.08 9.45
6/7/2022 3:45:00 PM 15.12 59.216 0.072 6.87 20.53 9.42
6/7/2022 4:00:00 PM 15.1 59.18 0.072 6.87 16.16 9.43
6/7/2022 4:15:00 PM 15.1 59.18 0.072 6.87 13.16 9.41
6/7/2022 4:30:00 PM 15.09 59.162 0.072 6.89 10.53 9.45
6/7/2022 4:45:00 PM 15.1 59.18 0.073 6.91 11.2 9.47
6/7/2022 5:00:00 PM 15.1 59.18 0.073 6.92 12.14 9.48
6/7/2022 5:15:00 PM 15.11 59.198 0.073 6.92 11.13 9.49
6/7/2022 5:30:00 PM 15.08 59.144 0.074 6.92 10.28 9.47
6/7/2022 5:45:00 PM 15.04 59.072 0.074 6.91 9.74 9.46
6/7/2022 6:00:00 PM 15.02 59.036 0.074 6.91 9.68 9.43
6/7/2022 6:15:00 PM 15.01 59.018 0.075 6.9 9.14 9.44
6/7/2022 6:30:00 PM 15 59 0.075 6.9 8.51 9.44
6/7/2022 6:45:00 PM 14.98 58.964 0.076 6.9 7.83 9.45
6/7/2022 7:00:00 PM 14.95 58.91 0.076 6.9 7.18 9.45
6/7/2022 7:15:00 PM 14.93 58.874 0.076 6.89 6.61 9.44
6/7/2022 7:30:00 PM 14.93 58.874 0.077 6.88 6.22 9.44
6/7/2022 7:45:00 PM 14.92 58.856 0.077 6.89 5.99 9.47
6/7/2022 8:00:00 PM 14.89 58.802 0.077 6.87 5.66 9.46
6/7/2022 8:15:00 PM 14.87 58.766 0.078 6.86 5.47 9.45
6/7/2022 8:30:00 PM 14.84 58.712 0.078 6.85 5.37 9.45
6/7/2022 8:45:00 PM 14.83 58.694 0.078 6.84 5.4 9.44
6/7/2022 9:00:00 PM 14.81 58.658 0.079 6.84 5.54 9.43
6/7/2022 9:15:00 PM 14.8 58.64 0.079 6.83 5.29 9.42
6/7/2022 9:30:00 PM 14.77 58.586 0.079 6.82 5.34 9.42
6/7/2022 9:45:00 PM 14.76 58.568 0.08 6.82 5.22 9.42
6/7/2022 10:00:00 PM 14.75 58.55 0.08 6.81 5.33 9.42
6/7/2022 10:15:00 PM 14.73 58.514 0.08 6.81 5.23 9.43
6/7/2022 10:30:00 PM 14.71 58.478 0.081 6.82 5.17 9.44
6/7/2022 10:45:00 PM 14.69 58.442 0.081 6.81 5.02 9.45
6/7/2022 11:00:00 PM 14.67 58.406 0.081 6.8 4.97 9.46
6/7/2022 11:15:00 PM 14.66 58.388 0.081 6.81 4.92 9.45
6/7/2022 11:30:00 PM 14.65 58.37 0.081 6.8 4.73 9.45
6/7/2022 11:45:00 PM 14.65 58.37 0.081 6.81 4.68 9.46
6/8/2022 12:00:00 AM 14.63 58.334 0.081 6.8 4.66 9.47
6/8/2022 12:15:00 AM 14.63 58.334 0.081 6.8 4.55 9.47
6/8/2022 12:30:00 AM 14.61 58.298 0.081 6.81 4.55 9.46
6/8/2022 12:45:00 AM 14.58 58.244 0.081 6.8 4.78 9.46
6/8/2022 1:00:00 AM 14.55 58.19 0.081 6.79 4.6 9.46
6/8/2022 1:15:00 AM 14.54 58.172 0.081 6.79 4.52 9.47
6/8/2022 1:30:00 AM 14.53 58.154 0.081 6.8 4.95 9.46
6/8/2022 1:45:00 AM 14.5 58.1 0.081 6.8 4.49 9.46
6/8/2022 2:00:00 AM 14.46 58.028 0.081 6.81 4.36 9.48
6/8/2022 2:15:00 AM 14.42 57.956 0.081 6.82 4.32 9.49
6/8/2022 2:30:00 AM 14.38 57.884 0.081 6.82 4.37 9.49
6/8/2022 2:45:00 AM 14.34 57.812 0.081 6.83 4.28 9.51
6/8/2022 3:00:00 AM 14.29 57.722 0.081 6.83 4.2 9.52
6/8/2022 3:15:00 AM 14.26 57.668 0.081 6.83 4.14 9.52
6/8/2022 3:30:00 AM 14.21 57.578 0.081 6.83 4.17 9.52
6/8/2022 3:45:00 AM 14.18 57.524 0.081 6.83 4.19 9.53
6/8/2022 4:00:00 AM 14.15 57.47 0.081 6.84 4.23 9.54
6/8/2022 4:15:00 AM 14.13 57.434 0.081 6.83 4.23 9.54
6/8/2022 4:30:00 AM 14.1 57.38 0.081 6.83 4.21 9.54
6/8/2022 4:45:00 AM 14.07 57.326 0.081 6.84 4.31 9.56
6/8/2022 5:00:00 AM 14.03 57.254 0.081 6.83 4.37 9.56
6/8/2022 5:15:00 AM 13.99 57.182 0.081 6.83 4.5 9.57
6/8/2022 5:30:00 AM 13.96 57.128 0.081 6.83 4.48 9.56
6/8/2022 5:45:00 AM 13.92 57.056 0.081 6.82 4.59 9.57
6/8/2022 6:00:00 AM 13.89 57.002 0.081 6.83 4.61 9.6
6/8/2022 6:15:00 AM 13.87 56.966 0.081 6.83 5.48 9.62
6/8/2022 6:30:00 AM 13.85 56.93 0.081 6.83 5.42 9.63
6/8/2022 6:45:00 AM 13.84 56.912 0.081 6.84 5.31 9.67
6/8/2022 7:00:00 AM 13.8 56.84 0.081 6.84 9.74 9.68
6/8/2022 7:15:00 AM 13.8 56.84 0.081 6.84 4.81 9.69
6/8/2022 7:30:00 AM 13.82 56.876 0.081 6.85 3.57 9.72
6/8/2022 7:45:00 AM 13.84 56.912 0.081 6.85 3.42 9.76
6/8/2022 8:00:00 AM 13.86 56.948 0.081 6.87 3.36 9.79
6/8/2022 8:15:00 AM 13.94 57.092 0.081 6.87 3.4 9.8
6/8/2022 8:30:00 AM 14.03 57.254 0.081 6.87 3.32 9.79
6/8/2022 8:45:00 AM 14.07 57.326 0.081 6.88 3.29 9.79
6/8/2022 9:00:00 AM 14.17 57.506 0.081 6.89 3.31 9.81
6/8/2022 9:15:00 AM 14.21 57.578 0.081 6.88 3.41 9.79
6/8/2022 9:30:00 AM 14.26 57.668 0.08 6.9 3.47 9.81
6/8/2022 9:45:00 AM 14.42 57.956 0.08 6.9 3.45 9.79
6/8/2022 10:00:00 AM 14.56 58.208 0.08 6.9 3.47 9.77
6/8/2022 10:15:00 AM 14.64 58.352 0.08 6.89 3.33 9.74
6/8/2022 10:30:00 AM 14.84 58.712 0.08 6.9 3.37 9.73
6/8/2022 10:45:00 AM 15.13 59.234 0.08 6.9 3.62 9.71
6/8/2022 11:00:00 AM 15.24 59.432 0.08 6.89 4.6 9.66
6/8/2022 11:15:00 AM 15.47 59.846 0.08 6.91 3.51 9.67
6/8/2022 11:30:00 AM 15.51 59.918 0.08 6.9 3.35 9.62
6/8/2022 11:45:00 AM 15.87 60.566 0.08 6.91 3.21 9.59
6/8/2022 12:00:00 PM 15.91 60.638 0.08 6.89 3.23 9.5
6/8/2022 12:15:00 PM 15.89 60.602 0.08 6.89 3.22 9.5
6/8/2022 12:30:00 PM 16.11 60.998 0.08 6.89 3.21 9.47
6/8/2022 12:45:00 PM 16.5 61.7 0.08 6.89 3.22 9.41
6/8/2022 1:00:00 PM 16.42 61.556 0.081 6.88 3.17 9.36
6/8/2022 1:15:00 PM 16.73 62.114 0.08 6.9 3.16 9.37
6/8/2022 1:30:00 PM 17.02 62.636 0.08 6.9 3.19 9.32
6/8/2022 1:45:00 PM 17.18 62.924 0.08 6.9 3.23 9.29
6/8/2022 2:00:00 PM 17.35 63.23 0.08 6.9 3.26 9.25
6/8/2022 2:15:00 PM 17.62 63.716 0.08 6.91 4.12 9.22
6/8/2022 2:30:00 PM 17.66 63.788 0.08 6.9 3.3 9.15
6/8/2022 2:45:00 PM 17.76 63.968 0.081 6.9 3.18 9.14
6/8/2022 3:00:00 PM 17.8 64.04 0.081 6.9 3.14 9.12
6/8/2022 3:15:00 PM 17.92 64.256 0.08 6.9 3.09 9.09
6/8/2022 3:30:00 PM 18 64.4 0.08 6.91 4.02 9.07
6/8/2022 3:45:00 PM 18.01 64.418 0.081 6.89 4.69 9.02
6/8/2022 4:00:00 PM 18.01 64.418 0.08 6.89 3.76 8.98
6/8/2022 4:15:00 PM 17.98 64.364 0.08 6.9 3.57 9.02
6/8/2022 4:30:00 PM 17.92 64.256 0.08 6.89 3.42 8.99
6/8/2022 4:45:00 PM 17.86 64.148 0.08 6.89 4.06 9.01
6/8/2022 5:00:00 PM 17.8 64.04 0.08 6.89 3.48 9.02
6/8/2022 5:15:00 PM 17.73 63.914 0.08 6.88 3.39 8.99
6/8/2022 5:30:00 PM 17.66 63.788 0.08 6.88 3.99 9.01
6/8/2022 5:45:00 PM 17.53 63.554 0.08 6.88 3.7 9.02
6/8/2022 6:00:00 PM 17.48 63.464 0.08 6.88 4.2 9.01
6/8/2022 6:15:00 PM 17.41 63.338 0.08 6.87 3.6 9
6/8/2022 6:30:00 PM 17.33 63.194 0.08 6.87 4.07 8.99
6/8/2022 6:45:00 PM 17.21 62.978 0.08 6.86 3.96 8.99
6/8/2022 7:00:00 PM 17.14 62.852 0.08 6.86 6.45 8.98
6/8/2022 7:15:00 PM 17.09 62.762 0.08 6.85 5.47 8.95
6/8/2022 7:30:00 PM 17.02 62.636 0.08 6.84 4.36 8.95
6/8/2022 7:45:00 PM 16.95 62.51 0.08 6.84 4.23 8.95
6/8/2022 8:00:00 PM 16.87 62.366 0.081 6.84 4.14 8.94
6/8/2022 8:15:00 PM 16.8 62.24 0.081 6.83 4.29 8.92
6/8/2022 8:30:00 PM 16.72 62.096 0.081 6.82 4.22 8.92
6/8/2022 8:45:00 PM 16.65 61.97 0.081 6.81 4.57 8.9
6/8/2022 9:00:00 PM 16.57 61.826 0.081 6.81 7.28 8.9
6/8/2022 9:15:00 PM 16.49 61.682 0.081 6.81 6.96 8.9
6/8/2022 9:30:00 PM 16.41 61.538 0.081 6.81 6.9 8.92
6/8/2022 9:45:00 PM 16.34 61.412 0.081 6.8 6.83 8.93
6/8/2022 10:00:00 PM 16.27 61.286 0.081 6.81 6.81 8.95
6/8/2022 10:15:00 PM 16.21 61.178 0.081 6.81 6.8 8.96
6/8/2022 10:30:00 PM 16.16 61.088 0.081 6.8 6.83 8.93
6/8/2022 10:45:00 PM 16.1 60.98 0.081 6.8 6.76 8.96
6/8/2022 11:00:00 PM 16.05 60.89 0.081 6.79 6.82 8.95
6/8/2022 11:15:00 PM 16 60.8 0.081 6.79 6.78 8.96
6/8/2022 11:30:00 PM 15.94 60.692 0.081 6.79 6.84 8.98
6/8/2022 11:45:00 PM 15.88 60.584 0.08 6.79 6.84 8.99
6/9/2022 12:00:00 AM 15.84 60.512 0.08 6.78 7.34 8.96
6/9/2022 12:15:00 AM 15.79 60.422 0.079 6.79 7.47 9
6/9/2022 12:30:00 AM 15.74 60.332 0.079 6.8 7.34 8.99
6/9/2022 12:45:00 AM 15.69 60.242 0.079 6.8 7.3 9
6/9/2022 1:00:00 AM 15.65 60.17 0.079 6.79 7.25 9
6/9/2022 1:15:00 AM 15.62 60.116 0.079 6.78 7.13 8.97
6/9/2022 1:30:00 AM 15.58 60.044 0.078 6.79 7.29 9.01
6/9/2022 1:45:00 AM 15.54 59.972 0.078 6.79 7.28 9.01
6/9/2022 2:00:00 AM 15.51 59.918 0.078 6.79 7.27 8.99
6/9/2022 2:15:00 AM 15.47 59.846 0.078 6.78 7.26 8.99
6/9/2022 2:30:00 AM 15.44 59.792 0.078 6.78 7.23 9.01
6/9/2022 2:45:00 AM 15.4 59.72 0.078 6.8 7.28 9.05
6/9/2022 3:00:00 AM 15.36 59.648 0.078 6.79 7.27 9.05
6/9/2022 3:15:00 AM 15.32 59.576 0.078 6.81 7.49 9.08
6/9/2022 3:30:00 AM 15.29 59.522 0.078 6.81 7.36 9.11
6/9/2022 3:45:00 AM 15.25 59.45 0.078 6.82 7.37 9.13
6/9/2022 4:00:00 AM 15.21 59.378 0.078 6.82 7.47 9.17
6/9/2022 4:15:00 AM 15.2 59.36 0.078 6.81 7.42 9.16
6/9/2022 4:30:00 AM 15.17 59.306 0.078 6.81 7.6 9.18
6/9/2022 4:45:00 AM 15.14 59.252 0.078 6.82 8.03 9.2
6/9/2022 5:00:00 AM 15.12 59.216 0.078 6.83 8.28 9.2
6/9/2022 5:15:00 AM 15.08 59.144 0.078 6.83 8.6 9.23
6/9/2022 5:30:00 AM 15.06 59.108 0.078 6.84 9.25 9.24
6/9/2022 5:45:00 AM 15.02 59.036 0.078 6.84 8.9 9.27
6/9/2022 6:00:00 AM 15 59 0.078 6.85 8.99 9.27
6/9/2022 6:15:00 AM 14.97 58.946 0.078 6.86 9.02 9.3
6/9/2022 6:30:00 AM 14.96 58.928 0.078 6.86 8.92 9.33
6/9/2022 6:45:00 AM 14.93 58.874 0.078 6.87 16.44 9.35
6/9/2022 7:00:00 AM 14.9 58.82 0.078 6.88 10.71 9.37
6/9/2022 7:15:00 AM 14.9 58.82 0.078 6.89 10.04 9.39
6/9/2022 7:30:00 AM 14.91 58.838 0.078 6.9 10.18 9.43
6/9/2022 7:45:00 AM 14.91 58.838 0.079 6.9 9.23 9.45
6/9/2022 8:00:00 AM 14.9 58.82 0.079 6.9 8.87 9.45
6/9/2022 8:15:00 AM 14.88 58.784 0.079 6.91 11.39 9.47
6/9/2022 8:30:00 AM 14.88 58.784 0.08 6.91 9.34 9.48
6/9/2022 8:45:00 AM 14.9 58.82 0.08 6.92 16.47 9.5
6/9/2022 9:00:00 AM 14.95 58.91 0.08 6.92 9.85 9.54
6/9/2022 9:15:00 AM 15.01 59.018 0.08 6.93 8.46 9.57
6/9/2022 9:30:00 AM 15.11 59.198 0.081 6.94 8.31 9.58
6/9/2022 9:45:00 AM 15.24 59.432 0.081 6.95 9.17 9.6
6/9/2022 10:00:00 AM 15.29 59.522 0.081 6.95 8.93 9.6
6/9/2022 10:15:00 AM 15.44 59.792 0.082 6.95 8.51 9.58
6/9/2022 10:30:00 AM 15.55 59.99 0.082 6.95 8.03 9.57
6/9/2022 10:45:00 AM 15.64 60.152 0.082 6.96 10.71 9.57
6/9/2022 11:00:00 AM 15.86 60.548 0.082 6.96 9.94 9.55
6/9/2022 11:15:00 AM 15.83 60.494 0.082 6.96 10.89 9.54
6/9/2022 11:30:00 AM 15.87 60.566 0.082 6.96 8.38 9.53
6/9/2022 11:45:00 AM 16.04 60.872 0.082 6.96 8.57 9.5
6/9/2022 12:00:00 PM 16.11 60.998 0.083 6.95 9.62 9.47
6/9/2022 12:15:00 PM 16.13 61.034 0.083 6.94 10.6 9.46
6/9/2022 12:30:00 PM 16.15 61.07 0.083 6.94 8.3 9.45
6/9/2022 12:45:00 PM 16.16 61.088 0.083 6.95 8.07 9.45
6/9/2022 1:00:00 PM 16.14 61.052 0.083 6.95 7.97 9.45
6/9/2022 1:15:00 PM 16.11 60.998 0.083 6.95 8.65 9.45
6/9/2022 1:30:00 PM 16.13 61.034 0.083 6.95 8.2 9.45
6/9/2022 1:45:00 PM 16.11 60.998 0.083 6.95 9.8 9.43
6/9/2022 2:00:00 PM 16.09 60.962 0.082 6.95 8.9 9.43
6/9/2022 2:15:00 PM 16.11 60.998 0.082 6.95 9.02 9.44
6/9/2022 2:30:00 PM 16.13 61.034 0.082 6.94 8.61 9.42
6/9/2022 2:45:00 PM 15.98 60.764 0.082 6.93 9.81 9.38
6/9/2022 3:00:00 PM 15.93 60.674 0.082 6.94 8.14 9.4
6/9/2022 3:15:00 PM 15.9 60.62 0.082 6.93 14.12 9.4
6/9/2022 3:30:00 PM 15.89 60.602 0.082 6.93 8.72 9.41
6/9/2022 3:45:00 PM 15.91 60.638 0.082 6.94 7.36 9.42
6/9/2022 4:00:00 PM 16.07 60.926 0.082 6.94 8.63 9.43
6/9/2022 4:15:00 PM 15.98 60.764 0.082 6.93 8.62 9.4
6/9/2022 4:30:00 PM 15.89 60.602 0.082 6.93 8.61 9.42
6/9/2022 4:45:00 PM 15.89 60.602 0.082 6.94 10.33 9.44
6/9/2022 5:00:00 PM 15.88 60.584 0.082 6.93 8.77 9.44
6/9/2022 5:15:00 PM 15.98 60.764 0.082 6.93 9.09 9.44
6/9/2022 5:30:00 PM 15.99 60.782 0.082 6.92 10.25 9.41
6/9/2022 5:45:00 PM 15.95 60.71 0.082 6.92 9.49 9.41
6/9/2022 6:00:00 PM 15.96 60.728 0.081 6.93 9.37 9.42
6/9/2022 6:15:00 PM 15.89 60.602 0.081 6.92 12.07 9.39
6/9/2022 6:30:00 PM 15.79 60.422 0.081 6.91 13.49 9.38
6/9/2022 6:45:00 PM 15.75 60.35 0.081 6.9 8.85 9.38
6/9/2022 7:00:00 PM 15.71 60.278 0.081 6.9 7.2 9.38
6/9/2022 7:15:00 PM 15.67 60.206 0.081 6.89 7.63 9.37
6/9/2022 7:30:00 PM 15.63 60.134 0.081 6.88 7.43 9.33
6/9/2022 7:45:00 PM 15.57 60.026 0.081 6.88 8.64 9.34
6/9/2022 8:00:00 PM 15.52 59.936 0.081 6.87 9.01 9.33
6/9/2022 8:15:00 PM 15.45 59.81 0.081 6.86 8.39 9.32
6/9/2022 8:30:00 PM 15.39 59.702 0.081 6.85 7.53 9.29
6/9/2022 8:45:00 PM 15.32 59.576 0.081 6.85 7.05 9.29
6/9/2022 9:00:00 PM 15.24 59.432 0.081 6.85 7.11 9.3
6/9/2022 9:15:00 PM 15.17 59.306 0.081 6.84 6.97 9.3
6/9/2022 9:30:00 PM 15.1 59.18 0.081 6.84 7.02 9.32
6/9/2022 9:45:00 PM 15.03 59.054 0.081 6.84 7.02 9.33
6/9/2022 10:00:00 PM 14.96 58.928 0.081 6.84 7.13 9.34
6/9/2022 10:15:00 PM 14.88 58.784 0.081 6.84 7.17 9.37
6/9/2022 10:30:00 PM 14.8 58.64 0.081 6.84 7.14 9.38
6/9/2022 10:45:00 PM 14.73 58.514 0.081 6.84 7.14 9.4
6/9/2022 11:00:00 PM 14.66 58.388 0.081 6.83 7.13 9.39
6/9/2022 11:15:00 PM 14.58 58.244 0.081 6.83 7.15 9.42
6/9/2022 11:30:00 PM 14.51 58.118 0.081 6.83 7.11 9.43
6/9/2022 11:45:00 PM 14.44 57.992 0.081 6.83 7.15 9.46
6/10/2022 12:00:00 AM 14.36 57.848 0.081 6.83 7.06 9.48
6/10/2022 12:15:00 AM 14.29 57.722 0.081 6.83 7.1 9.49
6/10/2022 12:30:00 AM 14.23 57.614 0.081 6.83 8.2 9.5
6/10/2022 12:45:00 AM 14.18 57.524 0.081 6.82 7.19 9.5
6/10/2022 1:00:00 AM 14.12 57.416 0.081 6.81 9.24 9.51
6/10/2022 1:15:00 AM 14.08 57.344 0.081 6.82 9.39 9.52
6/10/2022 1:30:00 AM 14.04 57.272 0.081 6.82 9.33 9.53
6/10/2022 1:45:00 AM 13.99 57.182 0.081 6.82 9.32 9.55
6/10/2022 2:00:00 AM 13.94 57.092 0.081 6.82 9.3 9.56
6/10/2022 2:15:00 AM 13.87 56.966 0.08 6.82 9.28 9.58
6/10/2022 2:30:00 AM 13.82 56.876 0.08 6.82 9.26 9.58
6/10/2022 2:45:00 AM 13.77 56.786 0.08 6.82 9.19 9.61
6/10/2022 3:00:00 AM 13.72 56.696 0.08 6.82 9.12 9.61
6/10/2022 3:15:00 AM 13.7 56.66 0.08 6.81 9.15 9.61
6/10/2022 3:30:00 AM 13.66 56.588 0.08 6.82 9.2 9.64
6/10/2022 3:45:00 AM 13.64 56.552 0.08 6.82 9.08 9.64
6/10/2022 4:00:00 AM 13.61 56.498 0.08 6.81 9.47 9.64
6/10/2022 4:15:00 AM 13.57 56.426 0.08 6.82 9.1 9.66
6/10/2022 4:30:00 AM 13.53 56.354 0.08 6.81 206.3 9.64
6/10/2022 4:45:00 AM 13.46 56.228 0.08 6.82 35.51 9.68
6/10/2022 5:00:00 AM 13.41 56.138 0.08 6.81 11.73 9.67
6/10/2022 5:15:00 AM 13.39 56.102 0.08 6.81 8.47 9.67
6/10/2022 5:30:00 AM 13.37 56.066 0.08 6.81 8.31 9.66
6/10/2022 5:45:00 AM 13.31 55.958 0.08 6.81 20.5 9.7
6/10/2022 6:00:00 AM 13.26 55.868 0.08 6.81 10.38 9.72
6/10/2022 6:15:00 AM 13.22 55.796 0.08 6.81 8.58 9.72
6/10/2022 6:30:00 AM 13.18 55.724 0.08 6.82 9.08 9.78
6/10/2022 6:45:00 AM 13.13 55.634 0.08 6.83 10.61 9.82
6/10/2022 7:00:00 AM 13.1 55.58 0.08 6.83 8.62 9.82
6/10/2022 7:15:00 AM 13.1 55.58 0.08 6.83 9.15 9.84
6/10/2022 7:30:00 AM 13.09 55.562 0.08 6.84 8.91 9.86
6/10/2022 7:45:00 AM 13.1 55.58 0.08 6.85 20.74 9.89
6/10/2022 8:00:00 AM 13.11 55.598 0.08 6.85 10.58 9.91
6/10/2022 8:15:00 AM 13.17 55.706 0.08 6.86 7.61 9.93
6/10/2022 8:30:00 AM 13.21 55.778 0.08 6.87 8.22 9.95
6/10/2022 8:45:00 AM 13.3 55.94 0.08 6.87 8.45 9.94
6/10/2022 9:00:00 AM 13.4 56.12 0.08 6.87 6.67 9.91
6/10/2022 9:15:00 AM 13.54 56.372 0.08 6.87 9.84 9.91
6/10/2022 9:30:00 AM 13.73 56.714 0.08 6.88 8.68 9.89
6/10/2022 9:45:00 AM 13.96 57.128 0.08 6.88 8.94 9.85
6/10/2022 10:00:00 AM 14.23 57.614 0.08 6.88 9.65 9.8
6/10/2022 10:15:00 AM 14.51 58.118 0.08 6.88 8.92 9.78
6/10/2022 10:30:00 AM 14.73